Provisional Data: Conodoguinet Creek near Schlusser, PA


Please select a monitoring station.
Please select start date.
Please select start date.

Toggle Unit: C/F Toggle Unit: C/F
Sample Time Temperature (C) Temperature (F) Specific Conductivity (mS/cm) pH   Turbidity (NTU+) DO (mg/L)
4/13/2022 12:00:00 AM 14.05 57.29 0.286 7.28 183.1 9.85
4/13/2022 12:15:00 AM 14.04 57.272 0.286 7.35 220.4 9.83
4/13/2022 12:30:00 AM 14.01 57.218 0.286 7.27 236 9.8
4/13/2022 12:45:00 AM 13.99 57.182 0.287 7.32 225.6 9.77
4/13/2022 1:00:00 AM 13.98 57.164 0.286 7.3 248 9.74
4/13/2022 1:15:00 AM 13.96 57.128 0.286 7.26 247 9.72
4/13/2022 1:30:00 AM 13.93 57.074 0.286 7.23 175.2 9.69
4/13/2022 1:45:00 AM 13.91 57.038 0.286 7.25 224.7 9.67
4/13/2022 2:00:00 AM 13.89 57.002 0.286 7.24 230.1 9.64
4/13/2022 2:15:00 AM 13.85 56.93 0.287 7.23 236.6 9.62
4/13/2022 2:30:00 AM 13.83 56.894 0.287 7.23 141.9 9.59
4/13/2022 2:45:00 AM 13.79 56.822 0.288 7.22 146.2 9.56
4/13/2022 3:00:00 AM 13.76 56.768 0.287 7.22 110.1 9.53
4/13/2022 3:15:00 AM 13.74 56.732 0.287 7.23 123.9 9.51
4/13/2022 3:30:00 AM 13.71 56.678 0.288 7.22 101.2 9.48
4/13/2022 3:45:00 AM 13.69 56.642 0.288 7.12 101.6 9.45
4/13/2022 4:00:00 AM 13.67 56.606 0.288 7.11 143.3 9.43
4/13/2022 4:15:00 AM 13.65 56.57 0.288 7.1 109.5 9.41
4/13/2022 4:30:00 AM 13.63 56.534 0.289 7.1 114.4 9.38
4/13/2022 4:45:00 AM 13.61 56.498 0.289 7.1 94.92 9.35
4/13/2022 5:00:00 AM 13.59 56.462 0.289 7.09 105.1 9.34
4/13/2022 5:15:00 AM 13.57 56.426 0.289 7.09 105.8 9.32
4/13/2022 5:30:00 AM 13.56 56.408 0.289 7.08 104 9.3
4/13/2022 5:45:00 AM 13.54 56.372 0.289 7.12 101.2 9.29
4/13/2022 6:00:00 AM 13.53 56.354 0.289 7.16 103.8 9.25
4/13/2022 6:15:00 AM 13.52 56.336 0.29 7.15 116.2 9.25
4/13/2022 6:30:00 AM 13.5 56.3 0.289 7.04 128.5 9.24
4/13/2022 6:45:00 AM 13.48 56.264 0.29 7.06 130.6 9.23
4/13/2022 7:00:00 AM 13.47 56.246 0.29 7.07 123.1 9.21
4/13/2022 7:15:00 AM 13.46 56.228 0.29 7.07 197.6 9.22
4/13/2022 7:30:00 AM 13.46 56.228 0.29 7.06 214 9.23
4/13/2022 7:45:00 AM 13.48 56.264 0.29 7.06 203.2 9.24
4/13/2022 8:00:00 AM 13.51 56.318 0.291 7.05 567 9.29
4/13/2022 8:15:00 AM 13.54 56.372 0.291 7.04 188.1 9.33
4/13/2022 8:30:00 AM 13.56 56.408 0.291 7.07 204.3 9.36
4/13/2022 8:45:00 AM 13.6 56.48 0.292 7.06 298.5 9.41
4/13/2022 9:00:00 AM 13.68 56.624 0.292 7.08 165.6 9.51
4/13/2022 9:15:00 AM 13.7 56.66 0.292 7.09 141.3 9.56
4/13/2022 9:30:00 AM 13.77 56.786 0.292 7.11 166.6 9.63
4/13/2022 9:45:00 AM 13.81 56.858 0.293 7.1 143.9 9.7
4/13/2022 10:00:00 AM 13.83 56.894 0.292 7.11 154.3 9.73
4/13/2022 10:15:00 AM 13.86 56.948 0.293 7.18 169.5 9.75
4/13/2022 10:30:00 AM 13.91 57.038 0.293 7.21 150.8 9.8
4/13/2022 10:45:00 AM 13.96 57.128 0.293 7.18 153 9.83
4/13/2022 11:00:00 AM 14.03 57.254 0.293 7.16 155.4 9.85
4/13/2022 11:15:00 AM 14.11 57.398 0.293 7.16 229.2 9.92
4/13/2022 11:30:00 AM 14.21 57.578 0.293 7.17 206.8 9.98
4/13/2022 11:45:00 AM 14.27 57.686 0.294 7.17 144.2 10.03
4/13/2022 12:00:00 PM 14.38 57.884 0.294 7.15 1904 10.12
4/13/2022 12:15:00 PM 14.49 58.082 0.294 7.21 4465 10.16
4/13/2022 12:30:00 PM 14.62 58.316 0.294 7.25 3160 10.2
4/13/2022 12:45:00 PM 14.64 58.352 0.295 7.23 3385 10.2
4/13/2022 1:00:00 PM 14.63 58.334 0.295 7.2 2008 10.13
4/13/2022 1:15:00 PM 14.62 58.316 0.295 7.22 2439 10.09
4/13/2022 1:30:00 PM 14.63 58.334 0.295 7.22 2551 10.08
4/13/2022 1:45:00 PM 14.62 58.316 0.295 7.26 1604 10.02
4/13/2022 2:00:00 PM 14.67 58.406 0.295 7.28 574.2 10.03
4/13/2022 2:15:00 PM 14.75 58.55 0.295 7.29 520.7 10.09
4/13/2022 2:30:00 PM 14.82 58.676 0.295 7.29 436.9 10.15
4/13/2022 2:45:00 PM 14.93 58.874 0.295 7.29 558.5 10.25
4/13/2022 3:00:00 PM 15.03 59.054 0.295 7.33 644.8 10.29
4/13/2022 3:15:00 PM 15.11 59.198 0.296 7.35 1467 10.35
4/13/2022 3:30:00 PM 15.21 59.378 0.296 7.36 1304 10.42
4/13/2022 3:45:00 PM 15.27 59.486 0.296 7.38 2530 10.43
4/13/2022 4:00:00 PM 15.32 59.576 0.296 7.33 1476 10.42
4/13/2022 4:15:00 PM 15.4 59.72 0.297 7.35 650.4 10.46
4/13/2022 4:30:00 PM 15.45 59.81 0.297 7.36 1392 10.44
4/13/2022 4:45:00 PM 15.58 60.044 0.297 7.39 575.8 10.47
4/13/2022 5:00:00 PM 15.6 60.08 0.297 7.39 434.4 10.43
4/13/2022 5:15:00 PM 15.61 60.098 0.297 7.4 278.4 10.38
4/13/2022 5:30:00 PM 15.61 60.098 0.298 7.4 303.6 10.28
4/13/2022 5:45:00 PM 15.61 60.098 0.298 7.41 294.3 10.2
4/13/2022 6:00:00 PM 15.58 60.044 0.298 7.4 265.5 10.08
4/13/2022 6:15:00 PM 15.59 60.062 0.299 7.38 329.8 9.98
4/13/2022 6:30:00 PM 15.6 60.08 0.298 7.45 330.7 9.92
4/13/2022 6:45:00 PM 15.6 60.08 0.298 7.46 339.8 9.88
4/13/2022 7:00:00 PM 15.6 60.08 0.299 7.46 278.3 9.84
4/13/2022 7:15:00 PM 15.59 60.062 0.299 7.43 270 9.82
4/13/2022 7:30:00 PM 15.59 60.062 0.3 7.46 482.1 9.78
4/13/2022 7:45:00 PM 15.58 60.044 0.3 7.45 155.1 9.74
4/13/2022 8:00:00 PM 15.56 60.008 0.3 7.42 587.6 9.68
4/13/2022 8:15:00 PM 15.55 59.99 0.27 7.43 208.3 9.63
4/13/2022 8:30:00 PM 15.55 59.99 0.3 7.41 588.9 9.58
4/13/2022 8:45:00 PM 15.55 59.99 0.301 7.4 603.3 9.54
4/13/2022 9:00:00 PM 15.55 59.99 0.3 7.4 102.8 9.52
4/13/2022 9:15:00 PM 15.55 59.99 0.3 7.41 98.53 9.45
4/13/2022 9:30:00 PM 15.54 59.972 0.3 7.4 108.1 9.51
4/13/2022 9:45:00 PM 15.53 59.954 0.3 7.41 97.66 9.5
4/13/2022 10:00:00 PM 15.52 59.936 0.301 7.42 104.9 9.5
4/13/2022 10:15:00 PM 15.5 59.9 0.301 7.4 102 9.5
4/13/2022 10:30:00 PM 15.48 59.864 0.301 7.42 101 9.48
4/13/2022 10:45:00 PM 15.46 59.828 0.301 7.42 113 9.47
4/13/2022 11:00:00 PM 15.44 59.792 0.3 7.39 118.2 9.47
4/13/2022 11:15:00 PM 15.41 59.738 0.301 7.42 101.3 9.46
4/13/2022 11:30:00 PM 15.39 59.702 0.301 7.43 108.5 9.45
4/13/2022 11:45:00 PM 15.36 59.648 0.3 7.43 112.3 9.43
4/14/2022 12:00:00 AM 15.33 59.594 0.301 7.42 114 9.41
4/14/2022 12:15:00 AM 15.31 59.558 0.301 7.41 126.4 9.38
4/14/2022 12:30:00 AM 15.29 59.522 0.301 7.41 140.4 9.37
4/14/2022 12:45:00 AM 15.27 59.486 0.301 7.4 134.5 9.36
4/14/2022 1:00:00 AM 15.25 59.45 0.299 7.31 131.7 9.33
4/14/2022 1:15:00 AM 15.23 59.414 0.301 7.31 151.8 9.31
4/14/2022 1:30:00 AM 15.21 59.378 0.301 7.31 146 9.28
4/14/2022 1:45:00 AM 15.19 59.342 0.301 7.37 175.6 9.25
4/14/2022 2:00:00 AM 15.17 59.306 0.301 7.34 176.4 9.24
4/14/2022 2:15:00 AM 15.15 59.27 0.302 7.31 180.2 9.21
4/14/2022 2:30:00 AM 15.12 59.216 0.302 7.34 194.3 9.17
4/14/2022 2:45:00 AM 15.1 59.18 0.302 7.33 128.7 9.13
4/14/2022 3:00:00 AM 15.07 59.126 0.302 7.31 138.3 9.13
4/14/2022 3:15:00 AM 15.04 59.072 0.302 7.31 157.3 9.09
4/14/2022 3:30:00 AM 15.01 59.018 0.302 7.3 176.1 9.07
4/14/2022 3:45:00 AM 14.97 58.946 0.302 7.26 189.2 9.05
4/14/2022 4:00:00 AM 14.94 58.892 0.301 7.27 186.9 9
4/14/2022 4:15:00 AM 14.9 58.82 0.301 7.25 184.3 9.01
4/14/2022 4:30:00 AM 14.86 58.748 0.302 7.25 774.7 8.98
4/14/2022 4:45:00 AM 14.83 58.694 0.302 7.28 164.6 8.96
4/14/2022 5:00:00 AM 14.8 58.64 0.303 7.25 159.6 8.94
4/14/2022 5:15:00 AM 14.77 58.586 0.302 7.23 161.6 8.91
4/14/2022 5:30:00 AM 14.74 58.532 0.302 7.22 161 8.9
4/14/2022 5:45:00 AM 14.71 58.478 0.303 7.11 170.1 8.88
4/14/2022 6:00:00 AM 14.68 58.424 0.303 7.17 162.2 8.84
4/14/2022 6:15:00 AM 14.65 58.37 0.303 7.11 164.5 8.85
4/14/2022 6:30:00 AM 14.63 58.334 0.303 7.16 1606 8.82
4/14/2022 6:45:00 AM 14.6 58.28 0.304 7.15 1479 8.82
4/14/2022 7:00:00 AM 14.59 58.262 0.304 7.15 524 8.79
4/14/2022 7:15:00 AM 14.57 58.226 0.304 7.13 143 8.8
4/14/2022 7:30:00 AM 14.56 58.208 0.304 7.19 155.7 8.78
4/14/2022 7:45:00 AM 14.56 58.208 0.304 7.18 1404 8.81
4/14/2022 8:00:00 AM 14.56 58.208 0.304 7.22 1839 8.84
4/14/2022 8:15:00 AM 14.58 58.244 0.304 7.21 148.5 8.88
4/14/2022 8:30:00 AM 14.61 58.298 0.305 7.21 141.1 8.91
4/14/2022 8:45:00 AM 14.64 58.352 0.305 7.19 701.7 8.99
4/14/2022 9:00:00 AM 14.7 58.46 0.305 7.2 275.6 9.05
4/14/2022 9:15:00 AM 14.75 58.55 0.305 7.19 1837 9.12
4/14/2022 9:30:00 AM 14.82 58.676 0.305 7.21 375.5 9.21
4/14/2022 9:45:00 AM 14.89 58.802 0.305 7.22 896.3 9.27
4/14/2022 10:00:00 AM 14.96 58.928 0.305 7.24 771.8 9.36
4/14/2022 10:15:00 AM 15.04 59.072 0.305 7.25 335.8 9.45
4/14/2022 10:30:00 AM 15.12 59.216 0.306 7.26 152.2 9.5
4/14/2022 10:45:00 AM 15.21 59.378 0.306 7.21 2188 9.58
4/14/2022 11:00:00 AM 15.32 59.576 0.306 7.23 1266 9.62
4/14/2022 11:15:00 AM 15.41 59.738 0.306 7.26 571.7 9.7
4/14/2022 11:30:00 AM 15.52 59.936 0.307 7.31 174.6 9.75
4/14/2022 11:45:00 AM 15.63 60.134 0.307 7.34 337.9 9.81
4/14/2022 12:00:00 PM 15.68 60.224 0.307 7.32 446.4 9.86
4/14/2022 12:15:00 PM 15.73 60.314 0.307 7.34 1449 9.89
4/14/2022 12:30:00 PM 15.77 60.386 0.308 7.33 326.6 9.93
4/14/2022 12:45:00 PM 15.84 60.512 0.308 7.36 176 9.96
4/14/2022 1:00:00 PM 15.88 60.584 0.308 7.34 171.8 9.97
4/14/2022 1:15:00 PM 15.86 60.548 0.308 7.35 308.6 9.92
4/14/2022 1:30:00 PM 15.82 60.476 0.308 7.34 252.9 9.81
4/14/2022 1:45:00 PM 15.77 60.386 0.309 7.3 193.1 9.69
4/14/2022 2:00:00 PM 15.73 60.314 0.309 7.37 870.8 9.59
4/14/2022 2:15:00 PM 15.72 60.296 0.309 7.37 1497 9.5
4/14/2022 2:30:00 PM 15.71 60.278 0.31 7.36 780.6 9.43
4/14/2022 2:45:00 PM 15.73 60.314 0.31 7.45 341.2 9.44
4/14/2022 3:00:00 PM 15.79 60.422 0.31 7.4 666.4 9.52
4/14/2022 3:15:00 PM 15.83 60.494 0.31 7.41 143 9.63
4/14/2022 3:30:00 PM 15.86 60.548 0.311 7.46 112.3 9.7
4/14/2022 3:45:00 PM 15.88 60.584 0.309 7.45 197.2 9.76
4/14/2022 4:00:00 PM 15.99 60.782 0.309 7.46 368 9.91
4/14/2022 4:15:00 PM 16.07 60.926 0.31 7.49 345 9.98
4/14/2022 4:30:00 PM 16.05 60.89 0.311 7.5 239.2 9.96
4/14/2022 4:45:00 PM 16.05 60.89 0.311 7.55 109.1 9.96
4/14/2022 5:00:00 PM 16.09 60.962 0.311 7.52 200.4 10.02
4/14/2022 5:15:00 PM 16.09 60.962 0.311 7.53 205.8 10.02
4/14/2022 5:30:00 PM 16.08 60.944 0.311 7.57 197.6 9.96
4/14/2022 5:45:00 PM 16.07 60.926 0.311 7.55 218.5 9.91
4/14/2022 6:00:00 PM 16.05 60.89 0.311 7.55 231.4 9.86
4/14/2022 6:15:00 PM 16.02 60.836 0.311 7.5 173.6 9.79
4/14/2022 6:30:00 PM 15.99 60.782 0.311 7.49 144.1 9.69
4/14/2022 6:45:00 PM 15.96 60.728 0.311 7.51 258.1 9.59
4/14/2022 7:00:00 PM 15.95 60.71 0.312 7.46 131.1 9.5
4/14/2022 7:15:00 PM 15.93 60.674 0.312 7.47 221.2 9.44
4/14/2022 7:30:00 PM 15.9 60.62 0.312 7.47 244.3 9.37
4/14/2022 7:45:00 PM 15.88 60.584 0.312 7.51 208.6 9.33
4/14/2022 8:00:00 PM 15.85 60.53 0.312 7.47 226.6 9.3
4/14/2022 8:15:00 PM 15.82 60.476 0.312 7.44 112.5 9.26
4/14/2022 8:30:00 PM 15.79 60.422 0.312 7.45 107.6 9.24
4/14/2022 8:45:00 PM 15.75 60.35 0.312 7.44 113.4 9.23
4/14/2022 9:00:00 PM 15.71 60.278 0.312 7.45 116.5 9.21
4/14/2022 9:15:00 PM 15.67 60.206 0.313 7.45 122.2 9.23
4/14/2022 9:30:00 PM 15.62 60.116 0.313 7.49 113.8 9.23
4/14/2022 9:45:00 PM 15.57 60.026 0.314 7.51 122.3 9.21
4/14/2022 10:00:00 PM 15.53 59.954 0.314 7.52 116.8 9.25
4/14/2022 10:15:00 PM 15.48 59.864 0.314 7.51 112.2 9.23
4/14/2022 10:30:00 PM 15.43 59.774 0.314 7.49 128.9 9.26
4/14/2022 10:45:00 PM 15.39 59.702 0.313 7.48 113.6 9.26
4/14/2022 11:00:00 PM 15.35 59.63 0.313 7.52 110.4 9.27
4/14/2022 11:15:00 PM 15.29 59.522 0.314 7.52 110.2 9.27
4/14/2022 11:30:00 PM 15.24 59.432 0.306 7.52 115.4 9.25
4/14/2022 11:45:00 PM 15.18 59.324 0.295 7.53 131.1 9.27
4/15/2022 12:00:00 AM 15.13 59.234 0.314 7.48 116.5 9.24
4/15/2022 12:15:00 AM 15.08 59.144 0.313 7.5 199 9.23
4/15/2022 12:30:00 AM 15.02 59.036 0.269 7.56 114.7 9.24
4/15/2022 12:45:00 AM 14.97 58.946 0.292 7.49 1230 9.24
4/15/2022 1:00:00 AM 14.92 58.856 0.314 7.54 116.1 9.22
4/15/2022 1:15:00 AM 14.85 58.73 0.258 7.52 111 9.23
4/15/2022 1:30:00 AM 14.79 58.622 0.312 7.52 123.2 9.19
4/15/2022 1:45:00 AM 14.73 58.514 0.313 7.51 129.6 9.19
4/15/2022 2:00:00 AM 14.67 58.406 0.314 7.46 129.2 9.18
4/15/2022 2:15:00 AM 14.59 58.262 0.275 7.5 133.8 9.16
4/15/2022 2:30:00 AM 14.52 58.136 0.312 7.5 134.9 9.16
4/15/2022 2:45:00 AM 14.45 58.01 0.271 7.43 141.1 9.13
4/15/2022 3:00:00 AM 14.37 57.866 0.314 7.4 125.9 9.13
4/15/2022 3:15:00 AM 14.3 57.74 0.301 7.37 128.2 9.11
4/15/2022 3:30:00 AM 14.24 57.632 0.282 7.45 138.4 9.11
4/15/2022 3:45:00 AM 14.15 57.47 0.314 7.38 118.5 9.1
4/15/2022 4:00:00 AM 14.09 57.362 0.293 7.34 113.3 9.08
4/15/2022 4:15:00 AM 14.01 57.218 0.314 7.34 116.6 9.07
4/15/2022 4:30:00 AM 13.94 57.092 0.305 7.37 130.7 9.06
4/15/2022 4:45:00 AM 13.87 56.966 0.293 7.24 134.7 9.05
4/15/2022 5:00:00 AM 13.8 56.84 0.314 7.22 131.7 9.05
4/15/2022 5:15:00 AM 13.73 56.714 0.315 7.19 140.8 9.05
4/15/2022 5:30:00 AM 13.67 56.606 0.315 7.19 138.6 9.04
4/15/2022 5:45:00 AM 13.59 56.462 0.315 7.18 136.4 9.04
4/15/2022 6:00:00 AM 13.53 56.354 0.315 7.18 151.2 9.04
4/15/2022 6:15:00 AM 13.47 56.246 0.315 7.16 148.9 9.04
4/15/2022 6:30:00 AM 13.39 56.102 0.315 7.15 150.5 9.04
4/15/2022 6:45:00 AM 13.34 56.012 0.315 7.26 151.8 9.04
4/15/2022 7:00:00 AM 13.28 55.904 0.316 7.3 157.2 9.05
4/15/2022 7:15:00 AM 13.22 55.796 0.316 7.25 162.1 9.05
4/15/2022 7:30:00 AM 13.17 55.706 0.316 7.25 170.9 9.08
4/15/2022 7:45:00 AM 13.14 55.652 0.316 7.3 166.4 9.12
4/15/2022 8:00:00 AM 13.11 55.598 0.316 7.28 169.2 9.16
4/15/2022 8:15:00 AM 13.1 55.58 0.316 7.21 163.3 9.22
4/15/2022 8:30:00 AM 13.11 55.598 0.317 7.22 165.7 9.29
4/15/2022 8:45:00 AM 13.12 55.616 0.317 7.22 168.5 9.35
4/15/2022 9:00:00 AM 13.14 55.652 0.317 7.3 178.3 9.44
4/15/2022 9:15:00 AM 13.17 55.706 0.317 7.26 181.9 9.54
4/15/2022 9:30:00 AM 13.21 55.778 0.318 7.25 196.7 9.62
4/15/2022 9:45:00 AM 13.25 55.85 0.318 7.26 195.4 9.72
4/15/2022 10:00:00 AM 13.3 55.94 0.318 7.26 199 9.8
4/15/2022 10:15:00 AM 13.34 56.012 0.318 7.35 197 9.9
4/15/2022 10:30:00 AM 13.39 56.102 0.319 7.34 205.7 9.97
4/15/2022 10:45:00 AM 13.44 56.192 0.318 7.3 215.5 10.04
4/15/2022 11:00:00 AM 13.5 56.3 0.318 7.39 224.4 10.09
4/15/2022 11:15:00 AM 13.57 56.426 0.319 7.29 217.9 10.17
4/15/2022 11:30:00 AM 13.65 56.57 0.319 7.28 216.2 10.23
4/15/2022 11:45:00 AM 13.73 56.714 0.319 7.31 230.7 10.29
4/15/2022 12:00:00 PM 13.84 56.912 0.319 7.3 228.2 10.32
4/15/2022 12:15:00 PM 13.94 57.092 0.319 7.31 228.5 10.39
4/15/2022 12:30:00 PM 14.04 57.272 0.32 7.33 228.3 10.45
4/15/2022 12:45:00 PM 14.16 57.488 0.32 7.32 240.1 10.48
4/15/2022 1:00:00 PM 14.27 57.686 0.321 7.41 228.7 10.5
4/15/2022 1:15:00 PM 14.41 57.938 0.321 7.38 182.9 10.57
4/15/2022 1:30:00 PM 14.54 58.172 0.321 7.35 188.8 10.62
4/15/2022 1:45:00 PM 14.65 58.37 0.321 7.38 190.7 10.65
4/15/2022 2:00:00 PM 14.76 58.568 0.321 7.39 192.2 10.68
4/15/2022 2:15:00 PM 14.86 58.748 0.321 7.43 204.2 10.73
4/15/2022 2:30:00 PM 14.98 58.964 0.322 7.45 200.4 10.76
4/15/2022 2:45:00 PM 15.06 59.108 0.322 7.51 200.9 10.77
4/15/2022 3:00:00 PM 15.16 59.288 0.322 7.51 197.9 10.82
4/15/2022 3:15:00 PM 15.23 59.414 0.322 7.51 203.5 10.82
4/15/2022 3:30:00 PM 15.31 59.558 0.322 7.55 211 10.85
4/15/2022 3:45:00 PM 15.39 59.702 0.322 7.48 203.6 10.86
4/15/2022 4:00:00 PM 15.45 59.81 0.322 7.47 208.5 10.86
4/15/2022 4:15:00 PM 15.49 59.882 0.322 7.58 210.9 10.84
4/15/2022 4:30:00 PM 15.54 59.972 0.322 7.56 215.7 10.86
4/15/2022 4:45:00 PM 15.55 59.99 0.322 7.6 209.7 10.84
4/15/2022 5:00:00 PM 15.58 60.044 0.322 7.61 217.9 10.82
4/15/2022 5:15:00 PM 15.56 60.008 0.322 7.64 234.1 10.76
4/15/2022 5:30:00 PM 15.52 59.936 0.323 7.63 241.5 10.71
4/15/2022 5:45:00 PM 15.48 59.864 0.323 7.64 221.3 10.66
4/15/2022 6:00:00 PM 15.41 59.738 0.323 7.64 226.5 10.59
4/15/2022 6:15:00 PM 15.34 59.612 0.323 7.64 233.1 10.48
4/15/2022 6:30:00 PM 15.27 59.486 0.323 7.63 250.7 10.41
4/15/2022 6:45:00 PM 15.19 59.342 0.323 7.64 243.6 10.28
4/15/2022 7:00:00 PM 15.14 59.252 0.324 7.63 222.8 10.16
4/15/2022 7:15:00 PM 15.12 59.216 0.324 7.62 233.2 10.09
4/15/2022 7:30:00 PM 15.09 59.162 0.324 7.62 225.6 9.97
4/15/2022 7:45:00 PM 15.08 59.144 0.324 7.61 244.2 9.87
4/15/2022 8:00:00 PM 15.08 59.144 0.324 7.59 249 9.81
4/15/2022 8:15:00 PM 15.08 59.144 0.325 7.58 268.2 9.75
4/15/2022 8:30:00 PM 15.07 59.126 0.325 7.58 270.6 9.7
4/15/2022 8:45:00 PM 15.09 59.162 0.325 7.6 187.5 9.66
4/15/2022 9:00:00 PM 15.11 59.198 0.325 7.55 180.8 9.63
4/15/2022 9:15:00 PM 15.14 59.252 0.326 7.54 181.4 9.64
4/15/2022 9:30:00 PM 15.15 59.27 0.326 7.55 171.2 9.61
4/15/2022 9:45:00 PM 15.17 59.306 0.325 7.57 166.7 9.6
4/15/2022 10:00:00 PM 15.18 59.324 0.326 7.68 2624 9.62
4/15/2022 10:15:00 PM 15.19 59.342 0.325 7.69 167.3 9.62
4/15/2022 10:30:00 PM 15.18 59.324 0.325 7.68 133.1 9.63
4/15/2022 10:45:00 PM 15.17 59.306 0.325 7.68 137.8 9.65
4/15/2022 11:00:00 PM 15.14 59.252 0.325 7.69 138.7 9.66
4/15/2022 11:15:00 PM 15.12 59.216 0.325 7.69 142.2 9.67
4/15/2022 11:30:00 PM 15.09 59.162 0.325 7.7 106.2 9.65
4/15/2022 11:45:00 PM 15.05 59.09 0.325 7.67 106.7 9.65
4/16/2022 12:00:00 AM 15.01 59.018 0.325 7.68 114.1 9.62
4/16/2022 12:15:00 AM 14.97 58.946 0.326 7.7 109.8 9.65
4/16/2022 12:30:00 AM 14.93 58.874 0.325 7.69 117.9 9.64
4/16/2022 12:45:00 AM 14.88 58.784 0.326 7.7 119.2 9.63
4/16/2022 1:00:00 AM 14.84 58.712 0.326 7.66 118.9 9.61
4/16/2022 1:15:00 AM 14.79 58.622 0.326 7.68 123 9.59
4/16/2022 1:30:00 AM 14.74 58.532 0.327 7.68 110.3 9.56
4/16/2022 1:45:00 AM 14.69 58.442 0.327 7.67 115.3 9.56
4/16/2022 2:00:00 AM 14.64 58.352 0.327 7.67 135.1 9.54
4/16/2022 2:15:00 AM 14.59 58.262 0.327 7.68 125.1 9.52
4/16/2022 2:30:00 AM 14.54 58.172 0.327 7.66 118.4 9.52
4/16/2022 2:45:00 AM 14.48 58.064 0.327 7.63 118.3 9.49
4/16/2022 3:00:00 AM 14.43 57.974 0.327 7.62 119.2 9.47
4/16/2022 3:15:00 AM 14.37 57.866 0.327 7.61 106.6 9.45
4/16/2022 3:30:00 AM 14.31 57.758 0.327 7.61 117.2 9.4
4/16/2022 3:45:00 AM 14.25 57.65 0.327 7.61 109.3 9.4
4/16/2022 4:00:00 AM 14.2 57.56 0.328 7.59 104.8 9.38
4/16/2022 4:15:00 AM 14.14 57.452 0.328 7.58 109.5 9.35
4/16/2022 4:30:00 AM 14.1 57.38 0.316 7.57 105.6 9.32
4/16/2022 4:45:00 AM 14.05 57.29 0.328 7.58 708.7 9.31
4/16/2022 5:00:00 AM 14.02 57.236 0.328 7.51 126.4 9.31
4/16/2022 5:15:00 AM 13.98 57.164 0.329 7.49 97.9 9.26
4/16/2022 5:30:00 AM 13.94 57.092 0.328 7.48 106.4 9.25
4/16/2022 5:45:00 AM 13.9 57.02 0.329 7.47 108.9 9.23
4/16/2022 6:00:00 AM 13.87 56.966 0.328 7.46 360.6 9.2
4/16/2022 6:15:00 AM 13.84 56.912 0.328 7.46 114.9 9.19
4/16/2022 6:30:00 AM 13.81 56.858 0.329 7.42 105.8 9.14
4/16/2022 6:45:00 AM 13.77 56.786 0.328 7.41 113.9 9.14
4/16/2022 7:00:00 AM 13.74 56.732 0.328 7.41 129.9 9.11
4/16/2022 7:15:00 AM 13.71 56.678 0.329 7.4 190.4 9.11
4/16/2022 7:30:00 AM 13.68 56.624 0.329 7.39 207.8 9.09
4/16/2022 7:45:00 AM 13.66 56.588 0.329 7.39 205.5 9.1
4/16/2022 8:00:00 AM 13.64 56.552 0.329 7.39 187.9 9.12
4/16/2022 8:15:00 AM 13.63 56.534 0.329 7.37 164.9 9.15
4/16/2022 8:30:00 AM 13.61 56.498 0.329 7.36 171.3 9.17
4/16/2022 8:45:00 AM 13.61 56.498 0.329 7.36 180.8 9.21
4/16/2022 9:00:00 AM 13.62 56.516 0.329 7.36 138 9.28
4/16/2022 9:15:00 AM 13.66 56.588 0.329 7.36 207 9.38
4/16/2022 9:30:00 AM 13.67 56.606 0.329 7.36 249.8 9.5
4/16/2022 9:45:00 AM 13.69 56.642 0.329 7.37 216.7 9.58
4/16/2022 10:00:00 AM 13.74 56.732 0.329 7.38 188 9.66
4/16/2022 10:15:00 AM 13.89 57.002 0.329 7.44 202.8 9.79
4/16/2022 10:30:00 AM 13.97 57.146 0.329 7.46 183.5 9.89
4/16/2022 10:45:00 AM 14.07 57.326 0.329 7.48 180.8 9.98
4/16/2022 11:00:00 AM 14.18 57.524 0.329 7.5 188 10.05
4/16/2022 11:15:00 AM 14.24 57.632 0.329 7.52 185.3 10.17
4/16/2022 11:30:00 AM 14.25 57.65 0.329 7.54 190.2 10.17
4/16/2022 11:45:00 AM 14.25 57.65 0.329 7.55 189.5 10.18
4/16/2022 12:00:00 PM 14.23 57.614 0.329 7.55 195 10.15
4/16/2022 12:15:00 PM 14.21 57.578 0.33 7.54 203.6 10.14
4/16/2022 12:30:00 PM 14.24 57.632 0.33 7.53 192.3 10.14
4/16/2022 12:45:00 PM 14.33 57.794 0.33 7.53 204.7 10.16
4/16/2022 1:00:00 PM 14.37 57.866 0.33 7.54 217 10.18
4/16/2022 1:15:00 PM 14.43 57.974 0.329 7.55 210.9 10.22
4/16/2022 1:30:00 PM 14.54 58.172 0.33 7.56 231.5 10.29
4/16/2022 1:45:00 PM 14.66 58.388 0.33 7.57 211.2 10.35
4/16/2022 2:00:00 PM 14.63 58.334 0.33 7.58 229.2 10.3
4/16/2022 2:15:00 PM 14.58 58.244 0.331 7.58 219 10.24
4/16/2022 2:30:00 PM 14.56 58.208 0.331 7.59 252.3 10.2
4/16/2022 2:45:00 PM 14.58 58.244 0.331 7.58 240.6 10.16
4/16/2022 3:00:00 PM 14.62 58.316 0.331 7.52 240.5 10.13
4/16/2022 3:15:00 PM 14.59 58.262 0.332 7.5 248.9 10.03
4/16/2022 3:30:00 PM 14.57 58.226 0.332 7.49 249.2 9.94
4/16/2022 3:45:00 PM 14.59 58.262 0.332 7.48 272.1 9.95
4/16/2022 4:00:00 PM 14.6 58.28 0.332 7.47 257.7 9.92
4/16/2022 4:15:00 PM 14.58 58.244 0.333 7.48 273.4 9.86
4/16/2022 4:30:00 PM 14.55 58.19 0.333 7.45 279.7 9.73
4/16/2022 4:45:00 PM 14.54 58.172 0.333 7.43 289.6 9.66
4/16/2022 5:00:00 PM 14.55 58.19 0.334 7.42 289.9 9.61
4/16/2022 5:15:00 PM 14.62 58.316 0.334 7.43 281.8 9.65
4/16/2022 5:30:00 PM 14.64 58.352 0.335 7.43 287.4 9.64
4/16/2022 5:45:00 PM 14.69 58.442 0.335 7.43 280.8 9.64
4/16/2022 6:00:00 PM 14.71 58.478 0.335 7.44 291.8 9.68
4/16/2022 6:15:00 PM 14.7 58.46 0.336 7.46 276.7 9.66
4/16/2022 6:30:00 PM 14.68 58.424 0.336 7.52 273.8 9.64
4/16/2022 6:45:00 PM 14.65 58.37 0.336 7.54 272.2 9.59
4/16/2022 7:00:00 PM 14.63 58.334 0.337 7.53 309.3 9.52
4/16/2022 7:15:00 PM 14.61 58.298 0.336 7.53 302.6 9.48
4/16/2022 7:30:00 PM 14.59 58.262 0.337 7.52 304.9 9.44
4/16/2022 7:45:00 PM 14.57 58.226 0.337 7.52 299.8 9.42
4/16/2022 8:00:00 PM 14.55 58.19 0.337 7.5 311.9 9.39
4/16/2022 8:15:00 PM 14.51 58.118 0.337 7.51 306.4 9.39
4/16/2022 8:30:00 PM 14.48 58.064 0.337 7.52 910.1 9.37
4/16/2022 8:45:00 PM 14.46 58.028 0.338 7.55 221.4 9.38
4/16/2022 9:00:00 PM 14.43 57.974 0.338 7.56 209.7 9.37
4/16/2022 9:15:00 PM 14.4 57.92 0.338 7.56 225.5 9.38
4/16/2022 9:30:00 PM 14.39 57.902 0.338 7.55 177.5 9.39
4/16/2022 9:45:00 PM 14.36 57.848 0.339 7.54 206.9 9.39
4/16/2022 10:00:00 PM 14.34 57.812 0.339 7.54 188.2 9.41
4/16/2022 10:15:00 PM 14.31 57.758 0.339 7.51 199.1 9.4
4/16/2022 10:30:00 PM 14.28 57.704 0.339 7.53 196.2 9.4
4/16/2022 10:45:00 PM 14.25 57.65 0.339 7.53 185.3 9.4
4/16/2022 11:00:00 PM 14.22 57.596 0.339 7.47 213.2 9.4
4/16/2022 11:15:00 PM 14.18 57.524 0.34 7.54 156.8 9.42
4/16/2022 11:30:00 PM 14.15 57.47 0.34 7.53 1031 9.42
4/16/2022 11:45:00 PM 14.11 57.398 0.34 7.52 457 9.42
4/17/2022 12:00:00 AM 14.09 57.362 0.339 7.54 399 9.42
4/17/2022 12:15:00 AM 14.06 57.308 0.339 7.55 2482 9.4
4/17/2022 12:30:00 AM 14.04 57.272 0.34 7.54 178.8 9.39
4/17/2022 12:45:00 AM 14.02 57.236 0.34 7.55 606 9.41
4/17/2022 1:00:00 AM 13.98 57.164 0.34 7.55 1252 9.38
4/17/2022 1:15:00 AM 13.95 57.11 0.34 7.55 1111 9.39
4/17/2022 1:30:00 AM 13.9 57.02 0.34 7.56 682.7 9.4
4/17/2022 1:45:00 AM 13.84 56.912 0.341 7.54 964.2 9.38
4/17/2022 2:00:00 AM 13.77 56.786 0.341 7.47 419.2 9.37
4/17/2022 2:15:00 AM 13.71 56.678 0.34 7.46 515.1 9.37
4/17/2022 2:30:00 AM 13.65 56.57 0.341 7.47 156.3 9.35
4/17/2022 2:45:00 AM 13.59 56.462 0.329 7.46 139.8 9.32
4/17/2022 3:00:00 AM 13.54 56.372 0.341 7.48 126.5 9.32
4/17/2022 3:15:00 AM 13.5 56.3 0.34 7.49 113.6 9.31
4/17/2022 3:30:00 AM 13.46 56.228 0.319 7.48 121.6 9.29
4/17/2022 3:45:00 AM 13.4 56.12 0.319 7.47 123.6 9.26
4/17/2022 4:00:00 AM 13.35 56.03 0.307 7.42 114.7 9.26
4/17/2022 4:15:00 AM 13.3 55.94 0.34 7.39 119.9 9.27
4/17/2022 4:30:00 AM 13.25 55.85 0.323 7.41 133.8 9.24
4/17/2022 4:45:00 AM 13.2 55.76 0.314 7.39 132.8 9.24
4/17/2022 5:00:00 AM 13.14 55.652 0.342 7.38 144.3 9.23
4/17/2022 5:15:00 AM 13.1 55.58 0.341 7.39 149.2 9.21
4/17/2022 5:30:00 AM 13.04 55.472 0.342 7.38 148.6 9.2
4/17/2022 5:45:00 AM 13 55.4 0.342 7.39 157.9 9.19
4/17/2022 6:00:00 AM 12.97 55.346 0.305 7.39 184.1 9.19
4/17/2022 6:15:00 AM 12.93 55.274 0.342 7.39 168.6 9.17
4/17/2022 6:30:00 AM 12.88 55.184 0.342 7.38 175 9.12
4/17/2022 6:45:00 AM 12.84 55.112 0.342 7.36 202.4 9.16
4/17/2022 7:00:00 AM 12.81 55.058 0.342 7.35 206.6 9.16
4/17/2022 7:15:00 AM 12.78 55.004 0.341 7.29 213.6 9.17
4/17/2022 7:30:00 AM 12.76 54.968 0.342 7.32 214.1 9.21
4/17/2022 7:45:00 AM 12.73 54.914 0.342 7.33 246.8 9.24
4/17/2022 8:00:00 AM 12.72 54.896 0.341 7.33 223.1 9.34
4/17/2022 8:15:00 AM 12.7 54.86 0.341 7.29 236.2 9.42
4/17/2022 8:30:00 AM 12.67 54.806 0.342 7.29 186 9.48
4/17/2022 8:45:00 AM 12.67 54.806 0.342 7.3 202.8 9.61
4/17/2022 9:00:00 AM 12.67 54.806 0.342 7.32 198 9.73
4/17/2022 9:15:00 AM 12.64 54.752 0.342 7.31 229.6 9.8
4/17/2022 9:30:00 AM 12.63 54.734 0.342 7.32 211.9 9.89
4/17/2022 9:45:00 AM 12.65 54.77 0.341 7.32 241.3 9.97
4/17/2022 10:00:00 AM 12.7 54.86 0.342 7.33 205.4 10.09
4/17/2022 10:15:00 AM 12.63 54.734 0.341 7.33 200.5 10.1
4/17/2022 10:30:00 AM 12.6 54.68 0.342 7.34 244.5 10.13
4/17/2022 10:45:00 AM 12.58 54.644 0.342 7.35 308.8 10.17
4/17/2022 11:00:00 AM 12.58 54.644 0.342 7.34 333.7 10.17
4/17/2022 11:15:00 AM 12.69 54.842 0.342 7.35 365.4 10.2
4/17/2022 11:30:00 AM 12.69 54.842 0.342 7.35 265.9 10.27
4/17/2022 11:45:00 AM 12.74 54.932 0.342 7.36 239.5 10.32
4/17/2022 12:00:00 PM 12.87 55.166 0.342 7.4 219.7 10.42
4/17/2022 12:15:00 PM 12.96 55.328 0.342 7.39 242 10.53
4/17/2022 12:30:00 PM 13.08 55.544 0.341 7.41 260.6 10.6
4/17/2022 12:45:00 PM 13.12 55.616 0.342 7.42 246.6 10.66
4/17/2022 1:00:00 PM 13.16 55.688 0.342 7.44 256.1 10.68
4/17/2022 1:15:00 PM 13.33 55.994 0.317 7.44 266.3 10.74
4/17/2022 1:30:00 PM 13.39 56.102 0.321 7.5 241.3 10.78
4/17/2022 1:45:00 PM 13.52 56.336 0.33 7.53 252.5 10.8
4/17/2022 2:00:00 PM 13.49 56.282 0.329 7.53 244.1 10.77
4/17/2022 2:15:00 PM 13.5 56.3 0.328 7.53 248.4 10.76
4/17/2022 2:30:00 PM 13.53 56.354 0.327 7.55 268 10.8
4/17/2022 2:45:00 PM 13.55 56.39 0.328 7.56 268.3 10.8
4/17/2022 3:00:00 PM 13.7 56.66 0.328 7.56 282.2 10.85
4/17/2022 3:15:00 PM 13.82 56.876 0.329 7.56 265.1 10.86
4/17/2022 3:30:00 PM 13.93 57.074 0.329 7.57 256.4 10.93
4/17/2022 3:45:00 PM 14.04 57.272 0.328 7.58 265.5 10.95
4/17/2022 4:00:00 PM 14.12 57.416 0.327 7.59 269.3 11
4/17/2022 4:15:00 PM 14.2 57.56 0.328 7.59 273.4 11.05
4/17/2022 4:30:00 PM 14.2 57.56 0.329 7.61 265.7 11.04
4/17/2022 4:45:00 PM 14.18 57.524 0.327 7.6 278.3 11.04
4/17/2022 5:00:00 PM 14.18 57.524 0.329 7.61 282 11.02
4/17/2022 5:15:00 PM 14.13 57.434 0.328 7.62 273.6 10.98
4/17/2022 5:30:00 PM 14.07 57.326 0.329 7.61 302.4 10.93
4/17/2022 5:45:00 PM 13.96 57.128 0.328 7.61 301.9 10.88
4/17/2022 6:00:00 PM 13.84 56.912 0.327 7.58 282 10.8
4/17/2022 6:15:00 PM 13.76 56.768 0.327 7.53 288.6 10.74
4/17/2022 6:30:00 PM 13.62 56.516 0.327 7.51 286 10.66
4/17/2022 6:45:00 PM 13.5 56.3 0.328 7.51 289.1 10.55
4/17/2022 7:00:00 PM 13.39 56.102 0.328 7.5 289.3 10.47
4/17/2022 7:15:00 PM 13.3 55.94 0.328 7.48 284.9 10.37
4/17/2022 7:30:00 PM 13.23 55.814 0.327 7.46 275.2 10.24
4/17/2022 7:45:00 PM 13.18 55.724 0.328 7.48 309.5 10.15
4/17/2022 8:00:00 PM 13.16 55.688 0.326 7.44 299.5 10.06
4/17/2022 8:15:00 PM 13.12 55.616 0.308 7.42 319.4 9.98
4/17/2022 8:30:00 PM 13.1 55.58 0.305 7.42 294.3 9.91
4/17/2022 8:45:00 PM 13.1 55.58 0.346 7.44 309.2 9.87
4/17/2022 9:00:00 PM 13.11 55.598 0.342 7.45 194.1 9.86
4/17/2022 9:15:00 PM 13.13 55.634 0.347 7.44 197.5 9.85
4/17/2022 9:30:00 PM 13.14 55.652 0.347 7.45 187.4 9.85
4/17/2022 9:45:00 PM 13.15 55.67 0.347 7.53 195.3 9.89
4/17/2022 10:00:00 PM 13.16 55.688 0.347 7.54 184.8 9.9
4/17/2022 10:15:00 PM 13.16 55.688 0.347 7.54 194.5 9.91
4/17/2022 10:30:00 PM 13.18 55.724 0.347 7.55 184 9.94
4/17/2022 10:45:00 PM 13.18 55.724 0.347 7.57 239.4 9.96
4/17/2022 11:00:00 PM 13.2 55.76 0.347 7.58 198.3 9.99
4/17/2022 11:15:00 PM 13.18 55.724 0.348 7.59 204.3 9.99
4/17/2022 11:30:00 PM 13.17 55.706 0.348 7.6 201.1 9.99
4/17/2022 11:45:00 PM 13.16 55.688 0.348 7.61 204.4 10
4/18/2022 12:00:00 AM 13.13 55.634 0.346 7.61 192 10.02
4/18/2022 12:15:00 AM 13.09 55.562 0.347 7.58 248.4 10
4/18/2022 12:30:00 AM 13.04 55.472 0.347 7.58 332.4 10.04
4/18/2022 12:45:00 AM 12.99 55.382 0.328 7.64 200 10.05
4/18/2022 1:00:00 AM 12.92 55.256 0.347 7.64 256.7 10.06
4/18/2022 1:15:00 AM 12.86 55.148 0.348 7.64 256.5 10.06
4/18/2022 1:30:00 AM 12.81 55.058 0.348 7.64 228.7 10.06
4/18/2022 1:45:00 AM 12.73 54.914 0.348 7.64 264.9 10.07
4/18/2022 2:00:00 AM 12.66 54.788 0.349 7.64 273.7 10.04
4/18/2022 2:15:00 AM 12.6 54.68 0.349 7.63 312.2 10.08
4/18/2022 2:30:00 AM 12.52 54.536 0.349 7.6 349.5 10.1
4/18/2022 2:45:00 AM 12.45 54.41 0.349 7.53 282.5 10.08
4/18/2022 3:00:00 AM 12.38 54.284 0.349 7.53 326.4 10.09
4/18/2022 3:15:00 AM 12.31 54.158 0.349 7.52 400.2 10.06
4/18/2022 3:30:00 AM 12.24 54.032 0.35 7.51 1533 10.03
4/18/2022 3:45:00 AM 12.17 53.906 0.35 7.52 330.5 10.03
4/18/2022 4:00:00 AM 12.1 53.78 0.348 7.52 320.3 10.01
4/18/2022 4:15:00 AM 12.03 53.654 0.35 7.49 161.5 10
4/18/2022 4:30:00 AM 11.97 53.546 0.35 7.45 106.4 9.98
4/18/2022 4:45:00 AM 11.89 53.402 0.35 7.39 143.5 9.97
4/18/2022 5:00:00 AM 11.83 53.294 0.35 7.38 138.6 9.95
4/18/2022 5:15:00 AM 11.78 53.204 0.35 7.38 210.6 9.93
4/18/2022 5:30:00 AM 11.71 53.078 0.35 7.36 196.2 9.93
4/18/2022 5:45:00 AM 11.63 52.934 0.351 7.34 209.8 9.88
4/18/2022 6:00:00 AM 11.59 52.862 0.35 7.32 207.3 9.88
4/18/2022 6:15:00 AM 11.53 52.754 0.35 7.34 198 9.85
4/18/2022 6:30:00 AM 11.47 52.646 0.351 7.32 195.5 9.84
4/18/2022 6:45:00 AM 11.42 52.556 0.35 7.31 212.3 9.8
4/18/2022 7:00:00 AM 11.37 52.466 0.35 7.3 212.7 9.83
4/18/2022 7:15:00 AM 11.34 52.412 0.35 7.3 213 9.81
4/18/2022 7:30:00 AM 11.3 52.34 0.35 7.31 211.3 9.81
4/18/2022 7:45:00 AM 11.29 52.322 0.35 7.3 212.2 9.86
4/18/2022 8:00:00 AM 11.28 52.304 0.35 7.3 229.6 9.92
4/18/2022 8:15:00 AM 11.27 52.286 0.35 7.29 251.1 10.01
4/18/2022 8:30:00 AM 11.27 52.286 0.35 7.29 256.8 10.08
4/18/2022 8:45:00 AM 11.27 52.286 0.35 7.28 244.3 10.18
4/18/2022 9:00:00 AM 11.27 52.286 0.35 7.3 216.7 10.27
4/18/2022 9:15:00 AM 11.26 52.268 0.35 7.33 298.1 10.35
4/18/2022 9:30:00 AM 11.23 52.214 0.35 7.32 246.5 10.43
4/18/2022 9:45:00 AM 11.21 52.178 0.35 7.32 253.3 10.49
4/18/2022 10:00:00 AM 11.19 52.142 0.35 7.33 246.9 10.52
4/18/2022 10:15:00 AM 11.16 52.088 0.351 7.33 311.6 10.56
4/18/2022 10:30:00 AM 11.12 52.016 0.35 7.34 310.7 10.56
4/18/2022 10:45:00 AM 11.1 51.98 0.35 7.33 290.1 10.59
4/18/2022 11:00:00 AM 11.06 51.908 0.35 7.32 289.5 10.64
4/18/2022 11:15:00 AM 11.03 51.854 0.35 7.33 289.6 10.63
4/18/2022 11:30:00 AM 10.98 51.764 0.35 7.33 252.3 10.64
4/18/2022 11:45:00 AM 10.93 51.674 0.35 7.33 251.3 10.61
4/18/2022 12:00:00 PM 10.87 51.566 0.35 7.28 259.3 10.57
4/18/2022 12:15:00 PM 10.81 51.458 0.351 7.29 295.8 10.53
4/18/2022 12:30:00 PM 10.77 51.386 0.351 7.3 252.3 10.48
4/18/2022 12:45:00 PM 10.7 51.26 0.351 7.28 264.2 10.42
4/18/2022 1:00:00 PM 10.63 51.134 0.351 7.26 299.2 10.42
4/18/2022 1:15:00 PM 10.56 51.008 0.351 7.25 273.5 10.38
4/18/2022 1:30:00 PM 10.51 50.918 0.351 7.25 306.1 10.37
4/18/2022 1:45:00 PM 10.47 50.846 0.35 7.21 300.7 10.32
4/18/2022 2:00:00 PM 10.39 50.702 0.35 7.2 333 10.29
4/18/2022 2:15:00 PM 10.33 50.594 0.349 7.21 307.2 10.26
4/18/2022 2:30:00 PM 10.28 50.504 0.349 7.24 314 10.27
4/18/2022 2:45:00 PM 10.22 50.396 0.349 7.22 320.1 10.29
4/18/2022 3:00:00 PM 10.16 50.288 0.348 7.23 340.4 10.32
4/18/2022 3:15:00 PM 10.14 50.252 0.348 7.23 333.6 10.32
4/18/2022 3:30:00 PM 10.12 50.216 0.348 7.16 310 10.37
4/18/2022 3:45:00 PM 10.07 50.126 0.348 7.1 325.8 10.4
4/18/2022 4:00:00 PM 10.05 50.09 0.348 7.11 317.8 10.42
4/18/2022 4:15:00 PM 10.01 50.018 0.348 7.1 317.9 10.42
4/18/2022 4:30:00 PM 9.97 49.946 0.348 7.11 305 10.46
4/18/2022 4:45:00 PM 9.94 49.892 0.348 7.13 313.8 10.47
4/18/2022 5:00:00 PM 9.93 49.874 0.348 7.12 305.2 10.47
4/18/2022 5:15:00 PM 9.93 49.874 0.349 7.12 299.4 10.48
4/18/2022 5:30:00 PM 9.93 49.874 0.349 7.16 275.6 10.51
4/18/2022 5:45:00 PM 9.94 49.892 0.35 7.15 293.3 10.53
4/18/2022 6:00:00 PM 9.94 49.892 0.35 7.19 293 10.51
4/18/2022 6:15:00 PM 9.93 49.874 0.351 7.19 289.4 10.48
4/18/2022 6:30:00 PM 9.91 49.838 0.351 7.2 308.1 10.45
4/18/2022 6:45:00 PM 9.91 49.838 0.351 7.2 310.8 10.42
4/18/2022 7:00:00 PM 9.9 49.82 0.351 7.22 309.5 10.4
4/18/2022 7:15:00 PM 9.89 49.802 0.351 7.23 308.8 10.4
4/18/2022 7:30:00 PM 9.86 49.748 0.351 7.25 311.9 10.35
4/18/2022 7:45:00 PM 9.82 49.676 0.352 7.22 328 10.35
4/18/2022 8:00:00 PM 9.8 49.64 0.352 7.22 345.4 10.33
4/18/2022 8:15:00 PM 9.77 49.586 0.35 7.22 323.9 10.31
4/18/2022 8:30:00 PM 9.74 49.532 0.352 7.23 344.9 10.28
4/18/2022 8:45:00 PM 9.72 49.496 0.352 7.22 275.1 10.28
4/18/2022 9:00:00 PM 9.7 49.46 0.352 7.27 267.2 10.31
4/18/2022 9:15:00 PM 9.67 49.406 0.352 7.28 261.7 10.31
4/18/2022 9:30:00 PM 9.61 49.298 0.352 7.26 269.9 10.3
4/18/2022 9:45:00 PM 9.53 49.154 0.352 7.27 330 10.32
4/18/2022 10:00:00 PM 9.42 48.956 0.352 7.25 240.1 10.32
4/18/2022 10:15:00 PM 9.37 48.866 0.351 7.26 260.4 10.33
4/18/2022 10:30:00 PM 9.33 48.794 0.352 7.23 260.9 10.31
4/18/2022 10:45:00 PM 9.29 48.722 0.352 7.26 324.9 10.34
4/18/2022 11:00:00 PM 9.2 48.56 0.352 7.17 346.4 10.36
4/18/2022 11:15:00 PM 9.15 48.47 0.353 7.17 277.8 10.36
4/18/2022 11:30:00 PM 9.1 48.38 0.353 7.17 283.7 10.37
4/18/2022 11:45:00 PM 9.06 48.308 0.353 7.17 252.9 10.38
4/19/2022 12:00:00 AM 9.01 48.218 0.352 7.16 288.1 10.42
4/19/2022 12:15:00 AM 8.96 48.128 0.352 7.16 299.5 10.43
4/19/2022 12:30:00 AM 8.92 48.056 0.352 7.16 295.6 10.43
4/19/2022 12:45:00 AM 8.91 48.038 0.353 7.19 298.6 10.45
4/19/2022 1:00:00 AM 8.88 47.984 0.353 7.19 283.4 10.44
4/19/2022 1:15:00 AM 8.86 47.948 0.354 7.17 284.4 10.46
4/19/2022 1:30:00 AM 8.83 47.894 0.354 7.16 280.8 10.45
4/19/2022 1:45:00 AM 8.8 47.84 0.354 7.15 272.7 10.47
4/19/2022 2:00:00 AM 8.77 47.786 0.355 7.13 267.1 10.47
4/19/2022 2:15:00 AM 8.73 47.714 0.356 7.12 259 10.48
4/19/2022 2:30:00 AM 8.69 47.642 0.357 7.11 236 10.49
4/19/2022 2:45:00 AM 8.65 47.57 0.357 7.12 275.1 10.49
4/19/2022 3:00:00 AM 8.61 47.498 0.357 7.1 294.5 10.5
4/19/2022 3:15:00 AM 8.56 47.408 0.358 7.09 180.1 10.48
4/19/2022 3:30:00 AM 8.51 47.318 0.358 7.08 360.4 10.5
4/19/2022 3:45:00 AM 8.45 47.21 0.358 7.08 272.5 10.48
4/19/2022 4:00:00 AM 8.4 47.12 0.358 7.07 332.7 10.49
4/19/2022 4:15:00 AM 8.36 47.048 0.358 7.08 328.1 10.48
4/19/2022 4:30:00 AM 8.3 46.94 0.358 7.07 336.8 10.47
4/19/2022 4:45:00 AM 8.25 46.85 0.358 7.04 365.2 10.48
4/19/2022 5:00:00 AM 8.18 46.724 0.357 7.02 377.5 10.48
4/19/2022 5:15:00 AM 8.11 46.598 0.355 7.04 568.5 10.5
4/19/2022 5:30:00 AM 8.06 46.508 0.357 7.01 1645 10.51
4/19/2022 5:45:00 AM 8.01 46.418 0.356 6.99 2225 10.51
4/19/2022 6:00:00 AM 7.94 46.292 0.356 6.99 1971 10.52
4/19/2022 6:15:00 AM 7.87 46.166 0.345 7 1954 10.5
4/19/2022 6:30:00 AM 7.82 46.076 0.306 6.98 1529 10.52
4/19/2022 6:45:00 AM 7.76 45.968 0.335 6.97 1184 10.52
4/19/2022 7:00:00 AM 7.72 45.896 0.329 6.97 400.9 10.57
4/19/2022 7:15:00 AM 7.68 45.824 0.336 6.96 313.7 10.59
4/19/2022 7:30:00 AM 7.64 45.752 0.337 6.97 267.8 10.63
4/19/2022 7:45:00 AM 7.62 45.716 0.335 6.95 263.5 10.68
4/19/2022 8:00:00 AM 7.61 45.698 0.334 6.94 237.7 10.76
4/19/2022 8:15:00 AM 7.58 45.644 0.344 6.93 288.3 10.84
4/19/2022 8:30:00 AM 7.57 45.626 0.346 6.93 339.6 10.91
4/19/2022 8:45:00 AM 7.57 45.626 0.346 6.93 309.8 10.97
4/19/2022 9:00:00 AM 7.58 45.644 0.346 6.94 320.9 11.07
4/19/2022 9:15:00 AM 7.6 45.68 0.35 6.98 312.8 11.15
4/19/2022 9:30:00 AM 7.61 45.698 0.35 6.97 330.6 11.22
4/19/2022 9:45:00 AM 7.66 45.788 0.35 6.94 292.9 11.27
4/19/2022 10:00:00 AM 7.65 45.77 0.35 6.96 302.7 11.34
4/19/2022 10:15:00 AM 7.68 45.824 0.35 6.97 305.4 11.4
4/19/2022 10:30:00 AM 7.69 45.842 0.35 6.98 483.9 11.43
4/19/2022 10:45:00 AM 7.76 45.968 0.351 6.99 751.4 11.47
4/19/2022 11:00:00 AM 7.79 46.022 0.35 6.98 1720 11.5
4/19/2022 11:15:00 AM 7.76 45.968 0.349 6.99 1960 11.52
4/19/2022 11:30:00 AM 7.74 45.932 0.348 7 2119 11.49
4/19/2022 11:45:00 AM 7.73 45.914 0.347 7 2047 11.49
4/19/2022 12:00:00 PM 7.78 46.004 0.347 7 2316 11.5
4/19/2022 12:15:00 PM 7.85 46.13 0.335 7.02 2186 11.53
4/19/2022 12:30:00 PM 7.81 46.058 0.325 6.99 2296 11.48
4/19/2022 12:45:00 PM 7.86 46.148 0.321 7.02 2315 11.53
4/19/2022 1:00:00 PM 7.94 46.292 0.325 7.03 2680 11.58
4/19/2022 1:15:00 PM 8.04 46.472 0.332 7.01 144.3 11.61
4/19/2022 1:30:00 PM 7.98 46.364 0.341 7.02 234.6 11.6
4/19/2022 1:45:00 PM 8.04 46.472 0.323 7.04 227.9 11.64
4/19/2022 2:00:00 PM 8.05 46.49 0.332 7.01 199 11.68
4/19/2022 2:15:00 PM 8.06 46.508 0.305 7.01 232.5 11.66
4/19/2022 2:30:00 PM 8.12 46.616 0.304 7.02 225.6 11.75
4/19/2022 2:45:00 PM 8.22 46.796 0.302 7.02 273.8 11.79
4/19/2022 3:00:00 PM 8.19 46.742 0.329 7.02 184.5 11.77
4/19/2022 3:15:00 PM 8.22 46.796 0.316 7.05 244.5 11.83
4/19/2022 3:30:00 PM 8.22 46.796 0.311 7.06 221.1 11.82
4/19/2022 3:45:00 PM 8.31 46.958 0.329 7.08 227.1 11.84
4/19/2022 4:00:00 PM 8.41 47.138 0.34 7.08 415.7 11.86
4/19/2022 4:15:00 PM 8.58 47.444 0.34 7.09 190.3 11.89
4/19/2022 4:30:00 PM 8.69 47.642 0.341 7.11 189.3 11.91
4/19/2022 4:45:00 PM 8.64 47.552 0.34 7.11 195.5 11.91
4/19/2022 5:00:00 PM 8.71 47.678 0.341 7.15 192.6 11.96
4/19/2022 5:15:00 PM 8.74 47.732 0.341 7.14 222.8 11.99
4/19/2022 5:30:00 PM 8.68 47.624 0.341 7.14 203.4 11.94
4/19/2022 5:45:00 PM 8.59 47.462 0.34 7.14 301 11.91
4/19/2022 6:00:00 PM 8.6 47.48 0.331 7.12 257.7 11.93
4/19/2022 6:15:00 PM 8.57 47.426 0.33 7.12 183.1 11.93
4/19/2022 6:30:00 PM 8.51 47.318 0.332 7.13 160.7 11.9
4/19/2022 6:45:00 PM 8.46 47.228 0.329 7.15 290 11.88
4/19/2022 7:00:00 PM 8.42 47.156 0.329 7.14 147.8 11.86
4/19/2022 7:15:00 PM 8.37 47.066 0.319 7.11 217.6 11.82
4/19/2022 7:30:00 PM 8.31 46.958 0.321 7.11 124.8 11.76
4/19/2022 7:45:00 PM 8.27 46.886 0.305 7.13 253.1 11.72
4/19/2022 8:00:00 PM 8.24 46.832 0.344 7.07 392.2 11.66
4/19/2022 8:15:00 PM 8.21 46.778 0.342 7.06 259.5 11.62
4/19/2022 8:30:00 PM 8.2 46.76 0.342 7.05 237.7 11.58
4/19/2022 8:45:00 PM 8.18 46.724 0.342 7.02 230.6 11.56
4/19/2022 9:00:00 PM 8.16 46.688 0.342 7.02 242.2 11.56
4/19/2022 9:15:00 PM 8.16 46.688 0.342 7.01 211.8 11.54
4/19/2022 9:30:00 PM 8.14 46.652 0.343 7.02 254.5 11.53
4/19/2022 9:45:00 PM 8.14 46.652 0.343 7.02 254.2 11.54
4/19/2022 10:00:00 PM 8.12 46.616 0.343 7.03 245.7 11.54
4/19/2022 10:15:00 PM 8.09 46.562 0.342 7.05 230.4 11.54
4/19/2022 10:30:00 PM 8.07 46.526 0.343 7.06 198.8 11.52
4/19/2022 10:45:00 PM 8.04 46.472 0.343 7.05 180.3 11.54
4/19/2022 11:00:00 PM 8.01 46.418 0.343 7.05 176.6 11.55
4/19/2022 11:15:00 PM 7.97 46.346 0.343 7.06 171.7 11.55
4/19/2022 11:30:00 PM 7.94 46.292 0.342 7.07 150.2 11.54
4/19/2022 11:45:00 PM 7.91 46.238 0.342 7.05 123 11.54
4/20/2022 12:00:00 AM 7.86 46.148 0.342 7.08 160.5 11.52
4/20/2022 12:15:00 AM 7.82 46.076 0.341 7.05 156 11.51
4/20/2022 12:30:00 AM 7.77 45.986 0.341 7.07 182.3 11.53
4/20/2022 12:45:00 AM 7.73 45.914 0.341 7.05 154.7 11.5
4/20/2022 1:00:00 AM 7.69 45.842 0.341 7.09 164.8 11.49
4/20/2022 1:15:00 AM 7.66 45.788 0.34 7.07 203.4 11.47
4/20/2022 1:30:00 AM 7.62 45.716 0.34 7.05 144.2 11.45
4/20/2022 1:45:00 AM 7.59 45.662 0.339 7.04 166.4 11.44
4/20/2022 2:00:00 AM 7.55 45.59 0.339 7.05 194.2 11.43
4/20/2022 2:15:00 AM 7.51 45.518 0.338 7.01 266.5 11.41
4/20/2022 2:30:00 AM 7.47 45.446 0.338 7.07 145.7 11.4
4/20/2022 2:45:00 AM 7.44 45.392 0.338 7.01 271.3 11.39
4/20/2022 3:00:00 AM 7.4 45.32 0.337 7.01 180.8 11.35
4/20/2022 3:15:00 AM 7.36 45.248 0.337 7.01 204.1 11.35
4/20/2022 3:30:00 AM 7.33 45.194 0.337 6.99 209.3 11.33
4/20/2022 3:45:00 AM 7.3 45.14 0.336 6.99 202.7 11.32
4/20/2022 4:00:00 AM 7.28 45.104 0.336 6.98 188.2 11.31
4/20/2022 4:15:00 AM 7.25 45.05 0.336 6.97 205.5 11.3
4/20/2022 4:30:00 AM 7.23 45.014 0.336 6.96 302.1 11.26
4/20/2022 4:45:00 AM 7.2 44.96 0.336 6.96 209.4 11.26
4/20/2022 5:00:00 AM 7.18 44.924 0.335 6.96 182.2 11.24
4/20/2022 5:15:00 AM 7.16 44.888 0.335 6.94 198.1 11.24
4/20/2022 5:30:00 AM 7.13 44.834 0.336 6.96 202.6 11.23
4/20/2022 5:45:00 AM 7.1 44.78 0.336 6.9 209.5 11.22
4/20/2022 6:00:00 AM 7.08 44.744 0.336 6.87 200.9 11.2
4/20/2022 6:15:00 AM 7.05 44.69 0.337 6.87 127.9 11.2
4/20/2022 6:30:00 AM 7.03 44.654 0.338 6.88 139.4 11.18
4/20/2022 6:45:00 AM 7 44.6 0.338 6.89 189.2 11.18
4/20/2022 7:00:00 AM 6.97 44.546 0.339 6.89 249.8 11.21
4/20/2022 7:15:00 AM 6.96 44.528 0.339 6.91 137.5 11.21
4/20/2022 7:30:00 AM 6.95 44.51 0.339 6.87 162.4 11.23
4/20/2022 7:45:00 AM 6.94 44.492 0.34 6.87 140.9 11.26
4/20/2022 8:00:00 AM 6.94 44.492 0.341 6.86 233.1 11.29
4/20/2022 8:15:00 AM 6.96 44.528 0.341 6.9 207.7 11.33
4/20/2022 8:30:00 AM 6.98 44.564 0.341 6.88 180.3 11.38
4/20/2022 8:45:00 AM 7.02 44.636 0.342 6.9 258.9 11.43
4/20/2022 9:00:00 AM 7.06 44.708 0.342 6.85 240.1 11.48
4/20/2022 9:15:00 AM 7.1 44.78 0.343 6.86 219.9 11.54
4/20/2022 9:30:00 AM 7.16 44.888 0.343 6.85 232.9 11.59
4/20/2022 9:45:00 AM 7.22 44.996 0.344 6.85 239.8 11.65
4/20/2022 10:00:00 AM 7.29 45.122 0.344 6.85 150.1 11.69
4/20/2022 10:15:00 AM 7.36 45.248 0.344 6.84 198.7 11.73
4/20/2022 10:30:00 AM 7.44 45.392 0.345 6.86 169.9 11.76
4/20/2022 10:45:00 AM 7.54 45.572 0.345 6.9 173.3 11.78
4/20/2022 11:00:00 AM 7.65 45.77 0.346 6.93 276.2 11.84
4/20/2022 11:15:00 AM 7.76 45.968 0.346 6.92 220.6 11.84
4/20/2022 11:30:00 AM 7.87 46.166 0.347 6.95 242.2 11.87
4/20/2022 11:45:00 AM 8 46.4 0.348 6.98 195.9 11.91
4/20/2022 12:00:00 PM 8.15 46.67 0.349 6.98 201.4 11.92
4/20/2022 12:15:00 PM 8.29 46.922 0.35 7.04 194.3 11.94
4/20/2022 12:30:00 PM 8.44 47.192 0.351 7.04 208.9 11.95
4/20/2022 12:45:00 PM 8.59 47.462 0.351 7.05 270.3 11.99
4/20/2022 1:00:00 PM 8.75 47.75 0.352 7.06 268.3 12.01
4/20/2022 1:15:00 PM 8.91 48.038 0.353 7.1 282.1 12.02
4/20/2022 1:30:00 PM 9.06 48.308 0.354 7.1 342.8 12.05
4/20/2022 1:45:00 PM 9.26 48.668 0.354 7.14 381 12.06
4/20/2022 2:00:00 PM 9.42 48.956 0.355 7.13 359.8 12.07
4/20/2022 2:15:00 PM 9.56 49.208 0.355 7.14 413.8 12.08
4/20/2022 2:30:00 PM 9.72 49.496 0.355 7.17 380.1 12.11
4/20/2022 2:45:00 PM 9.88 49.784 0.356 7.2 434.2 12.12
4/20/2022 3:00:00 PM 10.02 50.036 0.356 7.19 428 12.11
4/20/2022 3:15:00 PM 10.17 50.306 0.356 7.22 506.1 12.14
4/20/2022 3:30:00 PM 10.26 50.468 0.356 7.24 406 12.15
4/20/2022 3:45:00 PM 10.38 50.684 0.356 7.25 516.3 12.15
4/20/2022 4:00:00 PM 10.51 50.918 0.356 7.24 415.6 12.14
4/20/2022 4:15:00 PM 10.56 51.008 0.356 7.28 412.5 12.13
4/20/2022 4:30:00 PM 10.65 51.17 0.355 7.3 438.1 12.14
4/20/2022 4:45:00 PM 10.71 51.278 0.355 7.32 501.8 12.15
4/20/2022 5:00:00 PM 10.77 51.386 0.354 7.3 564 12.14
4/20/2022 5:15:00 PM 10.81 51.458 0.354 7.34 639.3 12.09
4/20/2022 5:30:00 PM 10.84 51.512 0.353 7.37 685.3 12.05
4/20/2022 5:45:00 PM 10.84 51.512 0.352 7.36 600 12.03
4/20/2022 6:00:00 PM 10.82 51.476 0.351 7.38 682.5 11.97
4/20/2022 6:15:00 PM 10.83 51.494 0.35 7.39 840.4 11.91
4/20/2022 6:30:00 PM 10.8 51.44 0.349 7.38 753.7 11.85
4/20/2022 6:45:00 PM 10.79 51.422 0.349 7.39 907.9 11.78
4/20/2022 7:00:00 PM 10.79 51.422 0.348 7.38 745.9 11.71
4/20/2022 7:15:00 PM 10.79 51.422 0.347 7.4 558.8 11.62
4/20/2022 7:30:00 PM 10.79 51.422 0.346 7.41 468.4 11.54
4/20/2022 7:45:00 PM 10.8 51.44 0.346 7.39 773.8 11.45
4/20/2022 8:00:00 PM 10.81 51.458 0.345 7.38 697.9 11.37
4/20/2022 8:15:00 PM 10.82 51.476 0.344 7.38 584.2 11.31
4/20/2022 8:30:00 PM 10.85 51.53 0.343 7.36 654.6 11.24
4/20/2022 8:45:00 PM 10.87 51.566 0.343 7.34 572.7 11.22
4/20/2022 9:00:00 PM 10.88 51.584 0.343 7.34 709.5 11.19
4/20/2022 9:15:00 PM 10.9 51.62 0.304 7.32 1195 11.16
4/20/2022 9:30:00 PM 10.92 51.656 0.341 7.32 1334 11.15
4/20/2022 9:45:00 PM 10.93 51.674 0.341 7.32 1312 11.14
4/20/2022 10:00:00 PM 10.94 51.692 0.34 7.36 1327 11.12
4/20/2022 10:15:00 PM 10.94 51.692 0.34 7.36 1240 11.1
4/20/2022 10:30:00 PM 10.94 51.692 0.339 7.36 1272 11.1
4/20/2022 10:45:00 PM 10.93 51.674 0.339 7.38 1268 11.09
4/20/2022 11:00:00 PM 10.92 51.656 0.339 7.37 1249 11.07
4/20/2022 11:15:00 PM 10.92 51.656 0.339 7.37 1383 11.05
4/20/2022 11:30:00 PM 10.91 51.638 0.339 7.37 1528 11.04
4/20/2022 11:45:00 PM 10.91 51.638 0.339 7.38 1609 11.02
4/21/2022 12:00:00 AM 10.9 51.62 0.339 7.38 1496 10.99
4/21/2022 12:15:00 AM 10.89 51.602 0.339 7.37 1684 10.98
4/21/2022 12:30:00 AM 10.87 51.566 0.339 7.37 1779 10.96
4/21/2022 12:45:00 AM 10.83 51.494 0.339 7.36 1889 10.94
4/21/2022 1:00:00 AM 10.79 51.422 0.338 7.36 1848 10.91
4/21/2022 1:15:00 AM 10.75 51.35 0.338 7.34 1746 10.88
4/21/2022 1:30:00 AM 10.71 51.278 0.338 7.33 1091 10.86
4/21/2022 1:45:00 AM 10.67 51.206 0.338 7.33 900.9 10.7
4/21/2022 2:00:00 AM 10.62 51.116 0.338 7.31 1292 10.8
4/21/2022 2:15:00 AM 10.59 51.062 0.337 7.3 1423 10.77
4/21/2022 2:30:00 AM 10.55 50.99 0.337 7.3 1526 10.74
4/21/2022 2:45:00 AM 10.51 50.918 0.337 7.28 1509 10.72
4/21/2022 3:00:00 AM 10.48 50.864 0.336 7.27 1692 10.68
4/21/2022 3:15:00 AM 10.44 50.792 0.336 7.25 1891 10.66
4/21/2022 3:30:00 AM 10.41 50.738 0.336 7.24 1964 10.62
4/21/2022 3:45:00 AM 10.36 50.648 0.336 7.23 1920 10.56
4/21/2022 4:00:00 AM 10.33 50.594 0.335 7.22 2011 10.57
4/21/2022 4:15:00 AM 10.31 50.558 0.335 7.23 1986 10.55
4/21/2022 4:30:00 AM 10.28 50.504 0.335 7.18 2299 10.51
4/21/2022 4:45:00 AM 10.26 50.468 0.334 7.16 2164 10.49
4/21/2022 5:00:00 AM 10.23 50.414 0.332 7.14 2328 10.47
4/21/2022 5:15:00 AM 10.22 50.396 0.333 7.11 2033 10.45
4/21/2022 5:30:00 AM 10.18 50.324 0.333 7.09 2144 10.42
4/21/2022 5:45:00 AM 10.16 50.288 0.332 7.1 2383 10.39
4/21/2022 6:00:00 AM 10.14 50.252 0.332 7.08 2225 10.37
4/21/2022 6:15:00 AM 10.11 50.198 0.332 7.08 2464 10.34
4/21/2022 6:30:00 AM 10.08 50.144 0.332 7.07 2477 10.32
4/21/2022 6:45:00 AM 10.07 50.126 0.331 7.08 2676 10.31
4/21/2022 7:00:00 AM 10.07 50.126 0.331 7.06 2810 10.32
4/21/2022 7:15:00 AM 10.06 50.108 0.331 7.04 2909 10.3
4/21/2022 7:30:00 AM 10.06 50.108 0.331 7.04 3018 10.34
4/21/2022 7:45:00 AM 10.08 50.144 0.33 7.06 2979 10.39
4/21/2022 8:00:00 AM 10.09 50.162 0.33 7.03 2835 10.43
4/21/2022 8:15:00 AM 10.13 50.234 0.33 7.03 2881 10.48
4/21/2022 8:30:00 AM 10.15 50.27 0.33 7.08 2933 10.56
4/21/2022 8:45:00 AM 10.2 50.36 0.329 7.05 2980 10.63
4/21/2022 9:00:00 AM 10.24 50.432 0.329 7.05 2904 10.73
4/21/2022 9:15:00 AM 10.25 50.45 0.329 7.05 2849 10.78
4/21/2022 9:30:00 AM 10.28 50.504 0.329 7.04 2853 10.84
4/21/2022 9:45:00 AM 10.37 50.666 0.329 7.07 2812 10.91
4/21/2022 10:00:00 AM 10.41 50.738 0.329 7.06 2924 10.94
4/21/2022 10:15:00 AM 10.47 50.846 0.328 7.06 2802 10.98
4/21/2022 10:30:00 AM 10.53 50.954 0.328 7.09 2888 11.03
4/21/2022 10:45:00 AM 10.66 51.188 0.328 7.09 2829 11.1
4/21/2022 11:00:00 AM 10.73 51.314 0.328 7.1 2870 11.15
4/21/2022 11:15:00 AM 10.8 51.44 0.328 7.12 2705 11.17
4/21/2022 11:30:00 AM 10.9 51.62 0.328 7.16 2755 11.22
4/21/2022 11:45:00 AM 11.02 51.836 0.327 7.15 2738 11.24
4/21/2022 12:00:00 PM 11.07 51.926 0.327 7.15 2600 11.26
4/21/2022 12:15:00 PM 11.05 51.89 0.327 7.14 2694 11.22
4/21/2022 12:30:00 PM 11.04 51.872 0.327 7.13 2752 11.15
4/21/2022 12:45:00 PM 11.03 51.854 0.327 7.15 2635 11.11
4/21/2022 1:00:00 PM 11 51.8 0.327 7.14 2577 11.03
4/21/2022 1:15:00 PM 10.97 51.746 0.327 7.12 2786 10.99
4/21/2022 1:30:00 PM 10.97 51.746 0.327 7.11 2660 10.94
4/21/2022 1:45:00 PM 10.97 51.746 0.327 7.1 2684 10.89
4/21/2022 2:00:00 PM 10.99 51.782 0.326 7.1 2621 10.87
4/21/2022 2:15:00 PM 10.99 51.782 0.326 7.11 2600 10.83
4/21/2022 2:30:00 PM 10.99 51.782 0.326 7.12 2551 10.78
4/21/2022 2:45:00 PM 11 51.8 0.326 7.1 2534 10.74
4/21/2022 3:00:00 PM 11.02 51.836 0.326 7.1 2429 10.71
4/21/2022 3:15:00 PM 11.04 51.872 0.326 7.06 2397 10.66
4/21/2022 3:30:00 PM 11.06 51.908 0.326 7.02 2435 10.64
4/21/2022 3:45:00 PM 11.1 51.98 0.326 7.03 2472 10.65
4/21/2022 4:00:00 PM 11.14 52.052 0.326 7.04 2503 10.66
4/21/2022 4:15:00 PM 11.17 52.106 0.326 7.04 2545 10.66
4/21/2022 4:30:00 PM 11.2 52.16 0.326 7.08 2646 10.67
4/21/2022 4:45:00 PM 11.25 52.25 0.326 7.09 2524 10.7
4/21/2022 5:00:00 PM 11.28 52.304 0.326 7.12 1039 10.7
4/21/2022 5:15:00 PM 11.32 52.376 0.326 7.11 1228 10.7
4/21/2022 5:30:00 PM 11.36 52.448 0.326 7.13 945.7 10.7
4/21/2022 5:45:00 PM 11.39 52.502 0.326 7.12 1104 10.69
4/21/2022 6:00:00 PM 11.42 52.556 0.326 7.15 1122 10.65
4/21/2022 6:15:00 PM 11.44 52.592 0.326 7.15 1085 10.67
4/21/2022 6:30:00 PM 11.47 52.646 0.325 7.19 1077 10.63
4/21/2022 6:45:00 PM 11.5 52.7 0.325 7.18 1073 10.61
4/21/2022 7:00:00 PM 11.52 52.736 0.325 7.19 1182 10.59
4/21/2022 7:15:00 PM 11.53 52.754 0.325 7.21 1138 10.58
4/21/2022 7:30:00 PM 11.54 52.772 0.324 7.2 942.2 10.55
4/21/2022 7:45:00 PM 11.54 52.772 0.324 7.19 1011 10.54
4/21/2022 8:00:00 PM 11.54 52.772 0.324 7.19 1006 10.52
4/21/2022 8:15:00 PM 11.53 52.754 0.324 7.23 1065 10.51
4/21/2022 8:30:00 PM 11.52 52.736 0.324 7.21 1128 10.47
4/21/2022 8:45:00 PM 11.5 52.7 0.324 7.19 1073 10.45
4/21/2022 9:00:00 PM 11.48 52.664 0.324 7.18 1045 10.43
4/21/2022 9:15:00 PM 11.47 52.646 0.324 7.19 2327 10.42
4/21/2022 9:30:00 PM 11.45 52.61 0.324 7.2 2266 10.4
4/21/2022 9:45:00 PM 11.44 52.592 0.324 7.19 2595 10.4
4/21/2022 10:00:00 PM 11.43 52.574 0.324 7.18 2417 10.41
4/21/2022 10:15:00 PM 11.42 52.556 0.323 7.18 2446 10.39
4/21/2022 10:30:00 PM 11.39 52.502 0.322 7.18 2414 10.39
4/21/2022 10:45:00 PM 11.36 52.448 0.284 7.18 2442 10.38
4/21/2022 11:00:00 PM 11.33 52.394 0.324 7.18 2413 10.38
4/21/2022 11:15:00 PM 11.3 52.34 0.324 7.17 2276 10.35
4/21/2022 11:30:00 PM 11.26 52.268 0.324 7.13 2344 10.32
4/21/2022 11:45:00 PM 11.22 52.196 0.324 7.12 2245 10.35
4/22/2022 12:00:00 AM 11.19 52.142 0.324 7.08 2361 10.34
4/22/2022 12:15:00 AM 11.16 52.088 0.324 7.05 2308 10.33
4/22/2022 12:30:00 AM 11.12 52.016 0.324 7.03 2392 10.31
4/22/2022 12:45:00 AM 11.09 51.962 0.325 7.01 2278 10.31
4/22/2022 1:00:00 AM 11.06 51.908 0.325 7.04 2304 10.27
4/22/2022 1:15:00 AM 11.03 51.854 0.325 7.03 2413 10.28
4/22/2022 1:30:00 AM 10.99 51.782 0.325 7.01 2386 10.26
4/22/2022 1:45:00 AM 10.97 51.746 0.325 7.03 2375 10.25
4/22/2022 2:00:00 AM 10.93 51.674 0.325 7.01 2437 10.22
4/22/2022 2:15:00 AM 10.89 51.602 0.317 7.01 2343 10.21
4/22/2022 2:30:00 AM 10.86 51.548 0.318 7 2366 10.2
4/22/2022 2:45:00 AM 10.82 51.476 0.317 7.03 2360 10.18
4/22/2022 3:00:00 AM 10.79 51.422 0.314 7.02 2359 10.15
4/22/2022 3:15:00 AM 10.76 51.368 0.317 7.01 2430 10.14
4/22/2022 3:30:00 AM 10.73 51.314 0.315 7.03 2336 10.12
4/22/2022 3:45:00 AM 10.69 51.242 0.318 7.01 2399 10.1
4/22/2022 4:00:00 AM 10.66 51.188 0.31 7 2424 10.09
4/22/2022 4:15:00 AM 10.64 51.152 0.314 6.99 2464 10.07
4/22/2022 4:30:00 AM 10.61 51.098 0.326 6.98 2390 10.06
4/22/2022 4:45:00 AM 10.56 51.008 0.327 6.98 2417 10.02
4/22/2022 5:00:00 AM 10.52 50.936 0.327 6.98 2474 10.05
4/22/2022 5:15:00 AM 10.49 50.882 0.327 6.99 2482 10.02
4/22/2022 5:30:00 AM 10.45 50.81 0.327 6.96 2568 10.02
4/22/2022 5:45:00 AM 10.4 50.72 0.327 6.9 2527 10.01
4/22/2022 6:00:00 AM 10.36 50.648 0.327 6.91 2524 10
4/22/2022 6:15:00 AM 10.32 50.576 0.327 6.91 2475 10
4/22/2022 6:30:00 AM 10.29 50.522 0.327 6.87 2522 10.01
4/22/2022 6:45:00 AM 10.25 50.45 0.328 6.83 2496 10.01
4/22/2022 7:00:00 AM 10.22 50.396 0.328 6.83 2552 10.03
4/22/2022 7:15:00 AM 10.19 50.342 0.328 6.83 2591 10.03
4/22/2022 7:30:00 AM 10.17 50.306 0.328 6.82 2559 10.07
4/22/2022 7:45:00 AM 10.16 50.288 0.328 6.83 2558 10.11
4/22/2022 8:00:00 AM 10.17 50.306 0.328 6.83 2563 10.18
4/22/2022 8:15:00 AM 10.2 50.36 0.328 6.85 2572 10.23
4/22/2022 8:30:00 AM 10.23 50.414 0.328 6.9 2558 10.31
4/22/2022 8:45:00 AM 10.28 50.504 0.328 6.88 2595 10.38
4/22/2022 9:00:00 AM 10.33 50.594 0.328 6.9 2613 10.47
4/22/2022 9:15:00 AM 10.4 50.72 0.328 6.93 2612 10.53
4/22/2022 9:30:00 AM 10.46 50.828 0.329 6.95 2459 10.61
4/22/2022 9:45:00 AM 10.53 50.954 0.329 6.97 2493 10.68
4/22/2022 10:00:00 AM 10.61 51.098 0.329 7.01 2460 10.76
4/22/2022 10:15:00 AM 10.69 51.242 0.329 7.01 2339 10.8
4/22/2022 10:30:00 AM 10.78 51.404 0.329 7.03 2390 10.87
4/22/2022 10:45:00 AM 10.87 51.566 0.329 7.05 2403 10.92
4/22/2022 11:00:00 AM 10.97 51.746 0.329 7.05 2425 10.94
4/22/2022 11:15:00 AM 11.08 51.944 0.329 7.08 2363 11.01
4/22/2022 11:30:00 AM 11.18 52.124 0.329 7.12 2324 11.05
4/22/2022 11:45:00 AM 11.29 52.322 0.329 7.11 2354 11.1
4/22/2022 12:00:00 PM 11.42 52.556 0.33 7.13 2352 11.13
4/22/2022 12:15:00 PM 11.55 52.79 0.33 7.15 2343 11.16
4/22/2022 12:30:00 PM 11.69 53.042 0.33 7.17 2334 11.21
4/22/2022 12:45:00 PM 11.8 53.24 0.33 7.18 2366 11.22
4/22/2022 1:00:00 PM 11.93 53.474 0.33 7.18 2429 11.25
4/22/2022 1:15:00 PM 12.08 53.744 0.331 7.2 2405 11.3
4/22/2022 1:30:00 PM 12.18 53.924 0.331 7.21 2358 11.32
4/22/2022 1:45:00 PM 12.32 54.176 0.331 7.24 2412 11.33
4/22/2022 2:00:00 PM 12.4 54.32 0.331 7.24 2484 11.35
4/22/2022 2:15:00 PM 12.38 54.284 0.331 7.24 2497 11.34
4/22/2022 2:30:00 PM 12.3 54.14 0.331 7.28 2471 11.29
4/22/2022 2:45:00 PM 12.23 54.014 0.331 7.27 2427 11.28
4/22/2022 3:00:00 PM 12.21 53.978 0.331 7.24 2484 11.26
4/22/2022 3:15:00 PM 12.18 53.924 0.331 7.26 2500 11.23
4/22/2022 3:30:00 PM 12.26 54.068 0.332 7.27 2485 11.24
4/22/2022 3:45:00 PM 12.43 54.374 0.331 7.28 2141 11.28
4/22/2022 4:00:00 PM 12.57 54.626 0.332 7.29 2297 11.34
4/22/2022 4:15:00 PM 12.72 54.896 0.332 7.31 2321 11.37
4/22/2022 4:30:00 PM 12.81 55.058 0.332 7.34 2339 11.4
4/22/2022 4:45:00 PM 12.91 55.238 0.332 7.36 2501 11.44
4/22/2022 5:00:00 PM 12.95 55.31 0.332 7.38 2286 11.42
4/22/2022 5:15:00 PM 13 55.4 0.332 7.39 2354 11.44
4/22/2022 5:30:00 PM 13.05 55.49 0.332 7.41 2320 11.4
4/22/2022 5:45:00 PM 13.08 55.544 0.331 7.41 2270 11.38
4/22/2022 6:00:00 PM 13.08 55.544 0.332 7.41 2266 11.33
4/22/2022 6:15:00 PM 13.06 55.508 0.331 7.43 2371 11.25
4/22/2022 6:30:00 PM 13.06 55.508 0.331 7.44 2256 11.2
4/22/2022 6:45:00 PM 13.04 55.472 0.331 7.41 2373 11.08
4/22/2022 7:00:00 PM 13.03 55.454 0.331 7.42 2503 10.96
4/22/2022 7:15:00 PM 13.04 55.472 0.331 7.42 2541 10.87
4/22/2022 7:30:00 PM 13.05 55.49 0.331 7.41 2662 10.77
4/22/2022 7:45:00 PM 13.07 55.526 0.331 7.47 2652 10.66
4/22/2022 8:00:00 PM 13.1 55.58 0.331 7.45 2565 10.57
4/22/2022 8:15:00 PM 13.13 55.634 0.331 7.47 2636 10.51
4/22/2022 8:30:00 PM 13.15 55.67 0.331 7.45 2691 10.43
4/22/2022 8:45:00 PM 13.18 55.724 0.331 7.46 2667 10.4
4/22/2022 9:00:00 PM 13.21 55.778 0.33 7.48 2748 10.37
4/22/2022 9:15:00 PM 13.22 55.796 0.33 7.47 2748 10.34
4/22/2022 9:30:00 PM 13.23 55.814 0.33 7.47 2716 10.32
4/22/2022 9:45:00 PM 13.24 55.832 0.33 7.43 2746 10.3
4/22/2022 10:00:00 PM 13.24 55.832 0.33 7.44 2740 10.34
4/22/2022 10:15:00 PM 13.24 55.832 0.329 7.47 2736 10.34
4/22/2022 10:30:00 PM 13.24 55.832 0.33 7.49 2690 10.33
4/22/2022 10:45:00 PM 13.24 55.832 0.33 7.51 2777 10.34
4/22/2022 11:00:00 PM 13.24 55.832 0.329 7.47 2697 10.32
4/22/2022 11:15:00 PM 13.23 55.814 0.33 7.47 2611 10.33
4/22/2022 11:30:00 PM 13.21 55.778 0.299 7.46 2558 10.32
4/22/2022 11:45:00 PM 13.21 55.778 0.33 7.48 2554 10.33
4/23/2022 12:00:00 AM 13.21 55.778 0.33 7.46 2552 10.31
4/23/2022 12:15:00 AM 13.2 55.76 0.33 7.45 2607 10.31
4/23/2022 12:30:00 AM 13.2 55.76 0.328 7.46 2676 10.29
4/23/2022 12:45:00 AM 13.2 55.76 0.33 7.48 2651 10.29
4/23/2022 1:00:00 AM 13.19 55.742 0.311 7.47 2750 10.28
4/23/2022 1:15:00 AM 13.18 55.724 0.328 7.46 2708 10.26
4/23/2022 1:30:00 AM 13.17 55.706 0.33 7.44 2652 10.26
4/23/2022 1:45:00 AM 13.14 55.652 0.33 7.43 2731 10.22
4/23/2022 2:00:00 AM 13.11 55.598 0.33 7.44 2694 10.21
4/23/2022 2:15:00 AM 13.09 55.562 0.33 7.42 2735 10.18
4/23/2022 2:30:00 AM 13.05 55.49 0.33 7.41 2712 10.17
4/23/2022 2:45:00 AM 13.02 55.436 0.33 7.41 2729 10.12
4/23/2022 3:00:00 AM 12.99 55.382 0.331 7.39 2675 10.1
4/23/2022 3:15:00 AM 12.96 55.328 0.331 7.36 2774 10.05
4/23/2022 3:30:00 AM 12.92 55.256 0.331 7.36 2777 10.04
4/23/2022 3:45:00 AM 12.9 55.22 0.331 7.34 2704 10.02
4/23/2022 4:00:00 AM 12.87 55.166 0.331 7.32 2790 9.97
4/23/2022 4:15:00 AM 12.84 55.112 0.331 7.31 2822 9.94
4/23/2022 4:30:00 AM 12.81 55.058 0.331 7.29 2761 9.92
4/23/2022 4:45:00 AM 12.78 55.004 0.331 7.29 2761 9.88
4/23/2022 5:00:00 AM 12.75 54.95 0.332 7.26 2801 9.84
4/23/2022 5:15:00 AM 12.72 54.896 0.332 7.27 2781 9.83
4/23/2022 5:30:00 AM 12.69 54.842 0.332 7.23 2760 9.79
4/23/2022 5:45:00 AM 12.66 54.788 0.332 7.2 2785 9.77
4/23/2022 6:00:00 AM 12.63 54.734 0.332 7.2 2785 9.76
4/23/2022 6:15:00 AM 12.6 54.68 0.332 7.2 2811 9.72
4/23/2022 6:30:00 AM 12.57 54.626 0.332 7.19 2844 9.7
4/23/2022 6:45:00 AM 12.55 54.59 0.333 7.18 2771 9.67
4/23/2022 7:00:00 AM 12.52 54.536 0.333 7.16 2821 9.64
4/23/2022 7:15:00 AM 12.5 54.5 0.333 7.16 2785 9.62
4/23/2022 7:30:00 AM 12.48 54.464 0.333 7.14 2833 9.62
4/23/2022 7:45:00 AM 12.47 54.446 0.333 7.13 2831 9.64
4/23/2022 8:00:00 AM 12.46 54.428 0.333 7.13 2802 9.7
4/23/2022 8:15:00 AM 12.46 54.428 0.333 7.12 2832 9.72
4/23/2022 8:30:00 AM 12.46 54.428 0.333 7.13 2873 9.78
4/23/2022 8:45:00 AM 12.48 54.464 0.333 7.15 2847 9.84
4/23/2022 9:00:00 AM 12.49 54.482 0.333 7.14 2911 9.96
4/23/2022 9:15:00 AM 12.5 54.5 0.334 7.16 2803 9.98
4/23/2022 9:30:00 AM 12.51 54.518 0.333 7.15 2892 10.05
4/23/2022 9:45:00 AM 12.52 54.536 0.334 7.15 2910 10.09
4/23/2022 10:00:00 AM 12.51 54.518 0.334 7.15 2883 10.09
4/23/2022 10:15:00 AM 12.49 54.482 0.334 7.19 2902 10.07
4/23/2022 10:30:00 AM 12.48 54.464 0.334 7.16 2889 10.06
4/23/2022 10:45:00 AM 12.47 54.446 0.334 7.18 2914 10.04
4/23/2022 11:00:00 AM 12.49 54.482 0.335 7.18 2902 10.06
4/23/2022 11:15:00 AM 12.5 54.5 0.335 7.18 2908 10.08
4/23/2022 11:30:00 AM 12.55 54.59 0.335 7.19 2950 10.13
4/23/2022 11:45:00 AM 12.56 54.608 0.335 7.18 2941 10.2
4/23/2022 12:00:00 PM 12.57 54.626 0.335 7.16 2919 10.21
4/23/2022 12:15:00 PM 12.61 54.698 0.335 7.17 2898 10.28
4/23/2022 12:30:00 PM 12.67 54.806 0.335 7.15 2902 10.32
4/23/2022 12:45:00 PM 12.73 54.914 0.335 7.18 2989 10.42
4/23/2022 1:00:00 PM 12.81 55.058 0.335 7.17 2916 10.43
4/23/2022 1:15:00 PM 12.85 55.13 0.335 7.17 2923 10.49
4/23/2022 1:30:00 PM 12.93 55.274 0.335 7.21 2946 10.54
4/23/2022 1:45:00 PM 12.98 55.364 0.335 7.22 2880 10.6
4/23/2022 2:00:00 PM 13.02 55.436 0.335 7.2 2895 10.61
4/23/2022 2:15:00 PM 13.1 55.58 0.335 7.22 2846 10.69
4/23/2022 2:30:00 PM 13.24 55.832 0.335 7.24 2878 10.68
4/23/2022 2:45:00 PM 13.27 55.886 0.336 7.25 2904 10.68
4/23/2022 3:00:00 PM 13.3 55.94 0.336 7.25 2816 10.67
4/23/2022 3:15:00 PM 13.4 56.12 0.335 7.26 2844 10.72
4/23/2022 3:30:00 PM 13.59 56.462 0.336 7.31 2860 10.77
4/23/2022 3:45:00 PM 13.77 56.786 0.336 7.3 2906 10.79
4/23/2022 4:00:00 PM 13.94 57.092 0.336 7.28 2826 10.81
4/23/2022 4:15:00 PM 14.06 57.308 0.336 7.33 2926 10.85
4/23/2022 4:30:00 PM 14.17 57.506 0.336 7.33 2858 10.87
4/23/2022 4:45:00 PM 14.27 57.686 0.336 7.36 2922 10.83
4/23/2022 5:00:00 PM 14.27 57.686 0.337 7.4 2913 10.82
4/23/2022 5:15:00 PM 14.33 57.794 0.337 7.41 2937 10.81
4/23/2022 5:30:00 PM 14.29 57.722 0.337 7.42 2921 10.75
4/23/2022 5:45:00 PM 14.26 57.668 0.337 7.42 2936 10.69
4/23/2022 6:00:00 PM 14.19 57.542 0.338 7.42 2951 10.63
4/23/2022 6:15:00 PM 14.1 57.38 0.338 7.4 2934 10.55
4/23/2022 6:30:00 PM 14.03 57.254 0.338 7.4 3009 10.45
4/23/2022 6:45:00 PM 13.95 57.11 0.338 7.38 2969 10.36
4/23/2022 7:00:00 PM 13.89 57.002 0.338 7.39 2980 10.26
4/23/2022 7:15:00 PM 13.82 56.876 0.339 7.37 2965 10.15
4/23/2022 7:30:00 PM 13.77 56.786 0.339 7.36 3028 10.04
4/23/2022 7:45:00 PM 13.73 56.714 0.339 7.27 3013 9.95
4/23/2022 8:00:00 PM 13.7 56.66 0.339 7.26 3077 9.84
4/23/2022 8:15:00 PM 13.68 56.624 0.34 7.25 3146 9.77
4/23/2022 8:30:00 PM 13.67 56.606 0.34 7.25 3121 9.72
4/23/2022 8:45:00 PM 13.66 56.588 0.34 7.24 3136 9.67
4/23/2022 9:00:00 PM 13.67 56.606 0.34 7.25 3087 9.66
4/23/2022 9:15:00 PM 13.67 56.606 0.341 7.24 3104 9.63
4/23/2022 9:30:00 PM 13.68 56.624 0.341 7.27 3118 9.62
4/23/2022 9:45:00 PM 13.69 56.642 0.341 7.29 3067 9.65
4/23/2022 10:00:00 PM 13.7 56.66 0.341 7.27 3011 9.65
4/23/2022 10:15:00 PM 13.72 56.696 0.342 7.29 3106 9.67
4/23/2022 10:30:00 PM 13.74 56.732 0.342 7.29 3079 9.68
4/23/2022 10:45:00 PM 13.76 56.768 0.341 7.29 3155 9.7
4/23/2022 11:00:00 PM 13.77 56.786 0.342 7.32 3137 9.74
4/23/2022 11:15:00 PM 13.79 56.822 0.342 7.32 3160 9.74
4/23/2022 11:30:00 PM 13.81 56.858 0.342 7.34 3193 9.76
4/23/2022 11:45:00 PM 13.82 56.876 0.342 7.36 3228 9.79
4/24/2022 12:00:00 AM 13.83 56.894 0.342 7.32 3194 9.78
4/24/2022 12:15:00 AM 13.84 56.912 0.342 7.31 3146 9.78
4/24/2022 12:30:00 AM 13.86 56.948 0.342 7.33 3131 9.78
4/24/2022 12:45:00 AM 13.87 56.966 0.343 7.35 3170 9.81
4/24/2022 1:00:00 AM 13.87 56.966 0.343 7.35 3214 9.76
4/24/2022 1:15:00 AM 13.85 56.93 0.344 7.37 3124 9.77
4/24/2022 1:30:00 AM 13.85 56.93 0.344 7.37 3055 9.79
4/24/2022 1:45:00 AM 13.84 56.912 0.345 7.35 3119 9.79
4/24/2022 2:00:00 AM 13.81 56.858 0.345 7.32 3077 9.76
4/24/2022 2:15:00 AM 13.79 56.822 0.345 7.33 3042 9.76
4/24/2022 2:30:00 AM 13.75 56.75 0.345 7.32 3090 9.73
4/24/2022 2:45:00 AM 13.73 56.714 0.345 7.32 3127 9.71
4/24/2022 3:00:00 AM 13.69 56.642 0.346 7.3 3164 9.71
4/24/2022 3:15:00 AM 13.66 56.588 0.346 7.28 2888 9.66
4/24/2022 3:30:00 AM 13.62 56.516 0.346 7.23 776.9 9.64
4/24/2022 3:45:00 AM 13.59 56.462 0.346 7.21 972.9 9.64
4/24/2022 4:00:00 AM 13.55 56.39 0.346 7.2 968.9 9.61
4/24/2022 4:15:00 AM 13.51 56.318 0.346 7.2 1085 9.58
4/24/2022 4:30:00 AM 13.47 56.246 0.346 7.19 1127 9.55
4/24/2022 4:45:00 AM 13.44 56.192 0.346 7.19 1138 9.51
4/24/2022 5:00:00 AM 13.4 56.12 0.347 7.18 1155 9.5
4/24/2022 5:15:00 AM 13.36 56.048 0.347 7.18 1186 9.48
4/24/2022 5:30:00 AM 13.32 55.976 0.347 7.18 2421 9.46
4/24/2022 5:45:00 AM 13.28 55.904 0.347 7.15 2426 9.44
4/24/2022 6:00:00 AM 13.24 55.832 0.329 7.14 2433 9.42
4/24/2022 6:15:00 AM 13.2 55.76 0.324 7.13 2394 9.37
4/24/2022 6:30:00 AM 13.17 55.706 0.327 7.12 2488 9.34
4/24/2022 6:45:00 AM 13.14 55.652 0.353 7.12 2437 9.36
4/24/2022 7:00:00 AM 13.1 55.58 0.35 7.09 2453 9.33
4/24/2022 7:15:00 AM 13.07 55.526 0.336 7.11 2548 9.34
4/24/2022 7:30:00 AM 13.06 55.508 0.337 7.11 2458 9.36
4/24/2022 7:45:00 AM 13.06 55.508 0.338 7.11 2506 9.38
4/24/2022 8:00:00 AM 13.07 55.526 0.339 7.12 2475 9.41
4/24/2022 8:15:00 AM 13.08 55.544 0.341 7.1 2426 9.49
4/24/2022 8:30:00 AM 13.09 55.562 0.342 7.11 2442 9.54
4/24/2022 8:45:00 AM 13.14 55.652 0.347 7.1 2429 9.61
4/24/2022 9:00:00 AM 13.18 55.724 0.348 7.12 2465 9.69
4/24/2022 9:15:00 AM 13.23 55.814 0.347 7.12 2455 9.78
4/24/2022 9:30:00 AM 13.27 55.886 0.348 7.11 2501 9.85
4/24/2022 9:45:00 AM 13.35 56.03 0.347 7.14 2537 9.91
4/24/2022 10:00:00 AM 13.42 56.156 0.347 7.14 2541 9.95
4/24/2022 10:15:00 AM 13.5 56.3 0.347 7.16 2499 10.03
4/24/2022 10:30:00 AM 13.59 56.462 0.347 7.19 2496 10.11
4/24/2022 10:45:00 AM 13.69 56.642 0.347 7.21 2514 10.16
4/24/2022 11:00:00 AM 13.79 56.822 0.346 7.21 2500 10.2
4/24/2022 11:15:00 AM 13.9 57.02 0.348 7.23 2590 10.25
4/24/2022 11:30:00 AM 14.03 57.254 0.347 7.25 2579 10.3
4/24/2022 11:45:00 AM 14.15 57.47 0.348 7.28 2504 10.35
4/24/2022 12:00:00 PM 14.3 57.74 0.348 7.29 2502 10.37
4/24/2022 12:15:00 PM 14.44 57.992 0.348 7.3 2561 10.4
4/24/2022 12:30:00 PM 14.6 58.28 0.348 7.33 2526 10.43
4/24/2022 12:45:00 PM 14.75 58.55 0.348 7.31 2498 10.46
4/24/2022 1:00:00 PM 14.9 58.82 0.348 7.32 2558 10.5
4/24/2022 1:15:00 PM 15.07 59.126 0.345 7.33 2567 10.54
4/24/2022 1:30:00 PM 15.26 59.468 0.35 7.38 2526 10.56
4/24/2022 1:45:00 PM 15.44 59.792 0.351 7.39 2579 10.59
4/24/2022 2:00:00 PM 15.54 59.972 0.35 7.4 2547 10.59
4/24/2022 2:15:00 PM 15.7 60.26 0.352 7.42 2606 10.6
4/24/2022 2:30:00 PM 15.87 60.566 0.349 7.41 2525 10.62
4/24/2022 2:45:00 PM 16.04 60.872 0.351 7.42 2591 10.62
4/24/2022 3:00:00 PM 16.11 60.998 0.351 7.44 2611 10.59
4/24/2022 3:15:00 PM 16.27 61.286 0.352 7.45 2608 10.61
4/24/2022 3:30:00 PM 16.33 61.394 0.349 7.44 2673 10.6
4/24/2022 3:45:00 PM 16.4 61.52 0.349 7.48 2658 10.55
4/24/2022 4:00:00 PM 16.5 61.7 0.334 7.48 2757 10.57
4/24/2022 4:15:00 PM 16.54 61.772 0.339 7.48 2742 10.52
4/24/2022 4:30:00 PM 16.62 61.916 0.336 7.54 2771 10.5
4/24/2022 4:45:00 PM 16.69 62.042 0.337 7.54 2775 10.49
4/24/2022 5:00:00 PM 16.71 62.078 0.336 7.55 2756 10.48
4/24/2022 5:15:00 PM 16.67 62.006 0.332 7.56 2826 10.42
4/24/2022 5:30:00 PM 16.67 62.006 0.335 7.58 2833 10.39
4/24/2022 5:45:00 PM 16.62 61.916 0.349 7.57 2923 10.29
4/24/2022 6:00:00 PM 16.6 61.88 0.348 7.57 2842 10.24
4/24/2022 6:15:00 PM 16.55 61.79 0.348 7.58 2952 10.18
4/24/2022 6:30:00 PM 16.54 61.772 0.347 7.57 2961 10.09
4/24/2022 6:45:00 PM 16.5 61.7 0.347 7.57 2880 10.01
4/24/2022 7:00:00 PM 16.47 61.646 0.348 7.57 2924 9.88
4/24/2022 7:15:00 PM 16.46 61.628 0.347 7.53 2912 9.78
4/24/2022 7:30:00 PM 16.46 61.628 0.347 7.53 2909 9.68
4/24/2022 7:45:00 PM 16.46 61.628 0.35 7.53 2890 9.56
4/24/2022 8:00:00 PM 16.48 61.664 0.347 7.52 2959 9.45
4/24/2022 8:15:00 PM 16.51 61.718 0.35 7.51 2855 9.35
4/24/2022 8:30:00 PM 16.55 61.79 0.35 7.51 2813 9.28
4/24/2022 8:45:00 PM 16.59 61.862 0.35 7.5 2834 9.22
4/24/2022 9:00:00 PM 16.63 61.934 0.351 7.51 2735 9.17
4/24/2022 9:15:00 PM 16.68 62.024 0.349 7.52 2744 9.14
4/24/2022 9:30:00 PM 16.73 62.114 0.35 7.52 3069 9.12
4/24/2022 9:45:00 PM 16.78 62.204 0.35 7.55 3041 9.1
4/24/2022 10:00:00 PM 16.84 62.312 0.35 7.57 2950 9.12
4/24/2022 10:15:00 PM 16.87 62.366 0.35 7.57 2961 9.13
4/24/2022 10:30:00 PM 16.92 62.456 0.351 7.58 2965 9.11
4/24/2022 10:45:00 PM 16.95 62.51 0.351 7.58 2979 9.12
4/24/2022 11:00:00 PM 16.97 62.546 0.352 7.59 2940 9.09
4/24/2022 11:15:00 PM 17.03 62.654 0.352 7.6 2947 9.13
4/24/2022 11:30:00 PM 17.07 62.726 0.352 7.62 2948 9.12
4/24/2022 11:45:00 PM 17.07 62.726 0.352 7.62 2926 9.11
4/25/2022 12:00:00 AM 17.07 62.726 0.353 7.64 2949 9.1
4/25/2022 12:15:00 AM 17.08 62.744 0.352 7.65 2898 9.11
4/25/2022 12:30:00 AM 17.08 62.744 0.352 7.65 2961 9.1
4/25/2022 12:45:00 AM 17.06 62.708 0.355 7.64 2935 9.08
4/25/2022 1:00:00 AM 17.08 62.744 0.351 7.63 2919 9.07
4/25/2022 1:15:00 AM 17.05 62.69 0.351 7.62 2928 9.05
4/25/2022 1:30:00 AM 17.03 62.654 0.352 7.62 2949 9.06
4/25/2022 1:45:00 AM 17 62.6 0.352 7.62 3097 9.01
4/25/2022 2:00:00 AM 16.98 62.564 0.352 7.62 3070 9.04
4/25/2022 2:15:00 AM 16.96 62.528 0.352 7.62 3056 9.01
4/25/2022 2:30:00 AM 16.91 62.438 0.352 7.61 3067 9.02
4/25/2022 2:45:00 AM 16.88 62.384 0.353 7.6 3055 8.95
4/25/2022 3:00:00 AM 16.84 62.312 0.353 7.59 3117 8.95
4/25/2022 3:15:00 AM 16.81 62.258 0.353 7.58 3104 8.93
4/25/2022 3:30:00 AM 16.79 62.222 0.354 7.57 3147 8.89
4/25/2022 3:45:00 AM 16.76 62.168 0.354 7.54 3139 8.86
4/25/2022 4:00:00 AM 16.72 62.096 0.354 7.52 3174 8.85
4/25/2022 4:15:00 AM 16.68 62.024 0.355 7.52 3192 8.79
4/25/2022 4:30:00 AM 16.65 61.97 0.355 7.52 3254 8.75
4/25/2022 4:45:00 AM 16.61 61.898 0.356 7.5 3251 8.74
4/25/2022 5:00:00 AM 16.57 61.826 0.356 7.49 3294 8.72
4/25/2022 5:15:00 AM 16.51 61.718 0.357 7.45 3388 8.68
4/25/2022 5:30:00 AM 16.47 61.646 0.357 7.45 3263 8.65
4/25/2022 5:45:00 AM 16.43 61.574 0.357 7.44 3284 8.62
4/25/2022 6:00:00 AM 16.37 61.466 0.358 7.41 1507 8.55
4/25/2022 6:15:00 AM 16.34 61.412 0.358 7.42 1305 8.56
4/25/2022 6:30:00 AM 16.29 61.322 0.358 7.42 1289 8.54
4/25/2022 6:45:00 AM 16.25 61.25 0.358 7.39 1345 8.48
4/25/2022 7:00:00 AM 16.2 61.16 0.359 7.37 1326 8.44
4/25/2022 7:15:00 AM 16.17 61.106 0.359 7.35 1322 8.47
4/25/2022 7:30:00 AM 16.14 61.052 0.359 7.35 1349 8.48
4/25/2022 7:45:00 AM 16.12 61.016 0.359 7.35 1431 8.5
4/25/2022 8:00:00 AM 16.09 60.962 0.359 7.35 1343 8.53
4/25/2022 8:15:00 AM 16.05 60.89 0.36 7.33 1433 8.62
4/25/2022 8:30:00 AM 16.05 60.89 0.359 7.35 1366 8.68
4/25/2022 8:45:00 AM 16.04 60.872 0.359 7.35 1377 8.77
4/25/2022 9:00:00 AM 16.03 60.854 0.36 7.32 1339 8.87
4/25/2022 9:15:00 AM 16.04 60.872 0.36 7.33 1339 8.94
4/25/2022 9:30:00 AM 16.04 60.872 0.36 7.34 1332 9.04
4/25/2022 9:45:00 AM 16.05 60.89 0.359 7.33 1288 9.12
4/25/2022 10:00:00 AM 16.06 60.908 0.359 7.38 1374 9.21
4/25/2022 10:15:00 AM 16.08 60.944 0.359 7.37 1347 9.27
4/25/2022 10:30:00 AM 16.11 60.998 0.359 7.39 1373 9.36
4/25/2022 10:45:00 AM 16.13 61.034 0.359 7.4 1377 9.4
4/25/2022 11:00:00 AM 16.15 61.07 0.359 7.4 1376 9.46
4/25/2022 11:15:00 AM 16.17 61.106 0.359 7.4 1368 9.52
4/25/2022 11:30:00 AM 16.21 61.178 0.359 7.4 1356 9.57
4/25/2022 11:45:00 AM 16.2 61.16 0.359 7.41 1519 9.59
4/25/2022 12:00:00 PM 16.23 61.214 0.359 7.4 1464 9.62
4/25/2022 12:15:00 PM 16.23 61.214 0.359 7.43 1462 9.61
4/25/2022 12:30:00 PM 16.23 61.214 0.358 7.42 1433 9.61
4/25/2022 12:45:00 PM 16.27 61.286 0.358 7.42 1509 9.66
4/25/2022 1:00:00 PM 16.3 61.34 0.358 7.43 1484 9.65
4/25/2022 1:15:00 PM 16.36 61.448 0.358 7.42 1501 9.69
4/25/2022 1:30:00 PM 16.44 61.592 0.358 7.44 1592 9.74
4/25/2022 1:45:00 PM 16.57 61.826 0.358 7.44 1581 9.78
4/25/2022 2:00:00 PM 16.65 61.97 0.358 7.49 1653 9.85
4/25/2022 2:15:00 PM 16.76 62.168 0.357 7.51 1605 9.9
4/25/2022 2:30:00 PM 16.93 62.474 0.358 7.51 1753 9.96
4/25/2022 2:45:00 PM 17.02 62.636 0.357 7.52 1814 9.93
4/25/2022 3:00:00 PM 17.08 62.744 0.357 7.53 1760 9.94
4/25/2022 3:15:00 PM 17.13 62.834 0.357 7.53 2181 9.96
4/25/2022 3:30:00 PM 17.16 62.888 0.357 7.54 2229 9.91
4/25/2022 3:45:00 PM 17.21 62.978 0.357 7.54 2258 9.93
4/25/2022 4:00:00 PM 17.25 63.05 0.357 7.54 2189 9.9
4/25/2022 4:15:00 PM 17.27 63.086 0.357 7.54 2232 9.9
4/25/2022 4:30:00 PM 17.3 63.14 0.356 7.55 2307 9.89
4/25/2022 4:45:00 PM 17.31 63.158 0.356 7.54 2353 9.86
4/25/2022 5:00:00 PM 17.33 63.194 0.356 7.54 2340 9.85
4/25/2022 5:15:00 PM 17.29 63.122 0.356 7.55 2335 9.76
4/25/2022 5:30:00 PM 17.23 63.014 0.356 7.53 2516 9.71
4/25/2022 5:45:00 PM 17.16 62.888 0.356 7.56 2382 9.61
4/25/2022 6:00:00 PM 17.09 62.762 0.356 7.55 2362 9.54
4/25/2022 6:15:00 PM 17.03 62.654 0.356 7.53 2329 9.41
4/25/2022 6:30:00 PM 16.98 62.564 0.357 7.53 2156 9.27
4/25/2022 6:45:00 PM 16.95 62.51 0.357 7.48 2363 9.18
4/25/2022 7:00:00 PM 16.92 62.456 0.357 7.48 2278 9.06
4/25/2022 7:15:00 PM 16.9 62.42 0.357 7.42 2559 8.96
4/25/2022 7:30:00 PM 16.89 62.402 0.357 7.4 2526 8.89
4/25/2022 7:45:00 PM 16.89 62.402 0.357 7.35 2612 8.82
4/25/2022 8:00:00 PM 16.88 62.384 0.357 7.37 2564 8.74
4/25/2022 8:15:00 PM 16.88 62.384 0.357 7.38 2642 8.7
4/25/2022 8:30:00 PM 16.88 62.384 0.357 7.37 2735 8.69
4/25/2022 8:45:00 PM 16.9 62.42 0.357 7.37 2811 8.66
4/25/2022 9:00:00 PM 16.9 62.42 0.357 7.36 3017 8.63
4/25/2022 9:15:00 PM 16.9 62.42 0.357 7.41 3190 8.62
4/25/2022 9:30:00 PM 16.94 62.492 0.357 7.41 3171 8.68
4/25/2022 9:45:00 PM 16.95 62.51 0.357 7.42 3177 8.68
4/25/2022 10:00:00 PM 16.96 62.528 0.358 7.4 3230 8.68
4/25/2022 10:15:00 PM 17 62.6 0.357 7.42 3254 8.72
4/25/2022 10:30:00 PM 17.02 62.636 0.357 7.45 3254 8.72
4/25/2022 10:45:00 PM 17.02 62.636 0.357 7.42 3239 8.74
4/25/2022 11:00:00 PM 17.07 62.726 0.357 7.44 3254 8.77
4/25/2022 11:15:00 PM 17.08 62.744 0.354 7.47 3219 8.79
4/25/2022 11:30:00 PM 17.08 62.744 0.357 7.49 3202 8.79
4/25/2022 11:45:00 PM 17.12 62.816 0.358 7.5 3172 8.82
4/26/2022 12:00:00 AM 17.14 62.852 0.358 7.49 3212 8.84
4/26/2022 12:15:00 AM 17.15 62.87 0.358 7.52 3250 8.83
4/26/2022 12:30:00 AM 17.16 62.888 0.358 7.51 3259 8.79
4/26/2022 12:45:00 AM 17.16 62.888 0.359 7.52 3268 8.85
4/26/2022 1:00:00 AM 17.17 62.906 0.359 7.51 3261 8.84
4/26/2022 1:15:00 AM 17.16 62.888 0.359 7.51 1469 8.86
4/26/2022 1:30:00 AM 17.17 62.906 0.359 7.52 1448 8.86
4/26/2022 1:45:00 AM 17.15 62.87 0.36 7.54 1609 8.84
4/26/2022 2:00:00 AM 17.14 62.852 0.36 7.51 1535 8.84
4/26/2022 2:15:00 AM 17.12 62.816 0.36 7.51 1616 8.76
4/26/2022 2:30:00 AM 17.1 62.78 0.36 7.52 1662 8.77
4/26/2022 2:45:00 AM 17.07 62.726 0.361 7.51 1756 8.77
4/26/2022 3:00:00 AM 17.04 62.672 0.361 7.5 1871 8.73
4/26/2022 3:15:00 AM 17.01 62.618 0.361 7.5 1785 8.73
4/26/2022 3:30:00 AM 16.97 62.546 0.361 7.49 1903 8.76
4/26/2022 3:45:00 AM 16.94 62.492 0.361 7.48 1918 8.69
4/26/2022 4:00:00 AM 16.9 62.42 0.361 7.47 1928 8.65
4/26/2022 4:15:00 AM 16.85 62.33 0.362 7.47 1862 8.65
4/26/2022 4:30:00 AM 16.82 62.276 0.362 7.45 1911 8.62
4/26/2022 4:45:00 AM 16.79 62.222 0.352 7.43 1944 8.61
4/26/2022 5:00:00 AM 16.76 62.168 0.333 7.41 1947 8.6
4/26/2022 5:15:00 AM 16.73 62.114 0.363 7.41 2041 8.57
4/26/2022 5:30:00 AM 16.69 62.042 0.364 7.38 2577 8.52
4/26/2022 5:45:00 AM 16.65 61.97 0.364 7.37 2429 8.5
4/26/2022 6:00:00 AM 16.62 61.916 0.364 7.36 2327 8.48
4/26/2022 6:15:00 AM 16.59 61.862 0.365 7.32 2354 8.44
4/26/2022 6:30:00 AM 16.56 61.808 0.365 7.33 2306 8.42
4/26/2022 6:45:00 AM 16.53 61.754 0.365 7.29 2309 8.42
4/26/2022 7:00:00 AM 16.5 61.7 0.366 7.28 2381 8.4
4/26/2022 7:15:00 AM 16.48 61.664 0.366 7.29 2446 8.41
4/26/2022 7:30:00 AM 16.47 61.646 0.366 7.25 2440 8.43
4/26/2022 7:45:00 AM 16.46 61.628 0.366 7.28 2401 8.47
4/26/2022 8:00:00 AM 16.45 61.61 0.366 7.27 2411 8.54
4/26/2022 8:15:00 AM 16.45 61.61 0.366 7.27 2417 8.62
4/26/2022 8:30:00 AM 16.44 61.592 0.366 7.27 1823 8.68
4/26/2022 8:45:00 AM 16.44 61.592 0.367 7.28 1596 8.75
4/26/2022 9:00:00 AM 16.47 61.646 0.367 7.27 1292 8.86
4/26/2022 9:15:00 AM 16.48 61.664 0.367 7.27 4461 8.94
4/26/2022 9:30:00 AM 16.52 61.736 0.367 7.29 2754 9.02
4/26/2022 9:45:00 AM 16.51 61.718 0.366 7.28 1333 9.08
4/26/2022 10:00:00 AM 16.48 61.664 0.367 7.31 1439 9.1
4/26/2022 10:15:00 AM 16.44 61.592 0.367 7.29 866.5 9.07
4/26/2022 10:30:00 AM 16.42 61.556 0.367 7.29 4465 9.04
4/26/2022 10:45:00 AM 16.39 61.502 0.367 7.28 2593 9.01
4/26/2022 11:00:00 AM 16.34 61.412 0.367 7.27 142.5 8.93
4/26/2022 11:15:00 AM 16.3 61.34 0.367 7.25 188.1 8.89
4/26/2022 11:30:00 AM 16.27 61.286 0.367 7.24 126.8 8.88
4/26/2022 11:45:00 AM 16.26 61.268 0.367 7.21 135.7 8.87
4/26/2022 12:00:00 PM 16.22 61.196 0.367 7.19 138.9 8.86
4/26/2022 12:15:00 PM 16.22 61.196 0.367 7.19 124.6 8.88
4/26/2022 12:30:00 PM 16.26 61.268 0.367 7.18 134.1 8.95
4/26/2022 12:45:00 PM 16.28 61.304 0.367 7.2 378.3 8.99
4/26/2022 1:00:00 PM 16.32 61.376 0.365 7.19 208.6 9.05
4/26/2022 1:15:00 PM 16.29 61.322 0.367 7.18 143.6 9.07
4/26/2022 1:30:00 PM 16.29 61.322 0.367 7.19 734.2 9.11
4/26/2022 1:45:00 PM 16.28 61.304 0.367 7.2 146.7 9.14
4/26/2022 2:00:00 PM 16.26 61.268 0.367 7.18 160.8 9.11
4/26/2022 2:15:00 PM 16.22 61.196 0.367 7.2 166.6 9.05
4/26/2022 2:30:00 PM 16.19 61.142 0.367 7.2 158.8 8.98
4/26/2022 2:45:00 PM 16.15 61.07 0.339 7.18 131 8.93
4/26/2022 3:00:00 PM 16.12 61.016 0.363 7.17 149.1 8.9
4/26/2022 3:15:00 PM 16.09 60.962 0.359 7.16 151.9 8.84
4/26/2022 3:30:00 PM 16.08 60.944 0.364 7.16 147.2 8.81
4/26/2022 3:45:00 PM 16.06 60.908 0.366 7.18 123.2 8.8
4/26/2022 4:00:00 PM 16.06 60.908 0.366 7.16 130.4 8.81
4/26/2022 4:15:00 PM 16.06 60.908 0.364 7.14 134.6 8.83
4/26/2022 4:30:00 PM 16.03 60.854 0.366 7.16 147.3 8.79
4/26/2022 4:45:00 PM 16.02 60.836 0.365 7.14 137.9 8.78
4/26/2022 5:00:00 PM 16.02 60.836 0.365 7.17 149.8 8.81
4/26/2022 5:15:00 PM 16.02 60.836 0.357 7.17 121.7 8.82
4/26/2022 5:30:00 PM 16 60.8 0.363 7.18 136.8 8.77
4/26/2022 5:45:00 PM 15.99 60.782 0.365 7.18 117.6 8.74
4/26/2022 6:00:00 PM 15.98 60.764 0.365 7.19 145.9 8.76
4/26/2022 6:15:00 PM 15.97 60.746 0.365 7.19 126.9 8.74
4/26/2022 6:30:00 PM 15.95 60.71 0.354 7.18 136.3 8.68
4/26/2022 6:45:00 PM 15.93 60.674 0.366 7.17 139.9 8.64
4/26/2022 7:00:00 PM 15.91 60.638 0.365 7.18 116.4 8.6
4/26/2022 7:15:00 PM 15.9 60.62 0.365 7.16 75.11 8.56
4/26/2022 7:30:00 PM 15.88 60.584 0.363 7.17 121.8 8.5
4/26/2022 7:45:00 PM 15.87 60.566 0.364 7.16 124 8.51
4/26/2022 8:00:00 PM 15.86 60.548 0.365 7.17 112 8.49
4/26/2022 8:15:00 PM 15.83 60.494 0.343 7.18 116.2 8.48
4/26/2022 8:30:00 PM 15.81 60.458 0.365 7.18 102.4 8.49
4/26/2022 8:45:00 PM 15.78 60.404 0.348 7.16 115.4 8.46
4/26/2022 9:00:00 PM 15.76 60.368 0.365 7.19 100.9 8.47
4/26/2022 9:15:00 PM 15.73 60.314 0.365 7.18 99.19 8.49
4/26/2022 9:30:00 PM 15.7 60.26 0.365 7.2 96.16 8.51
4/26/2022 9:45:00 PM 15.68 60.224 0.365 7.17 106.7 8.53
4/26/2022 10:00:00 PM 15.67 60.206 0.353 7.19 121.5 8.52
4/26/2022 10:15:00 PM 15.63 60.134 0.358 7.19 105.3 8.56
4/26/2022 10:30:00 PM 15.62 60.116 0.366 7.21 112 8.56
4/26/2022 10:45:00 PM 15.63 60.134 0.354 7.19 108.4 8.61
4/26/2022 11:00:00 PM 15.6 60.08 0.314 7.19 115.4 8.59
4/26/2022 11:15:00 PM 15.57 60.026 0.366 7.2 112.9 8.61
4/26/2022 11:30:00 PM 15.53 59.954 0.366 7.2 111.3 8.65
4/26/2022 11:45:00 PM 15.48 59.864 0.365 7.2 111 8.63
4/27/2022 12:00:00 AM 15.43 59.774 0.366 7.21 122.1 8.65
4/27/2022 12:15:00 AM 15.39 59.702 0.366 7.21 120.1 8.66
4/27/2022 12:30:00 AM 15.34 59.612 0.366 7.2 99.95 8.68
4/27/2022 12:45:00 AM 15.29 59.522 0.366 7.19 101.3 8.67
4/27/2022 1:00:00 AM 15.24 59.432 0.366 7.2 93.71 8.66
4/27/2022 1:15:00 AM 15.19 59.342 0.366 7.21 99.84 8.72
4/27/2022 1:30:00 AM 15.15 59.27 0.366 7.19 101.2 8.65
4/27/2022 1:45:00 AM 15.12 59.216 0.366 7.2 97.82 8.64
4/27/2022 2:00:00 AM 15.09 59.162 0.366 7.18 98.73 8.66
4/27/2022 2:15:00 AM 15.07 59.126 0.366 7.18 100.1 8.66
4/27/2022 2:30:00 AM 15.04 59.072 0.366 7.19 101.1 8.67
4/27/2022 2:45:00 AM 15 59 0.367 7.16 103 8.55
4/27/2022 3:00:00 AM 14.95 58.91 0.366 7.16 102.7 8.68
4/27/2022 3:15:00 AM 14.89 58.802 0.346 7.14 101.2 8.67
4/27/2022 3:30:00 AM 14.84 58.712 0.366 7.14 113.2 8.67
4/27/2022 3:45:00 AM 14.78 58.604 0.366 7.16 111.8 8.67
4/27/2022 4:00:00 AM 14.73 58.514 0.366 7.16 107 8.67
4/27/2022 4:15:00 AM 14.65 58.37 0.367 7.13 99.67 8.65
4/27/2022 4:30:00 AM 14.56 58.208 0.367 7.13 108.6 8.64
4/27/2022 4:45:00 AM 14.52 58.136 0.367 7.14 107.9 8.65
4/27/2022 5:00:00 AM 14.43 57.974 0.358 7.13 108 8.64
4/27/2022 5:15:00 AM 14.37 57.866 0.368 7.09 110.8 8.64
4/27/2022 5:30:00 AM 14.31 57.758 0.368 7.07 108.6 8.61
4/27/2022 5:45:00 AM 14.25 57.65 0.369 7.11 116.6 8.61
4/27/2022 6:00:00 AM 14.19 57.542 0.369 7.08 110.3 8.57
4/27/2022 6:15:00 AM 14.15 57.47 0.369 7.08 116.1 8.6
4/27/2022 6:30:00 AM 14.08 57.344 0.369 7.06 114.6 8.61
4/27/2022 6:45:00 AM 14.03 57.254 0.369 7.07 115.2 8.6
4/27/2022 7:00:00 AM 13.96 57.128 0.369 7.07 112.2 8.62
4/27/2022 7:15:00 AM 13.92 57.056 0.37 7.06 125.6 8.66
4/27/2022 7:30:00 AM 13.88 56.984 0.37 7.01 127.2 8.71
4/27/2022 7:45:00 AM 13.86 56.948 0.37 7.01 119.4 8.76
4/27/2022 8:00:00 AM 13.84 56.912 0.37 7.01 128.5 8.8
4/27/2022 8:15:00 AM 13.79 56.822 0.37 7.02 114.9 8.88
4/27/2022 8:30:00 AM 13.77 56.786 0.37 7.02 125.4 8.97
4/27/2022 8:45:00 AM 13.76 56.768 0.371 7.01 127.1 9.03
4/27/2022 9:00:00 AM 13.73 56.714 0.371 7.04 128.9 9.15
4/27/2022 9:15:00 AM 13.71 56.678 0.371 7.04 129.4 9.19
4/27/2022 9:30:00 AM 13.75 56.75 0.371 7.02 130.1 9.29
4/27/2022 9:45:00 AM 13.83 56.894 0.371 7.04 131 9.38
4/27/2022 10:00:00 AM 13.79 56.822 0.371 7.05 131.9 9.47
4/27/2022 10:15:00 AM 13.76 56.768 0.371 7.06 128.9 9.53
4/27/2022 10:30:00 AM 13.86 56.948 0.371 7.04 129.7 9.61
4/27/2022 10:45:00 AM 13.92 57.056 0.371 7.1 135.7 9.7
4/27/2022 11:00:00 AM 13.96 57.128 0.371 7.07 136.7 9.78
4/27/2022 11:15:00 AM 13.95 57.11 0.371 7.06 136.3 9.83
4/27/2022 11:30:00 AM 14.06 57.308 0.371 7.06 142.3 9.92
4/27/2022 11:45:00 AM 14.2 57.56 0.371 7.08 138.3 9.98
4/27/2022 12:00:00 PM 14.17 57.506 0.37 7.09 143.8 9.98
4/27/2022 12:15:00 PM 14.07 57.326 0.37 7.12 142.5 9.99
4/27/2022 12:30:00 PM 14.03 57.254 0.37 7.12 141.5 10.03
4/27/2022 12:45:00 PM 14.11 57.398 0.37 7.13 137.5 10.04
4/27/2022 1:00:00 PM 14.11 57.398 0.37 7.13 142.9 10.08
4/27/2022 1:15:00 PM 14.17 57.506 0.37 7.13 139.1 10.12
4/27/2022 1:30:00 PM 14.27 57.686 0.37 7.13 137.4 10.14
4/27/2022 1:45:00 PM 14.25 57.65 0.37 7.14 135.8 10.16
4/27/2022 2:00:00 PM 14.46 58.028 0.371 7.16 133.9 10.21
4/27/2022 2:15:00 PM 14.52 58.136 0.371 7.16 136.5 10.2
4/27/2022 2:30:00 PM 14.63 58.334 0.371 7.18 135.2 10.23
4/27/2022 2:45:00 PM 14.55 58.19 0.371 7.18 131.5 10.23
4/27/2022 3:00:00 PM 14.54 58.172 0.371 7.2 139.7 10.23
4/27/2022 3:15:00 PM 14.42 57.956 0.372 7.24 135 10.22
4/27/2022 3:30:00 PM 14.31 57.758 0.372 7.24 138.5 10.17
4/27/2022 3:45:00 PM 14.2 57.56 0.372 7.24 136.8 10.15
4/27/2022 4:00:00 PM 14.07 57.326 0.372 7.23 145.1 10.09
4/27/2022 4:15:00 PM 13.9 57.02 0.372 7.22 135.2 10.04
4/27/2022 4:30:00 PM 13.78 56.804 0.371 7.23 143.3 10
4/27/2022 4:45:00 PM 13.65 56.57 0.371 7.21 133.8 9.94
4/27/2022 5:00:00 PM 13.56 56.408 0.371 7.18 134.8 9.88
4/27/2022 5:15:00 PM 13.47 56.246 0.371 7.2 140.4 9.85
4/27/2022 5:30:00 PM 13.39 56.102 0.371 7.19 144.5 9.78
4/27/2022 5:45:00 PM 13.32 55.976 0.371 7.18 136.2 9.73
4/27/2022 6:00:00 PM 13.26 55.868 0.371 7.16 137.8 9.7
4/27/2022 6:15:00 PM 13.22 55.796 0.371 7.18 136.9 9.66
4/27/2022 6:30:00 PM 13.18 55.724 0.371 7.14 149.4 9.64
4/27/2022 6:45:00 PM 13.13 55.634 0.371 7.15 155.3 9.62
4/27/2022 7:00:00 PM 13.07 55.526 0.372 7.15 148.2 9.58
4/27/2022 7:15:00 PM 13.03 55.454 0.371 7.15 141.5 9.6
4/27/2022 7:30:00 PM 12.96 55.328 0.372 7.14 155.6 9.56
4/27/2022 7:45:00 PM 12.92 55.256 0.372 7.16 154.8 9.53
4/27/2022 8:00:00 PM 12.87 55.166 0.372 7.14 140.1 9.53
4/27/2022 8:15:00 PM 12.83 55.094 0.371 7.15 152.3 9.49
4/27/2022 8:30:00 PM 12.8 55.04 0.35 7.18 152.3 9.47
4/27/2022 8:45:00 PM 12.77 54.986 0.371 7.16 147.6 9.47
4/27/2022 9:00:00 PM 12.73 54.914 0.371 7.18 158.2 9.49
4/27/2022 9:15:00 PM 12.72 54.896 0.371 7.18 151.7 9.53
4/27/2022 9:30:00 PM 12.69 54.842 0.34 7.19 148 9.56
4/27/2022 9:45:00 PM 12.65 54.77 0.349 7.19 146.9 9.59
4/27/2022 10:00:00 PM 12.6 54.68 0.355 7.18 151 9.59
4/27/2022 10:15:00 PM 12.59 54.662 0.367 7.2 155.1 9.63
4/27/2022 10:30:00 PM 12.54 54.572 0.354 7.2 155.8 9.64
4/27/2022 10:45:00 PM 12.47 54.446 0.349 7.23 155.2 9.68
4/27/2022 11:00:00 PM 12.44 54.392 0.371 7.21 158.1 9.69
4/27/2022 11:15:00 PM 12.39 54.302 0.371 7.23 157.7 9.72
4/27/2022 11:30:00 PM 12.32 54.176 0.313 7.19 156.8 9.74
4/27/2022 11:45:00 PM 12.28 54.104 0.33 7.19 166.7 9.75
4/28/2022 12:00:00 AM 12.21 53.978 0.366 7.22 157.7 9.78
4/28/2022 12:15:00 AM 12.15 53.87 0.324 7.22 162.9 9.8
4/28/2022 12:30:00 AM 12.13 53.834 0.352 7.24 160.9 9.82
4/28/2022 12:45:00 AM 12.07 53.726 0.34 7.21 162.6 9.81
4/28/2022 1:00:00 AM 12.01 53.618 0.342 7.18 168.5 9.85
4/28/2022 1:15:00 AM 11.95 53.51 0.341 7.15 173.2 9.85
4/28/2022 1:30:00 AM 11.9 53.42 0.338 7.14 175.9 9.91
4/28/2022 1:45:00 AM 11.84 53.312 0.342 7.14 176.1 9.9
4/28/2022 2:00:00 AM 11.79 53.222 0.348 7.12 168.3 9.91
4/28/2022 2:15:00 AM 11.74 53.132 0.341 7.18 169 9.92
4/28/2022 2:30:00 AM 11.67 53.006 0.339 7.17 183 9.93
4/28/2022 2:45:00 AM 11.61 52.898 0.338 7.18 179.4 9.95
4/28/2022 3:00:00 AM 11.53 52.754 0.343 7.17 183.2 9.95
4/28/2022 3:15:00 AM 11.46 52.628 0.324 7.15 296.7 9.86
4/28/2022 3:30:00 AM 11.39 52.502 0.374 7.18 227.3 9.91
4/28/2022 3:45:00 AM 11.32 52.376 0.375 7.14 225.5 9.93
4/28/2022 4:00:00 AM 11.25 52.25 0.374 7.14 228.6 9.95
4/28/2022 4:15:00 AM 11.15 52.07 0.374 7.11 226.3 9.95
4/28/2022 4:30:00 AM 11.06 51.908 0.374 7.11 220.3 9.94
4/28/2022 4:45:00 AM 10.98 51.764 0.374 7.1 217.3 9.94
4/28/2022 5:00:00 AM 10.91 51.638 0.307 7.06 227.8 9.94
4/28/2022 5:15:00 AM 10.84 51.512 0.343 7.08 219.9 9.93
4/28/2022 5:30:00 AM 10.77 51.386 0.345 7.03 233.4 9.93
4/28/2022 5:45:00 AM 10.72 51.296 0.35 7.01 223 9.93
4/28/2022 6:00:00 AM 10.66 51.188 0.36 7 225.7 9.9
4/28/2022 6:15:00 AM 10.62 51.116 0.366 7 229.4 9.89
4/28/2022 6:30:00 AM 10.58 51.044 0.365 7 230.1 9.88
4/28/2022 6:45:00 AM 10.53 50.954 0.365 6.94 222 9.91
4/28/2022 7:00:00 AM 10.49 50.882 0.367 6.96 218.2 9.92
4/28/2022 7:15:00 AM 10.46 50.828 0.368 7 229.2 9.93
4/28/2022 7:30:00 AM 10.44 50.792 0.369 6.96 229.6 9.96
4/28/2022 7:45:00 AM 10.42 50.756 0.37 6.95 234.6 10.01
4/28/2022 8:00:00 AM 10.41 50.738 0.37 6.95 225.6 10.06
4/28/2022 8:15:00 AM 10.4 50.72 0.368 6.95 222.1 10.14
4/28/2022 8:30:00 AM 10.4 50.72 0.368 6.96 231.6 10.21
4/28/2022 8:45:00 AM 10.42 50.756 0.368 6.98 239.5 10.31
4/28/2022 9:00:00 AM 10.41 50.738 0.368 6.96 236.3 10.38
4/28/2022 9:15:00 AM 10.42 50.756 0.368 6.98 239.8 10.46
4/28/2022 9:30:00 AM 10.46 50.828 0.368 6.99 234.1 10.53
4/28/2022 9:45:00 AM 10.51 50.918 0.368 7.01 241.3 10.6
4/28/2022 10:00:00 AM 10.57 51.026 0.369 7.04 219.3 10.64
4/28/2022 10:15:00 AM 10.63 51.134 0.369 7.01 224.2 10.66
4/28/2022 10:30:00 AM 10.7 51.26 0.369 7 231.6 10.72
4/28/2022 10:45:00 AM 10.82 51.476 0.369 7 235.6 10.75
4/28/2022 11:00:00 AM 10.93 51.674 0.368 7 229.4 10.79
4/28/2022 11:15:00 AM 11.05 51.89 0.37 7.06 241.8 10.79
4/28/2022 11:30:00 AM 11.2 52.16 0.37 7 239.6 10.79
4/28/2022 11:45:00 AM 11.34 52.412 0.37 7.03 230.3 10.82
4/28/2022 12:00:00 PM 11.5 52.7 0.37 7.06 239.9 10.86
4/28/2022 12:15:00 PM 11.68 53.024 0.37 7.07 236.4 10.86
4/28/2022 12:30:00 PM 11.82 53.276 0.37 7.05 237.9 10.86
4/28/2022 12:45:00 PM 12 53.6 0.37 7.06 246.6 10.89
4/28/2022 1:00:00 PM 12.19 53.942 0.37 7.07 236.3 10.92
4/28/2022 1:15:00 PM 12.39 54.302 0.37 7.08 238.4 10.93
4/28/2022 1:30:00 PM 12.54 54.572 0.37 7.08 242.4 10.92
4/28/2022 1:45:00 PM 12.72 54.896 0.37 7.09 249.5 10.94
4/28/2022 2:00:00 PM 12.88 55.184 0.37 7.11 243.2 10.92
4/28/2022 2:15:00 PM 13.02 55.436 0.37 7.14 237 10.94
4/28/2022 2:30:00 PM 13.17 55.706 0.37 7.16 230 10.93
4/28/2022 2:45:00 PM 13.27 55.886 0.37 7.15 240.1 10.96
4/28/2022 3:00:00 PM 13.39 56.102 0.37 7.18 241.4 10.93
4/28/2022 3:15:00 PM 13.47 56.246 0.37 7.2 250.2 10.92
4/28/2022 3:30:00 PM 13.55 56.39 0.37 7.2 244.2 10.92
4/28/2022 3:45:00 PM 13.62 56.516 0.37 7.2 246.7 10.9
4/28/2022 4:00:00 PM 13.63 56.534 0.371 7.22 242.3 10.89
4/28/2022 4:15:00 PM 13.69 56.642 0.37 7.2 235.3 10.89
4/28/2022 4:30:00 PM 13.66 56.588 0.369 7.19 243.7 10.87
4/28/2022 4:45:00 PM 13.66 56.588 0.37 7.16 239.7 10.85
4/28/2022 5:00:00 PM 13.6 56.48 0.37 7.16 246.1 10.8
4/28/2022 5:15:00 PM 13.55 56.39 0.37 7.19 244 10.81
4/28/2022 5:30:00 PM 13.51 56.318 0.369 7.13 239.7 10.76
4/28/2022 5:45:00 PM 13.42 56.156 0.37 7.18 240.1 10.72
4/28/2022 6:00:00 PM 13.31 55.958 0.37 7.12 253.3 10.66
4/28/2022 6:15:00 PM 13.19 55.742 0.37 7.09 241.7 10.63
4/28/2022 6:30:00 PM 13.09 55.562 0.37 7.12 242.9 10.59
4/28/2022 6:45:00 PM 12.95 55.31 0.371 7.04 238.9 10.49
4/28/2022 7:00:00 PM 12.86 55.148 0.371 7.08 238.6 10.42
4/28/2022 7:15:00 PM 12.78 55.004 0.371 7.04 244.6 10.35
4/28/2022 7:30:00 PM 12.72 54.896 0.372 7.03 252.8 10.25
4/28/2022 7:45:00 PM 12.66 54.788 0.368 7.05 243.8 10.16
4/28/2022 8:00:00 PM 12.62 54.716 0.366 7.03 249.8 10.1
4/28/2022 8:15:00 PM 12.6 54.68 0.358 7.05 237 10.01
4/28/2022 8:30:00 PM 12.57 54.626 0.358 7.06 261.6 9.98
4/28/2022 8:45:00 PM 12.56 54.608 0.377 7.09 252 9.91
4/28/2022 9:00:00 PM 12.57 54.626 0.34 7.08 247 9.88
4/28/2022 9:15:00 PM 12.59 54.662 0.349 7.11 253.1 9.82
4/28/2022 9:30:00 PM 12.59 54.662 0.358 7.12 261 9.81
4/28/2022 9:45:00 PM 12.63 54.734 0.375 7.06 245 9.82
4/28/2022 10:00:00 PM 12.65 54.77 0.377 7.11 244.2 9.82
4/28/2022 10:15:00 PM 12.69 54.842 0.376 7.15 240.7 9.83
4/28/2022 10:30:00 PM 12.72 54.896 0.339 7.12 246.9 9.82
4/28/2022 10:45:00 PM 12.74 54.932 0.34 7.15 248.6 9.84
4/28/2022 11:00:00 PM 12.77 54.986 0.348 7.18 239.9 9.87
4/28/2022 11:15:00 PM 12.77 54.986 0.369 7.21 249.5 9.85
4/28/2022 11:30:00 PM 12.79 55.022 0.319 7.24 235.9 9.86
4/28/2022 11:45:00 PM 12.79 55.022 0.376 7.25 240.9 9.85
4/29/2022 12:00:00 AM 12.83 55.094 0.378 7.24 228.9 9.86
4/29/2022 12:15:00 AM 12.84 55.112 0.351 7.27 238.6 9.89
4/29/2022 12:30:00 AM 12.85 55.13 0.368 7.25 248.5 9.91
4/29/2022 12:45:00 AM 12.86 55.148 0.336 7.28 254.9 9.93
4/29/2022 1:00:00 AM 12.88 55.184 0.332 7.29 257.1 9.93
4/29/2022 1:15:00 AM 12.86 55.148 0.331 7.31 259 9.92
4/29/2022 1:30:00 AM 12.86 55.148 0.334 7.32 249.6 9.92
4/29/2022 1:45:00 AM 12.85 55.13 0.339 7.3 311.1 9.95
4/29/2022 2:00:00 AM 12.82 55.076 0.311 7.33 259.9 9.95
4/29/2022 2:15:00 AM 12.79 55.022 0.342 7.33 240 9.94
4/29/2022 2:30:00 AM 12.75 54.95 0.344 7.35 241.2 9.94
4/29/2022 2:45:00 AM 12.71 54.878 0.333 7.36 228.2 9.98
4/29/2022 3:00:00 AM 12.66 54.788 0.314 7.36 236.8 10
4/29/2022 3:15:00 AM 12.6 54.68 0.339 7.38 257.3 9.97
4/29/2022 3:30:00 AM 12.56 54.608 0.337 7.4 248.5 9.97
4/29/2022 3:45:00 AM 12.5 54.5 0.344 7.37 251.2 9.98
4/29/2022 4:00:00 AM 12.46 54.428 0.356 7.36 254.1 9.99
4/29/2022 4:15:00 AM 12.42 54.356 0.335 7.36 263 9.99
4/29/2022 4:30:00 AM 12.34 54.212 0.343 7.37 278.1 9.98
4/29/2022 4:45:00 AM 12.28 54.104 0.371 7.32 285.5 9.99
4/29/2022 5:00:00 AM 12.21 53.978 0.34 7.38 270.4 9.96
4/29/2022 5:15:00 AM 12.14 53.852 0.379 7.34 276.1 9.96
4/29/2022 5:30:00 AM 12.08 53.744 0.325 7.32 274.6 9.96
4/29/2022 5:45:00 AM 12.02 53.636 0.379 7.32 252.1 9.95
4/29/2022 6:00:00 AM 11.95 53.51 0.379 7.3 244.5 9.94
4/29/2022 6:15:00 AM 11.87 53.366 0.379 7.31 249.9 9.94
4/29/2022 6:30:00 AM 11.8 53.24 0.379 7.29 250.5 9.93
4/29/2022 6:45:00 AM 11.74 53.132 0.38 7.33 238 9.92
4/29/2022 7:00:00 AM 11.69 53.042 0.38 7.29 240.9 9.92
4/29/2022 7:15:00 AM 11.64 52.952 0.381 7.27 235.8 9.94
4/29/2022 7:30:00 AM 11.6 52.88 0.383 7.25 232.6 9.99
4/29/2022 7:45:00 AM 11.57 52.826 0.379 7.24 236.1 10.03
4/29/2022 8:00:00 AM 11.57 52.826 0.38 7.23 225.2 10.08
4/29/2022 8:15:00 AM 11.58 52.844 0.381 7.2 246.8 10.15
4/29/2022 8:30:00 AM 11.59 52.862 0.382 7.16 255.9 10.23
4/29/2022 8:45:00 AM 11.61 52.898 0.382 7.14 231.5 10.31
4/29/2022 9:00:00 AM 11.63 52.934 0.381 7.15 229.2 10.39
4/29/2022 9:15:00 AM 11.63 52.934 0.382 7.15 234.2 10.48
4/29/2022 9:30:00 AM 11.65 52.97 0.382 7.11 226.4 10.52
4/29/2022 9:45:00 AM 11.67 53.006 0.383 7.09 223.9 10.63
4/29/2022 10:00:00 AM 11.73 53.114 0.383 7.08 220.4 10.65
4/29/2022 10:15:00 AM 11.81 53.258 0.383 7.09 216.4 10.72
4/29/2022 10:30:00 AM 11.88 53.384 0.383 7.07 225.4 10.76
4/29/2022 10:45:00 AM 11.92 53.456 0.383 7.07 224 10.78
4/29/2022 11:00:00 AM 12 53.6 0.383 7.1 227.2 10.79
4/29/2022 11:15:00 AM 12.1 53.78 0.383 7.07 230 10.83
4/29/2022 11:30:00 AM 12.2 53.96 0.383 7.08 231.5 10.86
4/29/2022 11:45:00 AM 12.32 54.176 0.383 7.08 231.6 10.87
4/29/2022 12:00:00 PM 12.46 54.428 0.382 7.09 245.3 10.89
4/29/2022 12:15:00 PM 12.58 54.644 0.382 7.1 229.3 10.9
4/29/2022 12:30:00 PM 12.73 54.914 0.384 7.08 229.2 10.91
4/29/2022 12:45:00 PM 12.89 55.202 0.384 7.09 234.1 10.92
4/29/2022 1:00:00 PM 13.04 55.472 0.383 7.1 238.9 10.92
4/29/2022 1:15:00 PM 13.2 55.76 0.384 7.11 235.6 10.96
4/29/2022 1:30:00 PM 13.35 56.03 0.384 7.15 232.6 10.94
4/29/2022 1:45:00 PM 13.5 56.3 0.384 7.11 241.1 10.98
4/29/2022 2:00:00 PM 13.62 56.516 0.384 7.13 250.3 10.98
4/29/2022 2:15:00 PM 13.76 56.768 0.384 7.12 247.4 10.98
4/29/2022 2:30:00 PM 13.89 57.002 0.384 7.14 234.7 11
4/29/2022 2:45:00 PM 13.96 57.128 0.384 7.15 233.5 10.99
4/29/2022 3:00:00 PM 14.04 57.272 0.384 7.15 234.2 10.97
4/29/2022 3:15:00 PM 14.16 57.488 0.384 7.19 232.8 10.96
4/29/2022 3:30:00 PM 14.18 57.524 0.384 7.24 242.2 10.96
4/29/2022 3:45:00 PM 14.27 57.686 0.384 7.18 238.6 10.95
4/29/2022 4:00:00 PM 14.29 57.722 0.384 7.18 240.3 10.94
4/29/2022 4:15:00 PM 14.27 57.686 0.384 7.16 246.2 10.93
4/29/2022 4:30:00 PM 14.31 57.758 0.384 7.15 244.3 10.91
4/29/2022 4:45:00 PM 14.26 57.668 0.384 7.12 251.3 10.91
4/29/2022 5:00:00 PM 14.21 57.578 0.383 7.09 238.5 10.87
4/29/2022 5:15:00 PM 14.12 57.416 0.384 7.08 246.6 10.85
4/29/2022 5:30:00 PM 14.05 57.29 0.384 7.02 261.4 10.77
4/29/2022 5:45:00 PM 13.94 57.092 0.384 7.04 247 10.71
4/29/2022 6:00:00 PM 13.84 56.912 0.384 7.06 248.9 10.65
4/29/2022 6:15:00 PM 13.72 56.696 0.384 7.03 240.8 10.58
4/29/2022 6:30:00 PM 13.59 56.462 0.384 7.05 247.1 10.51
4/29/2022 6:45:00 PM 13.45 56.21 0.384 7.03 247.7 10.42
4/29/2022 7:00:00 PM 13.33 55.994 0.383 7.02 253.5 10.34
4/29/2022 7:15:00 PM 13.25 55.85 0.384 7.04 246.6 10.26
4/29/2022 7:30:00 PM 13.17 55.706 0.385 7.02 252.9 10.15
4/29/2022 7:45:00 PM 13.11 55.598 0.385 7.01 247.8 10.06
4/29/2022 8:00:00 PM 13.08 55.544 0.385 7.02 249.6 9.96
4/29/2022 8:15:00 PM 13.05 55.49 0.385 7.06 240.8 9.89
4/29/2022 8:30:00 PM 13.03 55.454 0.385 7.04 246.5 9.84
4/29/2022 8:45:00 PM 13.04 55.472 0.346 7.04 247.5 9.78
4/29/2022 9:00:00 PM 13.04 55.472 0.381 7.1 252.4 9.72
4/29/2022 9:15:00 PM 13.06 55.508 0.318 7.11 247.4 9.69
4/29/2022 9:30:00 PM 13.06 55.508 0.329 7.14 251.5 9.67
4/29/2022 9:45:00 PM 13.1 55.58 0.347 7.17 244.8 9.68
4/29/2022 10:00:00 PM 13.13 55.634 0.339 7.19 242.5 9.66
4/29/2022 10:15:00 PM 13.19 55.742 0.329 7.23 239.9 9.67
4/29/2022 10:30:00 PM 13.24 55.832 0.381 7.27 236 9.68
4/29/2022 10:45:00 PM 13.26 55.868 0.384 7.3 236.1 9.67
4/29/2022 11:00:00 PM 13.32 55.976 0.384 7.34 232.9 9.7
4/29/2022 11:15:00 PM 13.36 56.048 0.384 7.36 248.7 9.69
4/29/2022 11:30:00 PM 13.4 56.12 0.384 7.38 246.1 9.69
4/29/2022 11:45:00 PM 13.42 56.156 0.384 7.39 251.5 9.69
4/30/2022 12:00:00 AM 13.46 56.228 0.385 7.43 236.4 9.67
4/30/2022 12:15:00 AM 13.52 56.336 0.385 7.43 245.2 9.69
4/30/2022 12:30:00 AM 13.55 56.39 0.386 7.41 250.8 9.66
4/30/2022 12:45:00 AM 13.62 56.516 0.385 7.45 246.9 9.72
4/30/2022 1:00:00 AM 13.67 56.606 0.385 7.43 253.8 9.71
4/30/2022 1:15:00 AM 13.71 56.678 0.385 7.45 256.3 9.71
4/30/2022 1:30:00 AM 13.73 56.714 0.385 7.49 256.5 9.71
4/30/2022 1:45:00 AM 13.78 56.804 0.385 7.51 248.4 9.74
4/30/2022 2:00:00 AM 13.78 56.804 0.384 7.51 254.6 9.74
4/30/2022 2:15:00 AM 13.78 56.804 0.384 7.56 257.4 9.72
4/30/2022 2:30:00 AM 13.77 56.786 0.384 7.58 253.4 9.74
4/30/2022 2:45:00 AM 13.77 56.786 0.384 7.62 253.5 9.73
4/30/2022 3:00:00 AM 13.74 56.732 0.383 7.62 256.8 9.73
4/30/2022 3:15:00 AM 13.72 56.696 0.383 7.65 259.5 9.74
4/30/2022 3:30:00 AM 13.68 56.624 0.384 7.67 254.1 9.7
4/30/2022 3:45:00 AM 13.65 56.57 0.383 7.71 252.2 9.73
4/30/2022 4:00:00 AM 13.6 56.48 0.383 7.73 246.7 9.71
4/30/2022 4:15:00 AM 13.57 56.426 0.384 7.76 254.8 9.72
4/30/2022 4:30:00 AM 13.51 56.318 0.384 7.73 262.4 9.69
4/30/2022 4:45:00 AM 13.46 56.228 0.356 7.75 256.5 9.69
4/30/2022 5:00:00 AM 13.42 56.156 0.345 7.76 259.6 9.7
4/30/2022 5:15:00 AM 13.35 56.03 0.335 7.76 257.7 9.66
4/30/2022 5:30:00 AM 13.3 55.94 0.336 7.77 259 9.63
4/30/2022 5:45:00 AM 13.24 55.832 0.337 7.77 270.2 9.64
4/30/2022 6:00:00 AM 13.19 55.742 0.385 7.77 274.4 9.64
4/30/2022 6:15:00 AM 13.15 55.67 0.385 7.82 265.8 9.61
4/30/2022 6:30:00 AM 13.09 55.562 0.385 7.81 273.4 9.61
4/30/2022 6:45:00 AM 13.03 55.454 0.385 7.81 271.4 9.6
4/30/2022 7:00:00 AM 12.98 55.364 0.386 7.78 265.2 9.61
4/30/2022 7:15:00 AM 12.94 55.292 0.386 7.77 263.8 9.64
4/30/2022 7:30:00 AM 12.92 55.256 0.386 7.76 267.9 9.66
4/30/2022 7:45:00 AM 12.89 55.202 0.387 7.72 262.7 9.71
4/30/2022 8:00:00 AM 12.9 55.22 0.387 7.68 266.9 9.75
4/30/2022 8:15:00 AM 12.9 55.22 0.318 7.65 264.3 9.81
4/30/2022 8:30:00 AM 12.91 55.238 0.394 7.59 279.3 9.87
4/30/2022 8:45:00 AM 12.94 55.292 0.4 7.54 262.7 9.94
4/30/2022 9:00:00 AM 12.98 55.364 0.392 7.47 267.6 10
4/30/2022 9:15:00 AM 13.02 55.436 0.366 7.41 261.5 10.07
4/30/2022 9:30:00 AM 13.06 55.508 0.363 7.35 264.2 10.12
4/30/2022 9:45:00 AM 13.11 55.598 0.357 7.27 266.7 10.19
4/30/2022 10:00:00 AM 13.17 55.706 0.356 7.23 261.3 10.26
4/30/2022 10:15:00 AM 13.24 55.832 0.379 7.21 267.2 10.3
4/30/2022 10:30:00 AM 13.31 55.958 0.382 7.15 268.6 10.35
4/30/2022 10:45:00 AM 13.4 56.12 0.342 7.11 265.7 10.4
4/30/2022 11:00:00 AM 13.48 56.264 0.337 7.1 265.5 10.44
4/30/2022 11:15:00 AM 13.57 56.426 0.371 7.1 262.5 10.49
4/30/2022 11:30:00 AM 13.7 56.66 0.37 7.08 252.7 10.54
4/30/2022 11:45:00 AM 13.82 56.876 0.391 7.1 261.5 10.54
4/30/2022 12:00:00 PM 13.96 57.128 0.391 7.08 259.8 10.58
4/30/2022 12:15:00 PM 14.13 57.434 0.392 7.11 274.5 10.61
4/30/2022 12:30:00 PM 14.25 57.65 0.392 7.14 258.9 10.63
4/30/2022 12:45:00 PM 14.4 57.92 0.349 7.14 266 10.64
4/30/2022 1:00:00 PM 14.58 58.244 0.353 7.12 266.5 10.69
4/30/2022 1:15:00 PM 14.72 58.496 0.356 7.15 256.6 10.7
4/30/2022 1:30:00 PM 14.85 58.73 0.38 7.13 269.1 10.7
4/30/2022 1:45:00 PM 14.98 58.964 0.367 7.13 269.9 10.69
4/30/2022 2:00:00 PM 15.07 59.126 0.355 7.14 265.6 10.71
4/30/2022 2:15:00 PM 15.23 59.414 0.354 7.16 270.5 10.72
4/30/2022 2:30:00 PM 15.29 59.522 0.355 7.14 267.1 10.75
4/30/2022 2:45:00 PM 15.35 59.63 0.354 7.14 270.9 10.74
4/30/2022 3:00:00 PM 15.38 59.684 0.363 7.18 270.8 10.71
4/30/2022 3:15:00 PM 15.39 59.702 0.369 7.17 264.3 10.72
4/30/2022 3:30:00 PM 15.36 59.648 0.356 7.15 270.3 10.72
4/30/2022 3:45:00 PM 15.36 59.648 0.389 7.15 268.7 10.7
4/30/2022 4:00:00 PM 15.41 59.738 0.386 7.11 273.9 10.67
4/30/2022 4:15:00 PM 15.35 59.63 0.387 7.05 281 10.66
4/30/2022 4:30:00 PM 15.32 59.576 0.375 7.03 272.6 10.62
4/30/2022 4:45:00 PM 15.31 59.558 0.375 6.97 270.3 10.61
4/30/2022 5:00:00 PM 15.2 59.36 0.366 6.93 279 10.55
4/30/2022 5:15:00 PM 15.09 59.162 0.391 6.92 272.9 10.49
4/30/2022 5:30:00 PM 14.97 58.946 0.353 6.81 273.1 10.44
4/30/2022 5:45:00 PM 14.83 58.694 0.363 6.81 271.2 10.36
4/30/2022 6:00:00 PM 14.69 58.442 0.38 6.86 276.3 10.32
4/30/2022 6:15:00 PM 14.58 58.244 0.387 6.83 279 10.25
4/30/2022 6:30:00 PM 14.48 58.064 0.392 6.81 299.1 10.17
4/30/2022 6:45:00 PM 14.4 57.92 0.395 6.79 285.1 10.09
4/30/2022 7:00:00 PM 14.34 57.812 0.391 6.8 285.3 10.01
4/30/2022 7:15:00 PM 14.28 57.704 0.39 6.85 275.5 9.93
4/30/2022 7:30:00 PM 14.21 57.578 0.37 6.84 273.8 9.83
4/30/2022 7:45:00 PM 14.16 57.488 0.368 6.87 273.1 9.74
4/30/2022 8:00:00 PM 14.11 57.398 0.39 6.9 285.9 9.62
4/30/2022 8:15:00 PM 14.07 57.326 0.395 6.93 276.4 9.54
4/30/2022 8:30:00 PM 14.04 57.272 0.393 6.96 277.7 9.45
4/30/2022 8:45:00 PM 14.02 57.236 0.397 7 281.2 9.38
4/30/2022 9:00:00 PM 14.01 57.218 0.396 7.02 287 9.31
4/30/2022 9:15:00 PM 14.02 57.236 0.392 7.05 291.9 9.3
4/30/2022 9:30:00 PM 14.04 57.272 0.397 7.11 281.6 9.28
4/30/2022 9:45:00 PM 14.06 57.308 0.395 7.17 291 9.26
4/30/2022 10:00:00 PM 14.11 57.398 0.396 7.25 296.9 9.28
4/30/2022 10:15:00 PM 14.15 57.47 0.396 7.28 297.1 9.29
4/30/2022 10:30:00 PM 14.18 57.524 0.396 7.32 301.8 9.28
4/30/2022 10:45:00 PM 14.24 57.632 0.39 7.36 298.4 9.32
4/30/2022 11:00:00 PM 14.28 57.704 0.391 7.4 292.2 9.29
4/30/2022 11:15:00 PM 14.33 57.794 0.397 7.45 293.3 9.32
4/30/2022 11:30:00 PM 14.38 57.884 0.395 7.47 295.7 9.32
4/30/2022 11:45:00 PM 14.41 57.938 0.394 7.51 296.4 9.33
5/1/2022 12:00:00 AM 14.47 58.046 0.394 7.55 297.8 9.37
5/1/2022 12:15:00 AM 14.49 58.082 0.394 7.61 300.4 9.35
5/1/2022 12:30:00 AM 14.53 58.154 0.395 7.63 285.9 9.37
5/1/2022 12:45:00 AM 14.56 58.208 0.395 7.67 282.2 9.39
5/1/2022 1:00:00 AM 14.61 58.298 0.394 7.7 287.1 9.38
5/1/2022 1:15:00 AM 14.65 58.37 0.392 7.73 285.4 9.39
5/1/2022 1:30:00 AM 14.69 58.442 0.393 7.77 290.2 9.39
5/1/2022 1:45:00 AM 14.69 58.442 0.393 7.82 294.6 9.4
5/1/2022 2:00:00 AM 14.71 58.478 0.385 7.85 313.8 9.39
5/1/2022 2:15:00 AM 14.73 58.514 0.393 7.86 298.8 9.41
5/1/2022 2:30:00 AM 14.74 58.532 0.38 7.88 298.9 9.41
5/1/2022 2:45:00 AM 14.73 58.514 0.393 7.91 307.7 9.42
5/1/2022 3:00:00 AM 14.72 58.496 0.392 7.95 306.2 9.43
5/1/2022 3:15:00 AM 14.71 58.478 0.376 7.97 303.9 9.41
5/1/2022 3:30:00 AM 14.7 58.46 0.392 8 300.8 9.39
5/1/2022 3:45:00 AM 14.69 58.442 0.392 8.01 303.5 9.41
5/1/2022 4:00:00 AM 14.66 58.388 0.392 8.03 313.6 9.41
5/1/2022 4:15:00 AM 14.63 58.334 0.392 8.06 304.5 9.39
5/1/2022 4:30:00 AM 14.59 58.262 0.353 8.07 311.2 9.37
5/1/2022 4:45:00 AM 14.58 58.244 0.347 8.08 311 9.4
5/1/2022 5:00:00 AM 14.55 58.19 0.389 8.09 312 9.39
5/1/2022 5:15:00 AM 14.52 58.136 0.362 8.08 325.6 9.36
5/1/2022 5:30:00 AM 14.5 58.1 0.36 8.09 323.1 9.34
5/1/2022 5:45:00 AM 14.5 58.1 0.385 8.08 325.3 9.34
5/1/2022 6:00:00 AM 14.45 58.01 0.333 8.08 318.2 9.31
5/1/2022 6:15:00 AM 14.44 57.992 0.352 8.07 323.1 9.31
5/1/2022 6:30:00 AM 14.41 57.938 0.352 8.05 323.6 9.24
5/1/2022 6:45:00 AM 14.4 57.92 0.355 8.04 314.3 9.27
5/1/2022 7:00:00 AM 14.39 57.902 0.36 8.02 319.9 9.31
5/1/2022 7:15:00 AM 14.4 57.92 0.361 8 331.8 9.34
5/1/2022 7:30:00 AM 14.4 57.92 0.363 7.97 323.7 9.38
5/1/2022 7:45:00 AM 14.41 57.938 0.366 7.94 320.3 9.42
5/1/2022 8:00:00 AM 14.45 58.01 0.371 7.87 342.7 9.52
5/1/2022 8:15:00 AM 14.46 58.028 0.37 7.78 334.6 9.62
5/1/2022 8:30:00 AM 14.47 58.046 0.379 7.73 349.7 9.69
5/1/2022 8:45:00 AM 14.47 58.046 0.386 7.68 336.2 9.76
5/1/2022 9:00:00 AM 14.49 58.082 0.382 7.62 342.4 9.85
5/1/2022 9:15:00 AM 14.52 58.136 0.376 7.56 341.2 9.94
5/1/2022 9:30:00 AM 14.5 58.1 0.383 7.49 380.5 9.97
5/1/2022 9:45:00 AM 14.48 58.064 0.381 7.39 327.4 10.01
5/1/2022 10:00:00 AM 14.48 58.064 0.379 7.33 333.1 10.08
5/1/2022 10:15:00 AM 14.49 58.082 0.379 7.31 338.8 10.12
5/1/2022 10:30:00 AM 14.55 58.19 0.379 7.26 349.8 10.19
5/1/2022 10:45:00 AM 14.59 58.262 0.389 7.21 340.8 10.21
5/1/2022 11:00:00 AM 14.61 58.298 0.383 7.18 348.6 10.24
5/1/2022 11:15:00 AM 14.66 58.388 0.386 7.14 341.2 10.29
5/1/2022 11:30:00 AM 14.76 58.568 0.391 7.04 338.1 10.34
5/1/2022 11:45:00 AM 14.81 58.658 0.399 6.96 343.4 10.36
5/1/2022 12:00:00 PM 14.74 58.532 0.399 6.92 347.3 10.32
5/1/2022 12:15:00 PM 14.65 58.37 0.4 6.86 336.6 10.2
5/1/2022 12:30:00 PM 14.55 58.19 0.398 6.88 347.2 10.08
5/1/2022 12:45:00 PM 14.48 58.064 0.399 6.83 337.6 9.98
5/1/2022 1:00:00 PM 14.38 57.884 0.401 6.8 345.3 9.86
5/1/2022 1:15:00 PM 14.32 57.776 0.401 6.87 348.1 9.76
5/1/2022 1:30:00 PM 14.24 57.632 0.401 6.77 353.3 9.7
5/1/2022 1:45:00 PM 14.19 57.542 0.4 6.8 347 9.66
5/1/2022 2:00:00 PM 14.13 57.434 0.4 6.75 360.1 9.61
5/1/2022 2:15:00 PM 14.09 57.362 0.399 6.71 347.1 9.53
5/1/2022 2:30:00 PM 14.04 57.272 0.396 6.72 343.9 9.51
5/1/2022 2:45:00 PM 14 57.2 0.399 6.71 358.4 9.44
5/1/2022 3:00:00 PM 13.96 57.128 0.395 6.66 351.8 9.37
5/1/2022 3:15:00 PM 13.9 57.02 0.387 6.69 353.6 9.31
5/1/2022 3:30:00 PM 13.86 56.948 0.393 6.67 361.2 9.22
5/1/2022 3:45:00 PM 13.82 56.876 0.371 6.69 353.9 9.21
5/1/2022 4:00:00 PM 13.78 56.804 0.377 6.64 359.1 9.17
5/1/2022 4:15:00 PM 13.77 56.786 0.377 6.61 361.9 9.23
5/1/2022 4:30:00 PM 13.75 56.75 0.383 6.58 367.5 9.25
5/1/2022 4:45:00 PM 13.72 56.696 0.379 6.6 354.2 9.24
5/1/2022 5:00:00 PM 13.7 56.66 0.378 6.62 360.3 9.23
5/1/2022 5:15:00 PM 13.68 56.624 0.384 6.66 354.2 9.25
5/1/2022 5:30:00 PM 13.68 56.624 0.389 6.64 354.1 9.29
5/1/2022 5:45:00 PM 13.67 56.606 0.393 6.66 360.8 9.25
5/1/2022 6:00:00 PM 13.65 56.57 0.396 6.67 353.2 9.24
5/1/2022 6:15:00 PM 13.63 56.534 0.401 6.68 351.6 9.23
5/1/2022 6:30:00 PM 13.62 56.516 0.403 6.67 356.2 9.25
5/1/2022 6:45:00 PM 13.61 56.498 0.399 6.7 355.4 9.21
5/1/2022 7:00:00 PM 13.6 56.48 0.403 6.73 362 9.21
5/1/2022 7:15:00 PM 13.59 56.462 0.402 6.74 361.7 9.2
5/1/2022 7:30:00 PM 13.59 56.462 0.401 6.77 365.8 9.18
5/1/2022 7:45:00 PM 13.59 56.462 0.402 6.79 369.2 9.18
5/1/2022 8:00:00 PM 13.58 56.444 0.4 6.73 375.9 9.16
5/1/2022 8:15:00 PM 13.58 56.444 0.392 6.74 366.1 9.11
5/1/2022 8:30:00 PM 13.59 56.462 0.371 6.75 363.5 9.13
5/1/2022 8:45:00 PM 13.59 56.462 0.364 6.8 373.9 9.12
5/1/2022 9:00:00 PM 13.6 56.48 0.403 6.81 374 9.13
5/1/2022 9:15:00 PM 13.61 56.498 0.391 6.89 374.6 9.12
5/1/2022 9:30:00 PM 13.63 56.534 0.392 6.9 375.1 9.14
5/1/2022 9:45:00 PM 13.64 56.552 0.385 6.92 380.4 9.15
5/1/2022 10:00:00 PM 13.66 56.588 0.396 6.92 378.6 9.18
5/1/2022 10:15:00 PM 13.68 56.624 0.403 6.92 366.8 9.16
5/1/2022 10:30:00 PM 13.68 56.624 0.401 6.94 375.7 9.16
5/1/2022 10:45:00 PM 13.67 56.606 0.402 6.97 382 9.17
5/1/2022 11:00:00 PM 13.66 56.588 0.401 6.98 377.3 9.19
5/1/2022 11:15:00 PM 13.65 56.57 0.353 6.96 385.4 9.19
5/1/2022 11:30:00 PM 13.65 56.57 0.388 7 397 9.22
5/1/2022 11:45:00 PM 13.65 56.57 0.387 7.01 397.4 9.22
5/2/2022 12:00:00 AM 13.65 56.57 0.39 7.03 409 9.18
5/2/2022 12:15:00 AM 13.66 56.588 0.362 7.02 392.8 9.23
5/2/2022 12:30:00 AM 13.67 56.606 0.392 7.02 396.7 9.24
5/2/2022 12:45:00 AM 13.68 56.624 0.391 7.04 389.1 9.22
5/2/2022 1:00:00 AM 13.69 56.642 0.394 7.04 398.7 9.23
5/2/2022 1:15:00 AM 13.7 56.66 0.364 7.02 394.8 9.23
5/2/2022 1:30:00 AM 13.7 56.66 0.394 7.03 400.5 9.24
5/2/2022 1:45:00 AM 13.7 56.66 0.39 7.05 397.9 9.23
5/2/2022 2:00:00 AM 13.69 56.642 0.396 7.03 405.8 9.18
5/2/2022 2:15:00 AM 13.69 56.642 0.393 7.05 408.6 9.19
5/2/2022 2:30:00 AM 13.69 56.642 0.399 7.04 398.9 9.2
5/2/2022 2:45:00 AM 13.68 56.624 0.397 7.03 396.7 9.18
5/2/2022 3:00:00 AM 13.68 56.624 0.397 7.03 393.9 9.18
5/2/2022 3:15:00 AM 13.69 56.642 0.388 7.03 391.8 9.18
5/2/2022 3:30:00 AM 13.69 56.642 0.325 7.04 404.8 9.17
5/2/2022 3:45:00 AM 13.69 56.642 0.393 7.01 399.5 9.13
5/2/2022 4:00:00 AM 13.69 56.642 0.383 7.03 403.9 9.14
5/2/2022 4:15:00 AM 13.68 56.624 0.392 7.01 408.1 9.11
5/2/2022 4:30:00 AM 13.68 56.624 0.387 7.01 417.2 9.08
5/2/2022 4:45:00 AM 13.67 56.606 0.397 7 421.7 9.06
5/2/2022 5:00:00 AM 13.66 56.588 0.396 7.01 417.5 9.08
5/2/2022 5:15:00 AM 13.65 56.57 0.397 6.98 413.3 9.08
5/2/2022 5:30:00 AM 13.64 56.552 0.395 7 418.4 9.04
5/2/2022 5:45:00 AM 13.63 56.534 0.398 7 413.2 9.04
5/2/2022 6:00:00 AM 13.62 56.516 0.399 6.98 420.3 9.02
5/2/2022 6:15:00 AM 13.6 56.48 0.398 6.98 422.3 8.99
5/2/2022 6:30:00 AM 13.59 56.462 0.398 6.96 420.6 8.96
5/2/2022 6:45:00 AM 13.58 56.444 0.396 6.96 423.9 8.96
5/2/2022 7:00:00 AM 13.58 56.444 0.395 6.95 416.9 8.95
5/2/2022 7:15:00 AM 13.57 56.426 0.397 6.95 425 8.98
5/2/2022 7:30:00 AM 13.57 56.426 0.398 6.93 426.1 8.95
5/2/2022 7:45:00 AM 13.57 56.426 0.382 6.94 432.1 9.01
5/2/2022 8:00:00 AM 13.58 56.444 0.398 6.95 433.9 9.09
5/2/2022 8:15:00 AM 13.6 56.48 0.398 6.88 427.3 9.17
5/2/2022 8:30:00 AM 13.63 56.534 0.398 6.87 422.6 9.24
5/2/2022 8:45:00 AM 13.66 56.588 0.398 6.88 421.6 9.31
5/2/2022 9:00:00 AM 13.69 56.642 0.399 6.89 426.7 9.44
5/2/2022 9:15:00 AM 13.74 56.732 0.398 6.85 437.6 9.54
5/2/2022 9:30:00 AM 13.79 56.822 0.399 6.9 443.4 9.63
5/2/2022 9:45:00 AM 13.85 56.93 0.4 6.91 434.3 9.7
5/2/2022 10:00:00 AM 13.91 57.038 0.399 6.93 435.5 9.79
5/2/2022 10:15:00 AM 13.98 57.164 0.389 6.91 434.2 9.87
5/2/2022 10:30:00 AM 14.03 57.254 0.399 6.92 436.2 9.91
5/2/2022 10:45:00 AM 14.13 57.434 0.39 6.94 436.2 9.98
5/2/2022 11:00:00 AM 14.25 57.65 0.39 6.97 437.2 10.04
5/2/2022 11:15:00 AM 14.32 57.776 0.399 6.94 435.9 10.04
5/2/2022 11:30:00 AM 14.44 57.992 0.399 6.96 430.1 10.08
5/2/2022 11:45:00 AM 14.61 58.298 0.399 6.95 436.4 10.09
5/2/2022 12:00:00 PM 14.64 58.352 0.392 6.95 429.9 10.12
5/2/2022 12:15:00 PM 14.53 58.154 0.395 6.95 453.2 10.04
5/2/2022 12:30:00 PM 14.51 58.118 0.4 6.97 440.1 9.97
5/2/2022 12:45:00 PM 14.62 58.316 0.389 6.95 438.9 9.98
5/2/2022 1:00:00 PM 14.63 58.334 0.396 6.95 443.6 9.97
5/2/2022 1:15:00 PM 14.63 58.334 0.401 6.93 443 9.91
5/2/2022 1:30:00 PM 14.73 58.514 0.4 6.93 447.4 9.94
5/2/2022 1:45:00 PM 15.02 59.036 0.398 6.93 452.1 10.02
5/2/2022 2:00:00 PM 15.29 59.522 0.402 6.97 446.9 10.08
5/2/2022 2:15:00 PM 15.49 59.882 0.402 6.95 503.5 10.13
5/2/2022 2:30:00 PM 15.61 60.098 0.402 6.99 448.2 10.15
5/2/2022 2:45:00 PM 15.85 60.53 0.402 7.03 592.8 10.17
5/2/2022 3:00:00 PM 16.08 60.944 0.403 7.07 450.3 10.24
5/2/2022 3:15:00 PM 16.02 60.836 0.403 7.07 445.6 10.13
5/2/2022 3:30:00 PM 16.02 60.836 0.403 7.13 449.3 10.1
5/2/2022 3:45:00 PM 16.09 60.962 0.398 7.11 447.4 10.1
5/2/2022 4:00:00 PM 16.25 61.25 0.403 7.11 444.5 10.12
5/2/2022 4:15:00 PM 16.37 61.466 0.403 7.13 448 10.13
5/2/2022 4:30:00 PM 16.43 61.574 0.403 7.12 445.1 10.12
5/2/2022 4:45:00 PM 16.5 61.7 0.403 7.16 439.5 10.11
5/2/2022 5:00:00 PM 16.51 61.718 0.402 7.14 450.4 10.09
5/2/2022 5:15:00 PM 16.48 61.664 0.402 7.12 441.8 10.04
5/2/2022 5:30:00 PM 16.43 61.574 0.401 7.11 446.1 10.01
5/2/2022 5:45:00 PM 16.31 61.358 0.4 7.1 442.7 9.93
5/2/2022 6:00:00 PM 16.25 61.25 0.402 7.07 435.6 9.91
5/2/2022 6:15:00 PM 16.12 61.016 0.397 6.99 440.1 9.82
5/2/2022 6:30:00 PM 15.97 60.746 0.389 6.98 438.7 9.77
5/2/2022 6:45:00 PM 15.85 60.53 0.4 6.98 436.7 9.68
5/2/2022 7:00:00 PM 15.74 60.332 0.398 6.95 436.1 9.57
5/2/2022 7:15:00 PM 15.64 60.152 0.4 6.95 444.7 9.45
5/2/2022 7:30:00 PM 15.57 60.026 0.401 6.94 457.3 9.37
5/2/2022 7:45:00 PM 15.5 59.9 0.401 6.93 479 9.25
5/2/2022 8:00:00 PM 15.45 59.81 0.399 6.93 458.2 9.19
5/2/2022 8:15:00 PM 15.42 59.756 0.399 6.94 455.9 9.11
5/2/2022 8:30:00 PM 15.41 59.738 0.396 6.93 453.3 9.06
5/2/2022 8:45:00 PM 15.4 59.72 0.397 6.95 451.6 9.01
5/2/2022 9:00:00 PM 15.41 59.738 0.334 6.95 480.2 8.97
5/2/2022 9:15:00 PM 15.42 59.756 0.338 6.99 468 8.94
5/2/2022 9:30:00 PM 15.44 59.792 0.398 7 468 8.93
5/2/2022 9:45:00 PM 15.46 59.828 0.398 7.03 473.1 8.94
5/2/2022 10:00:00 PM 15.48 59.864 0.371 7.11 504.4 8.94
5/2/2022 10:15:00 PM 15.5 59.9 0.379 7.13 462.9 8.97
5/2/2022 10:30:00 PM 15.53 59.954 0.399 7.15 468.3 8.95
5/2/2022 10:45:00 PM 15.57 60.026 0.398 7.24 446.4 9.01
5/2/2022 11:00:00 PM 15.59 60.062 0.399 7.24 445.4 8.98
5/2/2022 11:15:00 PM 15.64 60.152 0.398 7.27 467 9.04
5/2/2022 11:30:00 PM 15.67 60.206 0.397 7.27 456.3 9.02
5/2/2022 11:45:00 PM 15.72 60.296 0.346 7.28 447.7 9.04
5/3/2022 12:00:00 AM 15.76 60.368 0.345 7.3 448.5 9.05
5/3/2022 12:15:00 AM 15.81 60.458 0.396 7.33 462.2 9.04
5/3/2022 12:30:00 AM 15.86 60.548 0.398 7.33 465.1 9.05
5/3/2022 12:45:00 AM 15.92 60.656 0.399 7.36 459.4 9.05
5/3/2022 1:00:00 AM 15.94 60.692 0.399 7.37 470.3 9.07
5/3/2022 1:15:00 AM 15.98 60.764 0.398 7.4 477.6 9.07
5/3/2022 1:30:00 AM 15.98 60.764 0.398 7.41 475 9.04
5/3/2022 1:45:00 AM 16.01 60.818 0.399 7.43 481.9 9.07
5/3/2022 2:00:00 AM 16.02 60.836 0.399 7.41 479.8 9.06
5/3/2022 2:15:00 AM 16.05 60.89 0.398 7.4 482.3 9.1
5/3/2022 2:30:00 AM 16.05 60.89 0.398 7.41 467.9 9.07
5/3/2022 2:45:00 AM 16.05 60.89 0.384 7.43 461.9 9.06
5/3/2022 3:00:00 AM 16.03 60.854 0.331 7.44 468.3 9.08
5/3/2022 3:15:00 AM 16.01 60.818 0.326 7.43 466.1 9.05
5/3/2022 3:30:00 AM 15.98 60.764 0.326 7.45 465.1 9.04
5/3/2022 3:45:00 AM 15.95 60.71 0.35 7.44 468.5 9.05
5/3/2022 4:00:00 AM 15.91 60.638 0.339 7.44 480.3 9.02
5/3/2022 4:15:00 AM 15.87 60.566 0.31 7.44 474.2 9.04
5/3/2022 4:30:00 AM 15.84 60.512 0.339 7.46 459.8 9.01
5/3/2022 4:45:00 AM 15.8 60.44 0.392 7.45 469.5 9
5/3/2022 5:00:00 AM 15.76 60.368 0.388 7.45 495.1 8.98
5/3/2022 5:15:00 AM 15.72 60.296 0.388 7.42 475.9 8.96
5/3/2022 5:30:00 AM 15.68 60.224 0.389 7.41 502.7 8.95
5/3/2022 5:45:00 AM 15.68 60.224 0.385 7.41 484.9 8.96
5/3/2022 6:00:00 AM 15.66 60.188 0.357 7.4 482.6 8.93
5/3/2022 6:15:00 AM 15.65 60.17 0.358 7.38 530 8.92
5/3/2022 6:30:00 AM 15.64 60.152 0.346 7.36 520.7 8.89
5/3/2022 6:45:00 AM 15.63 60.134 0.349 7.35 514.6 8.87
5/3/2022 7:00:00 AM 15.62 60.116 0.351 7.34 524 8.83
5/3/2022 7:15:00 AM 15.62 60.116 0.354 7.31 538.4 8.86
5/3/2022 7:30:00 AM 15.61 60.098 0.35 7.3 507.9 8.86
5/3/2022 7:45:00 AM 15.59 60.062 0.358 7.29 525 8.87
5/3/2022 8:00:00 AM 15.58 60.044 0.353 7.27 518.7 8.84
5/3/2022 8:15:00 AM 15.57 60.026 0.362 7.25 529.7 8.87
5/3/2022 8:30:00 AM 15.55 59.99 0.362 7.25 529.3 8.86
5/3/2022 8:45:00 AM 15.55 59.99 0.363 7.23 525.1 8.89
5/3/2022 9:00:00 AM 15.54 59.972 0.365 7.22 534.4 8.93
5/3/2022 9:15:00 AM 15.52 59.936 0.363 7.23 514.6 8.96
5/3/2022 9:30:00 AM 15.51 59.918 0.365 7.2 507.7 8.99
5/3/2022 9:45:00 AM 15.5 59.9 0.36 7.2 515.7 9.01
5/3/2022 10:00:00 AM 15.48 59.864 0.363 7.2 504.9 9.05
5/3/2022 10:15:00 AM 15.46 59.828 0.357 7.18 500.5 9.09
5/3/2022 10:30:00 AM 15.44 59.792 0.356 7.19 496.6 9.11
5/3/2022 10:45:00 AM 15.43 59.774 0.356 7.18 507.8 9.15
5/3/2022 11:00:00 AM 15.44 59.792 0.356 7.17 520.8 9.2
5/3/2022 11:15:00 AM 15.45 59.81 0.355 7.17 542.4 9.25
5/3/2022 11:30:00 AM 15.46 59.828 0.355 7.18 582 9.33
5/3/2022 11:45:00 AM 15.45 59.81 0.347 7.15 649.1 9.34
5/3/2022 12:00:00 PM 15.44 59.792 0.346 7.17 585.6 9.37
5/3/2022 12:15:00 PM 15.45 59.81 0.34 7.16 567.1 9.44
5/3/2022 12:30:00 PM 15.46 59.828 0.336 7.16 574 9.47
5/3/2022 12:45:00 PM 15.44 59.792 0.338 7.14 589.8 9.48
5/3/2022 1:00:00 PM 15.43 59.774 0.336 7.16 580.8 9.49
5/3/2022 1:15:00 PM 15.43 59.774 0.339 7.15 593.5 9.49
5/3/2022 1:30:00 PM 15.42 59.756 0.338 7.14 491.5 9.48
5/3/2022 1:45:00 PM 15.43 59.774 0.341 7.14 461.5 9.51
5/3/2022 2:00:00 PM 15.42 59.756 0.344 7.13 457.5 9.48
5/3/2022 2:15:00 PM 15.4 59.72 0.333 7.13 461.9 9.49
5/3/2022 2:30:00 PM 15.4 59.72 0.347 7.13 442.2 9.47
5/3/2022 2:45:00 PM 15.4 59.72 0.346 7.12 476.6 9.48
5/3/2022 3:00:00 PM 15.38 59.684 0.345 7.12 445.4 9.47
5/3/2022 3:15:00 PM 15.4 59.72 0.348 7.11 442.8 9.51
5/3/2022 3:30:00 PM 15.48 59.864 0.354 7.09 483 9.49
5/3/2022 3:45:00 PM 15.53 59.954 0.353 7.09 465.4 9.55
5/3/2022 4:00:00 PM 15.62 60.116 0.353 7.1 468.1 9.6
5/3/2022 4:15:00 PM 15.77 60.386 0.354 7.11 477 9.68
5/3/2022 4:30:00 PM 15.83 60.494 0.369 7.11 475.9 9.71
5/3/2022 4:45:00 PM 15.94 60.692 0.373 7.12 483.2 9.76
5/3/2022 5:00:00 PM 16.04 60.872 0.37 7.13 485.4 9.75
5/3/2022 5:15:00 PM 16.06 60.908 0.37 7.12 479.4 9.77
5/3/2022 5:30:00 PM 16.02 60.836 0.373 7.1 472.1 9.72
5/3/2022 5:45:00 PM 16.04 60.872 0.37 7.1 471.6 9.71
5/3/2022 6:00:00 PM 15.95 60.71 0.371 7.06 472 9.57
5/3/2022 6:15:00 PM 15.89 60.602 0.374 7.08 465.1 9.53
5/3/2022 6:30:00 PM 15.87 60.566 0.37 7.07 480.3 9.45
5/3/2022 6:45:00 PM 15.8 60.44 0.37 7.06 480.9 9.35
5/3/2022 7:00:00 PM 15.73 60.314 0.368 7.05 490.6 9.26
5/3/2022 7:15:00 PM 15.68 60.224 0.368 7.05 474.7 9.17
5/3/2022 7:30:00 PM 15.63 60.134 0.367 7.05 462.1 9.07
5/3/2022 7:45:00 PM 15.57 60.026 0.355 7.04 468.5 9
5/3/2022 8:00:00 PM 15.52 59.936 0.357 7.04 469.6 8.89
5/3/2022 8:15:00 PM 15.47 59.846 0.346 7.03 475.9 8.8
5/3/2022 8:30:00 PM 15.43 59.774 0.325 7.04 505.6 8.73
5/3/2022 8:45:00 PM 15.4 59.72 0.361 7.03 519.9 8.64
5/3/2022 9:00:00 PM 15.38 59.684 0.38 7.03 515.9 8.56
5/3/2022 9:15:00 PM 15.38 59.684 0.335 7.03 511.5 8.54
5/3/2022 9:30:00 PM 15.38 59.684 0.345 7.03 531.9 8.52
5/3/2022 9:45:00 PM 15.38 59.684 0.35 7.04 522.5 8.49
5/3/2022 10:00:00 PM 15.39 59.702 0.313 7.03 522.1 8.49
5/3/2022 10:15:00 PM 15.4 59.72 0.316 7.05 525.5 8.48
5/3/2022 10:30:00 PM 15.4 59.72 0.316 7.06 530.5 8.49
5/3/2022 10:45:00 PM 15.41 59.738 0.311 7.07 518.6 8.51
5/3/2022 11:00:00 PM 15.42 59.756 0.316 7.07 535.4 8.54
5/3/2022 11:15:00 PM 15.44 59.792 0.321 7.09 533.2 8.55
5/3/2022 11:30:00 PM 15.43 59.774 0.317 7.11 530.1 8.56
5/3/2022 11:45:00 PM 15.44 59.792 0.345 7.11 548.5 8.57
5/4/2022 12:00:00 AM 15.4 59.72 0.324 7.12 534.9 8.63
5/4/2022 12:15:00 AM 15.34 59.612 0.385 7.14 701.3 8.63
5/4/2022 12:30:00 AM 15.35 59.63 0.354 7.15 673.1 8.61
5/4/2022 12:45:00 AM 15.37 59.666 0.344 7.17 666.2 8.67
5/4/2022 1:00:00 AM 15.36 59.648 0.356 7.17 682.2 8.67
5/4/2022 1:15:00 AM 15.35 59.63 0.331 7.17 691.8 8.64
5/4/2022 1:30:00 AM 15.35 59.63 0.373 7.17 719.8 8.67
5/4/2022 1:45:00 AM 15.37 59.666 0.367 7.17 711.1 8.66
5/4/2022 2:00:00 AM 15.41 59.738 0.369 7.18 720.8 8.69
5/4/2022 2:15:00 AM 15.43 59.774 0.384 7.18 705.8 8.7
5/4/2022 2:30:00 AM 15.45 59.81 0.386 7.17 896.5 8.69
5/4/2022 2:45:00 AM 15.47 59.846 0.393 7.14 780.1 8.71
5/4/2022 3:00:00 AM 15.48 59.864 0.391 7.15 752.9 8.72
5/4/2022 3:15:00 AM 15.49 59.882 0.391 7.16 754.5 8.72
5/4/2022 3:30:00 AM 15.49 59.882 0.391 7.17 772.7 8.74
5/4/2022 3:45:00 AM 15.49 59.882 0.383 7.17 762.8 8.74
5/4/2022 4:00:00 AM 15.48 59.864 0.394 7.18 765.4 8.77
5/4/2022 4:15:00 AM 15.48 59.864 0.395 7.2 752.2 8.76
5/4/2022 4:30:00 AM 15.49 59.882 0.374 7.19 762.1 8.78
5/4/2022 4:45:00 AM 15.47 59.846 0.366 7.19 766.8 8.75
5/4/2022 5:00:00 AM 15.47 59.846 0.395 7.19 780.8 8.76
5/4/2022 5:15:00 AM 15.45 59.81 0.394 7.19 768.4 8.76
5/4/2022 5:30:00 AM 15.45 59.81 0.393 7.19 774.4 8.76
5/4/2022 5:45:00 AM 15.42 59.756 0.398 7.19 765.3 8.75
5/4/2022 6:00:00 AM 15.4 59.72 0.344 7.18 778.6 8.73
5/4/2022 6:15:00 AM 15.37 59.666 0.343 7.16 782.7 8.73
5/4/2022 6:30:00 AM 15.35 59.63 0.342 7.17 790.8 8.73
5/4/2022 6:45:00 AM 15.34 59.612 0.355 7.17 785.3 8.72
5/4/2022 7:00:00 AM 15.33 59.594 0.344 7.16 792.4 8.7
5/4/2022 7:15:00 AM 15.3 59.54 0.346 7.15 798.2 8.71
5/4/2022 7:30:00 AM 15.28 59.504 0.345 7.14 815 8.69
5/4/2022 7:45:00 AM 15.27 59.486 0.352 7.15 804 8.67
5/4/2022 8:00:00 AM 15.28 59.504 0.351 7.12 808.1 8.74
5/4/2022 8:15:00 AM 15.29 59.522 0.357 7.12 807.4 8.78
5/4/2022 8:30:00 AM 15.29 59.522 0.354 7.12 794.8 8.82
5/4/2022 8:45:00 AM 15.28 59.504 0.357 7.11 807.1 8.86
5/4/2022 9:00:00 AM 15.31 59.558 0.353 7.11 796.9 8.95
5/4/2022 9:15:00 AM 15.33 59.594 0.363 7.12 795.3 8.99
5/4/2022 9:30:00 AM 15.35 59.63 0.36 7.12 813.6 9.09
5/4/2022 9:45:00 AM 15.37 59.666 0.359 7.11 820.7 9.12
5/4/2022 10:00:00 AM 15.4 59.72 0.355 7.12 816.3 9.21
5/4/2022 10:15:00 AM 15.43 59.774 0.367 7.12 1093 9.27
5/4/2022 10:30:00 AM 15.43 59.774 0.348 7.11 830.9 9.3
5/4/2022 10:45:00 AM 15.49 59.882 0.386 7.11 809.3 9.35
5/4/2022 11:00:00 AM 15.53 59.954 0.381 7.12 810.2 9.4
5/4/2022 11:15:00 AM 15.53 59.954 0.394 7.11 805.3 9.42
5/4/2022 11:30:00 AM 15.54 59.972 0.392 7.12 826.5 9.43
5/4/2022 11:45:00 AM 15.55 59.99 0.392 7.12 820.9 9.45
5/4/2022 12:00:00 PM 15.59 60.062 0.393 7.12 827.2 9.46
5/4/2022 12:15:00 PM 15.58 60.044 0.394 7.1 812.4 9.43
5/4/2022 12:30:00 PM 15.6 60.08 0.394 7.11 812.1 9.44
5/4/2022 12:45:00 PM 15.63 60.134 0.394 7.1 805 9.42
5/4/2022 1:00:00 PM 15.6 60.08 0.392 7.1 810.5 9.42
5/4/2022 1:15:00 PM 15.56 60.008 0.39 7.09 829.8 9.34
5/4/2022 1:30:00 PM 15.56 60.008 0.389 7.1 911.4 9.31
5/4/2022 1:45:00 PM 15.61 60.098 0.379 7.08 863.5 9.31
5/4/2022 2:00:00 PM 15.66 60.188 0.385 7.06 848.8 9.31
5/4/2022 2:15:00 PM 15.61 60.098 0.384 7.07 845.8 9.28
5/4/2022 2:30:00 PM 15.63 60.134 0.384 7.07 857.8 9.26
5/4/2022 2:45:00 PM 15.65 60.17 0.388 7.06 882.9 9.28
5/4/2022 3:00:00 PM 15.92 60.656 0.389 7.07 855.3 9.35
5/4/2022 3:15:00 PM 16.13 61.034 0.378 7.08 849.7 9.4
5/4/2022 3:30:00 PM 16.29 61.322 0.391 7.11 848.3 9.45
5/4/2022 3:45:00 PM 16.3 61.34 0.385 7.12 844.9 9.49
5/4/2022 4:00:00 PM 16.37 61.466 0.387 7.14 835.9 9.53
5/4/2022 4:15:00 PM 16.46 61.628 0.387 7.14 855.1 9.53
5/4/2022 4:30:00 PM 16.62 61.916 0.387 7.14 850.8 9.53
5/4/2022 4:45:00 PM 16.73 62.114 0.391 7.15 853.7 9.57
5/4/2022 5:00:00 PM 16.83 62.294 0.391 7.17 843.4 9.58
5/4/2022 5:15:00 PM 16.87 62.366 0.386 7.17 843.8 9.58
5/4/2022 5:30:00 PM 16.84 62.312 0.386 7.17 840.3 9.56
5/4/2022 5:45:00 PM 16.77 62.186 0.392 7.2 848.6 9.53
5/4/2022 6:00:00 PM 16.71 62.078 0.392 7.23 863.4 9.46
5/4/2022 6:15:00 PM 16.65 61.97 0.392 7.22 858 9.43
5/4/2022 6:30:00 PM 16.53 61.754 0.392 7.2 902.3 9.36
5/4/2022 6:45:00 PM 16.37 61.466 0.392 7.19 873.4 9.3
5/4/2022 7:00:00 PM 16.27 61.286 0.391 7.15 865.3 9.22
5/4/2022 7:15:00 PM 16.19 61.142 0.391 7.15 889.7 9.14
5/4/2022 7:30:00 PM 16.12 61.016 0.392 7.13 879.9 9.06
5/4/2022 7:45:00 PM 16.08 60.944 0.391 7.14 904.6 8.97
5/4/2022 8:00:00 PM 16.05 60.89 0.389 7.13 878.7 8.91
5/4/2022 8:15:00 PM 16.02 60.836 0.384 7.11 891.3 8.85
5/4/2022 8:30:00 PM 16.01 60.818 0.363 7.11 912.8 8.81
5/4/2022 8:45:00 PM 16.01 60.818 0.371 7.08 887.1 8.79
5/4/2022 9:00:00 PM 16.02 60.836 0.381 7.08 876.3 8.75
5/4/2022 9:15:00 PM 16.02 60.836 0.385 7.08 879.4 8.73
5/4/2022 9:30:00 PM 16.05 60.89 0.384 7.09 864.7 8.73
5/4/2022 9:45:00 PM 16.07 60.926 0.384 7.1 762.8 8.75
5/4/2022 10:00:00 PM 16.11 60.998 0.307 7.11 772.6 8.76
5/4/2022 10:15:00 PM 16.14 61.052 0.362 7.13 786.1 8.78
5/4/2022 10:30:00 PM 16.18 61.124 0.355 7.14 750.6 8.79
5/4/2022 10:45:00 PM 16.2 61.16 0.357 7.14 791.5 8.8
5/4/2022 11:00:00 PM 16.23 61.214 0.363 7.16 762.2 8.82
5/4/2022 11:15:00 PM 16.27 61.286 0.341 7.18 778.9 8.83
5/4/2022 11:30:00 PM 16.28 61.304 0.345 7.18 778.8 8.81
5/4/2022 11:45:00 PM 16.29 61.322 0.357 7.2 805.3 8.85
5/5/2022 12:00:00 AM 16.33 61.394 0.38 7.21 823.1 8.83
5/5/2022 12:15:00 AM 16.33 61.394 0.38 7.23 815.8 8.84
5/5/2022 12:30:00 AM 16.35 61.43 0.379 7.27 804.4 8.85
5/5/2022 12:45:00 AM 16.37 61.466 0.379 7.27 817.3 8.85
5/5/2022 1:00:00 AM 16.37 61.466 0.379 7.28 821.6 8.86
5/5/2022 1:15:00 AM 16.37 61.466 0.378 7.29 817.5 8.86
5/5/2022 1:30:00 AM 16.36 61.448 0.378 7.29 884.8 8.85
5/5/2022 1:45:00 AM 16.36 61.448 0.378 7.29 801.9 8.86
5/5/2022 2:00:00 AM 16.34 61.412 0.378 7.3 799.4 8.83
5/5/2022 2:15:00 AM 16.34 61.412 0.378 7.28 814.8 8.82
5/5/2022 2:30:00 AM 16.32 61.376 0.377 7.28 816.8 8.84
5/5/2022 2:45:00 AM 16.3 61.34 0.377 7.29 821.7 8.85
5/5/2022 3:00:00 AM 16.27 61.286 0.377 7.29 851.7 8.83
5/5/2022 3:15:00 AM 16.23 61.214 0.377 7.28 741.5 8.82
5/5/2022 3:30:00 AM 16.21 61.178 0.376 7.27 767.1 8.8
5/5/2022 3:45:00 AM 16.18 61.124 0.376 7.26 833.9 8.77
5/5/2022 4:00:00 AM 16.14 61.052 0.376 7.25 816.6 8.76
5/5/2022 4:15:00 AM 16.1 60.98 0.375 7.23 1044 8.68
5/5/2022 4:30:00 AM 16.06 60.908 0.375 7.21 932.5 8.7
5/5/2022 4:45:00 AM 16.02 60.836 0.375 7.2 831.7 8.67
5/5/2022 5:00:00 AM 15.99 60.782 0.374 7.19 824.6 8.67
5/5/2022 5:15:00 AM 15.97 60.746 0.375 7.18 816.8 8.64
5/5/2022 5:30:00 AM 15.93 60.674 0.375 7.18 810.6 8.6
5/5/2022 5:45:00 AM 15.9 60.62 0.375 7.17 822.5 8.58
5/5/2022 6:00:00 AM 15.88 60.584 0.375 7.15 840.3 8.56
5/5/2022 6:15:00 AM 15.83 60.494 0.375 7.13 835.5 8.53
5/5/2022 6:30:00 AM 15.8 60.44 0.375 7.13 821.9 8.51
5/5/2022 6:45:00 AM 15.76 60.368 0.375 7.11 836.5 8.51
5/5/2022 7:00:00 AM 15.74 60.332 0.375 7.1 836.9 8.5
5/5/2022 7:15:00 AM 15.73 60.314 0.374 7.1 1029 8.52
5/5/2022 7:30:00 AM 15.72 60.296 0.374 7.1 1242 8.55
5/5/2022 7:45:00 AM 15.72 60.296 0.374 7.09 839 8.59
5/5/2022 8:00:00 AM 15.69 60.242 0.373 7.1 833.8 8.62
5/5/2022 8:15:00 AM 15.66 60.188 0.373 7.09 876.4 8.64
5/5/2022 8:30:00 AM 15.65 60.17 0.372 7.09 853.4 8.71
5/5/2022 8:45:00 AM 15.65 60.17 0.371 7.09 848.7 8.75
5/5/2022 9:00:00 AM 15.66 60.188 0.371 7.09 858.7 8.77
5/5/2022 9:15:00 AM 15.69 60.242 0.37 7.11 879.2 8.83
5/5/2022 9:30:00 AM 15.71 60.278 0.37 7.11 871.8 8.86
5/5/2022 9:45:00 AM 15.76 60.368 0.369 7.1 876.5 8.92
5/5/2022 10:00:00 AM 15.82 60.476 0.369 7.11 889.1 8.96
5/5/2022 10:15:00 AM 15.89 60.602 0.368 7.11 882.9 9
5/5/2022 10:30:00 AM 15.97 60.746 0.368 7.12 886.7 9.05
5/5/2022 10:45:00 AM 16.05 60.89 0.367 7.14 897 9.09
5/5/2022 11:00:00 AM 16.16 61.088 0.367 7.15 863.4 9.15
5/5/2022 11:15:00 AM 16.24 61.232 0.367 7.18 875.3 9.18
5/5/2022 11:30:00 AM 16.34 61.412 0.366 7.19 850.7 9.22
5/5/2022 11:45:00 AM 16.45 61.61 0.366 7.2 873.2 9.27
5/5/2022 12:00:00 PM 16.56 61.808 0.366 7.2 855.4 9.29
5/5/2022 12:15:00 PM 19.63 67.334 0 7.29 3534 8.67
5/5/2022 12:30:00 PM 16.68 62.024 0.358 7.4 8.83 9.91
5/5/2022 12:45:00 PM 16.79 62.222 0.357 7.73 4.69 9.92
5/5/2022 1:00:00 PM 16.94 62.492 0.357 7.85 5.12 9.96
5/5/2022 1:15:00 PM 17.06 62.708 0.357 7.92 4.06 9.99
5/5/2022 1:30:00 PM 17.2 62.96 0.357 7.96 3.5 10.03
5/5/2022 1:45:00 PM 17.34 63.212 0.357 7.98 5.46 10.04
5/5/2022 2:00:00 PM 17.5 63.5 0.357 8 5.49 10.05
5/5/2022 2:15:00 PM 17.64 63.752 0.356 8.01 3.62 10.07
5/5/2022 2:30:00 PM 17.76 63.968 0.356 8.02 4.02 10.08
5/5/2022 2:45:00 PM 17.92 64.256 0.356 8.03 4 10.09
5/5/2022 3:00:00 PM 18.08 64.544 0.356 8.04 3.67 10.1
5/5/2022 3:15:00 PM 18.18 64.724 0.356 8.05 4.06 10.1
5/5/2022 3:30:00 PM 18.32 64.976 0.356 8.04 3.86 10.11
5/5/2022 3:45:00 PM 18.42 65.156 0.356 8.05 3.48 10.11
5/5/2022 4:00:00 PM 18.47 65.246 0.356 8.07 3.68 10.11
5/5/2022 4:15:00 PM 18.53 65.354 0.356 8.06 3.57 10.09
5/5/2022 4:30:00 PM 18.51 65.318 0.356 8.07 3.38 10.07
5/5/2022 4:45:00 PM 18.44 65.192 0.356 8.08 3.92 10.03
5/5/2022 5:00:00 PM 18.42 65.156 0.356 8.09 3.47 9.99
5/5/2022 5:15:00 PM 18.4 65.12 0.356 8.09 3.97 9.98
5/5/2022 5:30:00 PM 18.37 65.066 0.356 8.1 3.76 9.91
5/5/2022 5:45:00 PM 18.31 64.958 0.356 8.09 3.88 9.88
5/5/2022 6:00:00 PM 18.25 64.85 0.356 8.1 3.3 9.81
5/5/2022 6:15:00 PM 18.18 64.724 0.356 8.08 3.98 9.74
5/5/2022 6:30:00 PM 18.12 64.616 0.356 8.09 4.04 9.66
5/5/2022 6:45:00 PM 18.1 64.58 0.356 8.08 4.41 9.57
5/5/2022 7:00:00 PM 18.08 64.544 0.356 8.09 3.83 9.5
5/5/2022 7:15:00 PM 18.08 64.544 0.356 8.09 4.9 9.42
5/5/2022 7:30:00 PM 18.06 64.508 0.356 8.09 4.69 9.35
5/5/2022 7:45:00 PM 18.05 64.49 0.356 8.08 3.98 9.26
5/5/2022 8:00:00 PM 18.04 64.472 0.356 8.09 4.38 9.19
5/5/2022 8:15:00 PM 18.04 64.472 0.356 8.08 3.3 9.13
5/5/2022 8:30:00 PM 18.05 64.49 0.356 8.08 3.66 9.07
5/5/2022 8:45:00 PM 18.07 64.526 0.356 8.07 4.62 9
5/5/2022 9:00:00 PM 18.08 64.544 0.357 8.07 4.68 8.97
5/5/2022 9:15:00 PM 18.12 64.616 0.357 8.08 4.65 8.94
5/5/2022 9:30:00 PM 18.18 64.724 0.357 8.08 4.78 8.92
5/5/2022 9:45:00 PM 18.21 64.778 0.357 8.09 4.6 8.92
5/5/2022 10:00:00 PM 18.26 64.868 0.354 8.1 3.58 8.92
5/5/2022 10:15:00 PM 18.31 64.958 0.357 8.1 4.16 8.92
5/5/2022 10:30:00 PM 18.34 65.012 0.357 8.11 3.8 8.92
5/5/2022 10:45:00 PM 18.38 65.084 0.357 8.12 3.8 8.93
5/5/2022 11:00:00 PM 18.42 65.156 0.357 8.14 4.21 8.93
5/5/2022 11:15:00 PM 18.45 65.21 0.357 8.14 4.59 8.92
5/5/2022 11:30:00 PM 18.49 65.282 0.358 8.15 4.89 8.96
5/5/2022 11:45:00 PM 18.5 65.3 0.352 8.16 4.22 8.95
5/6/2022 12:00:00 AM 18.53 65.354 0.358 8.17 4.15 8.95
5/6/2022 12:15:00 AM 18.53 65.354 0.319 8.18 3.23 8.94
5/6/2022 12:30:00 AM 18.54 65.372 0.358 8.19 3.85 8.93
5/6/2022 12:45:00 AM 18.54 65.372 0.358 8.2 3.7 8.93
5/6/2022 1:00:00 AM 18.53 65.354 0.34 8.2 3.55 8.91
5/6/2022 1:15:00 AM 18.53 65.354 0.359 8.21 3.66 8.91
5/6/2022 1:30:00 AM 18.51 65.318 0.359 8.21 3.6 8.92
5/6/2022 1:45:00 AM 18.5 65.3 0.359 8.21 4.81 8.9
5/6/2022 2:00:00 AM 18.47 65.246 0.359 8.2 4.22 8.87
5/6/2022 2:15:00 AM 18.46 65.228 0.36 8.2 3.34 8.86
5/6/2022 2:30:00 AM 18.43 65.174 0.36 8.2 3.6 8.86
5/6/2022 2:45:00 AM 18.41 65.138 0.36 8.2 3.64 8.86
5/6/2022 3:00:00 AM 18.37 65.066 0.36 8.19 3.19 8.83
5/6/2022 3:15:00 AM 18.34 65.012 0.359 8.18 4.09 8.82
5/6/2022 3:30:00 AM 18.31 64.958 0.345 8.17 3.02 8.8
5/6/2022 3:45:00 AM 18.28 64.904 0.333 8.16 4.04 8.77
5/6/2022 4:00:00 AM 18.25 64.85 0.332 8.16 3.52 8.77
5/6/2022 4:15:00 AM 18.21 64.778 0.361 8.14 4.92 8.73
5/6/2022 4:30:00 AM 18.18 64.724 0.361 8.13 5 8.73
5/6/2022 4:45:00 AM 18.13 64.634 0.361 8.13 4.07 8.69
5/6/2022 5:00:00 AM 18.1 64.58 0.341 8.11 3.65 8.68
5/6/2022 5:15:00 AM 18.06 64.508 0.361 8.11 4.88 8.63
5/6/2022 5:30:00 AM 18.01 64.418 0.353 8.1 4.49 8.61
5/6/2022 5:45:00 AM 17.97 64.346 0.362 8.08 4.58 8.59
5/6/2022 6:00:00 AM 17.93 64.274 0.343 8.07 3.29 8.57
5/6/2022 6:15:00 AM 17.88 64.184 0.359 8.06 4.21 8.54
5/6/2022 6:30:00 AM 17.82 64.076 0.358 8.05 4.87 8.51
5/6/2022 6:45:00 AM 17.77 63.986 0.357 8.03 5.63 8.51
5/6/2022 7:00:00 AM 17.71 63.878 0.357 8.02 5.53 8.47
5/6/2022 7:15:00 AM 17.64 63.752 0.355 8.01 9.12 8.46
5/6/2022 7:30:00 AM 17.58 63.644 0.354 8 6.01 8.47
5/6/2022 7:45:00 AM 17.5 63.5 0.352 7.99 7.63 8.47
5/6/2022 8:00:00 AM 17.42 63.356 0.349 7.98 9.72 8.48
5/6/2022 8:15:00 AM 17.34 63.212 0.345 7.97 8.47 8.47
5/6/2022 8:30:00 AM 17.27 63.086 0.34 7.96 15.19 8.51
5/6/2022 8:45:00 AM 17.17 62.906 0.333 7.95 15.35 8.52
5/6/2022 9:00:00 AM 17.06 62.708 0.326 7.94 16.27 8.55
5/6/2022 9:15:00 AM 16.93 62.474 0.318 7.92 19.39 8.57
5/6/2022 9:30:00 AM 16.76 62.168 0.307 7.89 24.92 8.59
5/6/2022 9:45:00 AM 16.6 61.88 0.297 7.87 32.15 8.6
5/6/2022 10:00:00 AM 16.53 61.754 0.293 7.85 30.1 8.57
5/6/2022 10:15:00 AM 16.43 61.574 0.29 7.83 37.47 8.54
5/6/2022 10:30:00 AM 16.4 61.52 0.291 7.81 31.99 8.51
5/6/2022 10:45:00 AM 16.34 61.412 0.291 7.79 33.8 8.49
5/6/2022 11:00:00 AM 16.34 61.412 0.297 7.78 28.72 8.49
5/6/2022 11:15:00 AM 16.34 61.412 0.3 7.77 26.5 8.48
5/6/2022 11:30:00 AM 16.36 61.448 0.304 7.78 26.69 8.47
5/6/2022 11:45:00 AM 16.36 61.448 0.309 7.78 20.26 8.5
5/6/2022 12:00:00 PM 16.38 61.484 0.313 7.78 16.52 8.51
5/6/2022 12:15:00 PM 16.37 61.466 0.315 7.78 17.07 8.52
5/6/2022 12:30:00 PM 16.36 61.448 0.317 7.79 17.92 8.54
5/6/2022 12:45:00 PM 16.35 61.43 0.32 7.79 17.21 8.57
5/6/2022 1:00:00 PM 16.31 61.358 0.321 7.79 16 8.59
5/6/2022 1:15:00 PM 16.28 61.304 0.323 7.79 22.78 8.59
5/6/2022 1:30:00 PM 16.27 61.286 0.324 7.79 13.62 8.64
5/6/2022 1:45:00 PM 16.21 61.178 0.321 7.79 14.37 8.65
5/6/2022 2:00:00 PM 16.17 61.106 0.321 7.79 15.4 8.67
5/6/2022 2:15:00 PM 16.13 61.034 0.32 7.79 17.58 8.7
5/6/2022 2:30:00 PM 16.06 60.908 0.317 7.79 20.45 8.73
5/6/2022 2:45:00 PM 15.96 60.728 0.312 7.78 816.7 8.76
5/6/2022 3:00:00 PM 15.86 60.548 0.308 7.78 40.01 8.8
5/6/2022 3:15:00 PM 15.72 60.296 0.299 7.77 31.68 8.83
5/6/2022 3:30:00 PM 15.59 60.062 0.294 7.75 38.59 8.88
5/6/2022 3:45:00 PM 15.46 59.828 0.288 7.74 54.48 8.9
5/6/2022 4:00:00 PM 15.35 59.63 0.285 7.72 59.72 8.94
5/6/2022 4:15:00 PM 15.25 59.45 0.282 7.71 69.85 8.95
5/6/2022 4:30:00 PM 15.18 59.324 0.28 7.7 74.49 8.99
5/6/2022 4:45:00 PM 15.12 59.216 0.27 7.69 63.86 9.02
5/6/2022 5:00:00 PM 15.06 59.108 0.271 7.68 74.41 9.04
5/6/2022 5:15:00 PM 15.05 59.09 0.273 7.67 68 9.06
5/6/2022 5:30:00 PM 15.02 59.036 0.268 7.67 65.56 9.08
5/6/2022 5:45:00 PM 14.98 58.964 0.269 7.66 72.96 9.08
5/6/2022 6:00:00 PM 14.93 58.874 0.266 7.66 57.61 9.09
5/6/2022 6:15:00 PM 14.89 58.802 0.261 7.65 65.05 9.1
5/6/2022 6:30:00 PM 14.82 58.676 0.257 7.64 78.12 9.11
5/6/2022 6:45:00 PM 14.75 58.55 0.252 7.63 77.73 9.12
5/6/2022 7:00:00 PM 14.66 58.388 0.241 7.61 97.44 9.13
5/6/2022 7:15:00 PM 14.57 58.226 0.244 7.6 98.98 9.15
5/6/2022 7:30:00 PM 14.47 58.046 0.225 7.58 94.56 9.16
5/6/2022 7:45:00 PM 14.38 57.884 0.228 7.57 87.71 9.17
5/6/2022 8:00:00 PM 14.31 57.758 0.229 7.56 111.7 9.17
5/6/2022 8:15:00 PM 14.25 57.65 0.223 7.55 103.4 9.17
5/6/2022 8:30:00 PM 14.2 57.56 0.221 7.54 107.5 9.17
5/6/2022 8:45:00 PM 14.16 57.488 0.208 7.53 99.2 9.15
5/6/2022 9:00:00 PM 14.11 57.398 0.209 7.52 532.4 9.08
5/6/2022 9:15:00 PM 14.08 57.344 0.238 7.51 535 9.06
5/6/2022 9:30:00 PM 14.02 57.236 0.219 7.51 542.5 9.13
5/6/2022 9:45:00 PM 13.97 57.146 0.213 7.51 546.5 9.1
5/6/2022 10:00:00 PM 13.91 57.038 0.227 7.5 550.3 9.22
5/6/2022 10:15:00 PM 13.86 56.948 0.221 7.5 557.8 9.26
5/6/2022 10:30:00 PM 13.81 56.858 0.212 7.5 567.9 9.29
5/6/2022 10:45:00 PM 13.76 56.768 0.193 7.5 573.4 9.32
5/6/2022 11:00:00 PM 13.72 56.696 0.2 7.5 581.8 9.34
5/6/2022 11:15:00 PM 13.67 56.606 0.207 7.5 588.4 9.34
5/6/2022 11:30:00 PM 13.64 56.552 0.225 7.5 591.3 9.36
5/6/2022 11:45:00 PM 13.6 56.48 0.224 7.5 594.5 9.34
5/7/2022 12:00:00 AM 13.57 56.426 0.223 7.49 599.2 9.32
5/7/2022 12:15:00 AM 13.53 56.354 0.222 7.49 603.3 9.35
5/7/2022 12:30:00 AM 13.49 56.282 0.221 7.49 608 9.37
5/7/2022 12:45:00 AM 13.45 56.21 0.22 7.49 619.4 9.38
5/7/2022 1:00:00 AM 13.41 56.138 0.219 7.49 622.7 9.41
5/7/2022 1:15:00 AM 13.37 56.066 0.218 7.49 628.8 9.41
5/7/2022 1:30:00 AM 13.34 56.012 0.218 7.48 633.5 9.42
5/7/2022 1:45:00 AM 13.3 55.94 0.218 7.49 639.6 9.43
5/7/2022 2:00:00 AM 13.27 55.886 0.217 7.48 648.3 9.42
5/7/2022 2:15:00 AM 13.24 55.832 0.216 7.49 654.3 9.44
5/7/2022 2:30:00 AM 13.21 55.778 0.215 7.49 659.2 9.44
5/7/2022 2:45:00 AM 13.18 55.724 0.214 7.49 663.9 9.44
5/7/2022 3:00:00 AM 13.15 55.67 0.192 7.49 668.3 9.46
5/7/2022 3:15:00 AM 13.12 55.616 0.193 7.48 674 9.46
5/7/2022 3:30:00 AM 13.08 55.544 0.194 7.48 676.2 9.49
5/7/2022 3:45:00 AM 13.04 55.472 0.19 7.48 682.9 9.47
5/7/2022 4:00:00 AM 13 55.4 0.191 7.48 694.3 9.48
5/7/2022 4:15:00 AM 12.96 55.328 0.193 7.48 689.7 9.5
5/7/2022 4:30:00 AM 12.92 55.256 0.196 7.48 692.9 9.53
5/7/2022 4:45:00 AM 12.88 55.184 0.194 7.48 701.7 9.48
5/7/2022 5:00:00 AM 12.84 55.112 0.193 7.48 702.9 9.53
5/7/2022 5:15:00 AM 12.8 55.04 0.192 7.48 706.1 9.49
5/7/2022 5:30:00 AM 12.76 54.968 0.201 7.48 710.7 9.57
5/7/2022 5:45:00 AM 12.72 54.896 0.198 7.47 713.6 9.53
5/7/2022 6:00:00 AM 12.67 54.806 0.203 7.47 716.6 8.67
5/7/2022 6:15:00 AM 12.63 54.734 0.201 7.47 718.3 8.26
5/7/2022 6:30:00 AM 12.59 54.662 0.201 7.47 720.5 8.14
5/7/2022 6:45:00 AM 12.55 54.59 0.201 7.47 722.4 0.73
5/7/2022 7:00:00 AM 12.52 54.536 0.199 7.47 725.2 0.37
5/7/2022 7:15:00 AM 12.49 54.482 0.199 7.47 726.7 0.54
5/7/2022 7:30:00 AM 12.46 54.428 0.199 7.46 728.3 2.78
5/7/2022 7:45:00 AM 12.43 54.374 0.199 7.46 730.4 9.33
5/7/2022 8:00:00 AM 12.4 54.32 0.199 7.46 733.4 9.55
5/7/2022 8:15:00 AM 12.38 54.284 0.197 7.45 735.6 9.5
5/7/2022 8:30:00 AM 12.35 54.23 0.196 7.45 737.2 9.58
5/7/2022 8:45:00 AM 12.33 54.194 0.197 7.45 739.5 8.79
5/7/2022 9:00:00 AM 12.31 54.158 0.196 7.44 741.6 7.89
5/7/2022 9:15:00 AM 12.29 54.122 0.197 7.44 743.8 8.53
5/7/2022 9:30:00 AM 12.27